<?xml version="1.0" encoding="UTF-8" standalone="no" ?>
<gpx xmlns="http://www.topografix.com/GPX/1/1" xmlns:xsi="http://www.w3.org/2001/XMLSchema-instance" xsi:schemaLocation="http://www.topografix.com/GPX/1/1 http://www.topografix.com/GPX/1/1/gpx.xsd" version="1.1" creator="VisuGPX - https://www.visugpx.com">
  <metadata>
    <name>métropolitaine saleux, salouel, pont-de-metz</name>
  </metadata>
  <trk>
    <name><![CDATA[métropolitaine saleux, salouel, pont-de-metz_1]]></name>
    <trkseg>
      <trkpt lat="49.86213" lon="2.22593">
        <ele>45.7</ele>
        <time>2024-05-17T12:03:06Z</time>
      </trkpt>
      <trkpt lat="49.86213" lon="2.22593">
        <ele>45.7</ele>
        <time>2024-05-17T12:03:07Z</time>
      </trkpt>
      <trkpt lat="49.86213" lon="2.22593">
        <ele>45.7</ele>
        <time>2024-05-17T12:03:08Z</time>
      </trkpt>
      <trkpt lat="49.86212" lon="2.22598">
        <ele>45.6</ele>
        <time>2024-05-17T12:03:10Z</time>
      </trkpt>
      <trkpt lat="49.8621" lon="2.22609">
        <ele>45.5</ele>
        <time>2024-05-17T12:03:11Z</time>
      </trkpt>
      <trkpt lat="49.86209" lon="2.22614">
        <ele>45.4</ele>
        <time>2024-05-17T12:03:12Z</time>
      </trkpt>
      <trkpt lat="49.86209" lon="2.22615">
        <ele>45.3</ele>
        <time>2024-05-17T12:03:13Z</time>
      </trkpt>
      <trkpt lat="49.8621" lon="2.22615">
        <ele>45.4</ele>
        <time>2024-05-17T12:03:14Z</time>
      </trkpt>
      <trkpt lat="49.8621" lon="2.22615">
        <ele>45.4</ele>
        <time>2024-05-17T12:03:15Z</time>
      </trkpt>
      <trkpt lat="49.86211" lon="2.22614">
        <ele>45.4</ele>
        <time>2024-05-17T12:03:16Z</time>
      </trkpt>
      <trkpt lat="49.86212" lon="2.22613">
        <ele>45.5</ele>
        <time>2024-05-17T12:03:17Z</time>
      </trkpt>
      <trkpt lat="49.86213" lon="2.22612">
        <ele>45.5</ele>
        <time>2024-05-17T12:03:18Z</time>
      </trkpt>
      <trkpt lat="49.86214" lon="2.22611">
        <ele>45.6</ele>
        <time>2024-05-17T12:03:19Z</time>
      </trkpt>
      <trkpt lat="49.86214" lon="2.22609">
        <ele>45.6</ele>
        <time>2024-05-17T12:03:20Z</time>
      </trkpt>
      <trkpt lat="49.86215" lon="2.22608">
        <ele>45.6</ele>
        <time>2024-05-17T12:03:21Z</time>
      </trkpt>
      <trkpt lat="49.86215" lon="2.22607">
        <ele>45.6</ele>
        <time>2024-05-17T12:03:22Z</time>
      </trkpt>
      <trkpt lat="49.86216" lon="2.22606">
        <ele>45.6</ele>
        <time>2024-05-17T12:03:23Z</time>
      </trkpt>
      <trkpt lat="49.86216" lon="2.22605">
        <ele>45.6</ele>
        <time>2024-05-17T12:03:24Z</time>
      </trkpt>
      <trkpt lat="49.86217" lon="2.22603">
        <ele>45.7</ele>
        <time>2024-05-17T12:03:25Z</time>
      </trkpt>
      <trkpt lat="49.86218" lon="2.22602">
        <ele>45.7</ele>
        <time>2024-05-17T12:03:26Z</time>
      </trkpt>
      <trkpt lat="49.86217" lon="2.22602">
        <ele>45.7</ele>
        <time>2024-05-17T12:03:27Z</time>
      </trkpt>
      <trkpt lat="49.86217" lon="2.22602">
        <ele>45.7</ele>
        <time>2024-05-17T12:03:28Z</time>
      </trkpt>
      <trkpt lat="49.86218" lon="2.22601">
        <ele>45.7</ele>
        <time>2024-05-17T12:03:29Z</time>
      </trkpt>
      <trkpt lat="49.86218" lon="2.226">
        <ele>45.7</ele>
        <time>2024-05-17T12:03:30Z</time>
      </trkpt>
      <trkpt lat="49.86219" lon="2.22599">
        <ele>45.7</ele>
        <time>2024-05-17T12:03:31Z</time>
      </trkpt>
      <trkpt lat="49.8622" lon="2.22598">
        <ele>45.7</ele>
        <time>2024-05-17T12:03:32Z</time>
      </trkpt>
      <trkpt lat="49.8622" lon="2.22597">
        <ele>45.7</ele>
        <time>2024-05-17T12:03:33Z</time>
      </trkpt>
      <trkpt lat="49.86221" lon="2.22596">
        <ele>45.8</ele>
        <time>2024-05-17T12:03:34Z</time>
      </trkpt>
      <trkpt lat="49.86222" lon="2.22595">
        <ele>45.8</ele>
        <time>2024-05-17T12:03:35Z</time>
      </trkpt>
      <trkpt lat="49.86222" lon="2.22594">
        <ele>45.8</ele>
        <time>2024-05-17T12:03:36Z</time>
      </trkpt>
      <trkpt lat="49.86223" lon="2.22593">
        <ele>45.8</ele>
        <time>2024-05-17T12:03:37Z</time>
      </trkpt>
      <trkpt lat="49.86224" lon="2.22593">
        <ele>45.8</ele>
        <time>2024-05-17T12:03:38Z</time>
      </trkpt>
      <trkpt lat="49.86224" lon="2.22592">
        <ele>45.8</ele>
        <time>2024-05-17T12:03:39Z</time>
      </trkpt>
      <trkpt lat="49.86225" lon="2.22591">
        <ele>45.8</ele>
        <time>2024-05-17T12:03:40Z</time>
      </trkpt>
      <trkpt lat="49.86226" lon="2.2259">
        <ele>45.8</ele>
        <time>2024-05-17T12:03:41Z</time>
      </trkpt>
      <trkpt lat="49.86226" lon="2.2259">
        <ele>45.8</ele>
        <time>2024-05-17T12:03:42Z</time>
      </trkpt>
      <trkpt lat="49.86227" lon="2.22589">
        <ele>45.9</ele>
        <time>2024-05-17T12:03:43Z</time>
      </trkpt>
      <trkpt lat="49.86228" lon="2.22589">
        <ele>45.9</ele>
        <time>2024-05-17T12:03:44Z</time>
      </trkpt>
      <trkpt lat="49.86229" lon="2.22588">
        <ele>45.9</ele>
        <time>2024-05-17T12:03:45Z</time>
      </trkpt>
      <trkpt lat="49.86229" lon="2.22588">
        <ele>45.9</ele>
        <time>2024-05-17T12:03:46Z</time>
      </trkpt>
      <trkpt lat="49.8623" lon="2.22587">
        <ele>45.9</ele>
        <time>2024-05-17T12:03:47Z</time>
      </trkpt>
      <trkpt lat="49.86232" lon="2.22587">
        <ele>46</ele>
        <time>2024-05-17T12:03:48Z</time>
      </trkpt>
      <trkpt lat="49.86233" lon="2.22587">
        <ele>46</ele>
        <time>2024-05-17T12:03:49Z</time>
      </trkpt>
      <trkpt lat="49.86234" lon="2.22587">
        <ele>46</ele>
        <time>2024-05-17T12:03:50Z</time>
      </trkpt>
      <trkpt lat="49.86235" lon="2.22587">
        <ele>46</ele>
        <time>2024-05-17T12:03:51Z</time>
      </trkpt>
      <trkpt lat="49.86237" lon="2.22587">
        <ele>46.1</ele>
        <time>2024-05-17T12:03:52Z</time>
      </trkpt>
      <trkpt lat="49.86238" lon="2.22587">
        <ele>46.1</ele>
        <time>2024-05-17T12:03:53Z</time>
      </trkpt>
      <trkpt lat="49.86239" lon="2.22587">
        <ele>46.1</ele>
        <time>2024-05-17T12:03:54Z</time>
      </trkpt>
      <trkpt lat="49.86241" lon="2.22587">
        <ele>46.2</ele>
        <time>2024-05-17T12:03:55Z</time>
      </trkpt>
      <trkpt lat="49.86243" lon="2.22587">
        <ele>46.2</ele>
        <time>2024-05-17T12:03:56Z</time>
      </trkpt>
      <trkpt lat="49.86244" lon="2.22587">
        <ele>46.2</ele>
        <time>2024-05-17T12:03:57Z</time>
      </trkpt>
      <trkpt lat="49.86245" lon="2.22587">
        <ele>46.2</ele>
        <time>2024-05-17T12:03:58Z</time>
      </trkpt>
      <trkpt lat="49.86246" lon="2.22587">
        <ele>46.3</ele>
        <time>2024-05-17T12:03:59Z</time>
      </trkpt>
      <trkpt lat="49.86247" lon="2.22588">
        <ele>46.3</ele>
        <time>2024-05-17T12:04:00Z</time>
      </trkpt>
      <trkpt lat="49.86248" lon="2.22588">
        <ele>46.3</ele>
        <time>2024-05-17T12:04:01Z</time>
      </trkpt>
      <trkpt lat="49.86249" lon="2.22588">
        <ele>46.3</ele>
        <time>2024-05-17T12:04:02Z</time>
      </trkpt>
      <trkpt lat="49.8625" lon="2.22588">
        <ele>46.4</ele>
        <time>2024-05-17T12:04:03Z</time>
      </trkpt>
      <trkpt lat="49.86251" lon="2.22589">
        <ele>46.4</ele>
        <time>2024-05-17T12:04:04Z</time>
      </trkpt>
      <trkpt lat="49.86251" lon="2.22589">
        <ele>46.4</ele>
        <time>2024-05-17T12:04:05Z</time>
      </trkpt>
      <trkpt lat="49.86252" lon="2.2259">
        <ele>46.4</ele>
        <time>2024-05-17T12:04:06Z</time>
      </trkpt>
      <trkpt lat="49.86253" lon="2.2259">
        <ele>46.4</ele>
        <time>2024-05-17T12:04:07Z</time>
      </trkpt>
      <trkpt lat="49.86254" lon="2.22591">
        <ele>46.5</ele>
        <time>2024-05-17T12:04:08Z</time>
      </trkpt>
      <trkpt lat="49.86255" lon="2.22591">
        <ele>46.5</ele>
        <time>2024-05-17T12:04:09Z</time>
      </trkpt>
      <trkpt lat="49.86256" lon="2.22592">
        <ele>46.5</ele>
        <time>2024-05-17T12:04:10Z</time>
      </trkpt>
      <trkpt lat="49.86256" lon="2.22592">
        <ele>46.5</ele>
        <time>2024-05-17T12:04:11Z</time>
      </trkpt>
      <trkpt lat="49.86257" lon="2.22592">
        <ele>46.6</ele>
        <time>2024-05-17T12:04:12Z</time>
      </trkpt>
      <trkpt lat="49.86258" lon="2.22593">
        <ele>46.6</ele>
        <time>2024-05-17T12:04:13Z</time>
      </trkpt>
      <trkpt lat="49.86258" lon="2.22593">
        <ele>46.6</ele>
        <time>2024-05-17T12:04:14Z</time>
      </trkpt>
      <trkpt lat="49.86259" lon="2.22594">
        <ele>46.6</ele>
        <time>2024-05-17T12:04:15Z</time>
      </trkpt>
      <trkpt lat="49.8626" lon="2.22594">
        <ele>46.7</ele>
        <time>2024-05-17T12:04:16Z</time>
      </trkpt>
      <trkpt lat="49.86261" lon="2.22594">
        <ele>46.7</ele>
        <time>2024-05-17T12:04:17Z</time>
      </trkpt>
      <trkpt lat="49.86262" lon="2.22594">
        <ele>46.7</ele>
        <time>2024-05-17T12:04:18Z</time>
      </trkpt>
      <trkpt lat="49.86262" lon="2.22595">
        <ele>46.7</ele>
        <time>2024-05-17T12:04:19Z</time>
      </trkpt>
      <trkpt lat="49.86263" lon="2.22595">
        <ele>46.7</ele>
        <time>2024-05-17T12:04:20Z</time>
      </trkpt>
      <trkpt lat="49.86264" lon="2.22595">
        <ele>46.8</ele>
        <time>2024-05-17T12:04:21Z</time>
      </trkpt>
      <trkpt lat="49.86265" lon="2.22594">
        <ele>46.8</ele>
        <time>2024-05-17T12:04:22Z</time>
      </trkpt>
      <trkpt lat="49.86265" lon="2.22594">
        <ele>46.8</ele>
        <time>2024-05-17T12:04:23Z</time>
      </trkpt>
      <trkpt lat="49.86266" lon="2.22594">
        <ele>46.8</ele>
        <time>2024-05-17T12:04:24Z</time>
      </trkpt>
      <trkpt lat="49.86267" lon="2.22594">
        <ele>46.9</ele>
        <time>2024-05-17T12:04:25Z</time>
      </trkpt>
      <trkpt lat="49.86268" lon="2.22594">
        <ele>46.9</ele>
        <time>2024-05-17T12:04:26Z</time>
      </trkpt>
      <trkpt lat="49.86268" lon="2.22594">
        <ele>46.9</ele>
        <time>2024-05-17T12:04:27Z</time>
      </trkpt>
      <trkpt lat="49.86269" lon="2.22594">
        <ele>46.9</ele>
        <time>2024-05-17T12:04:28Z</time>
      </trkpt>
      <trkpt lat="49.8627" lon="2.22594">
        <ele>47</ele>
        <time>2024-05-17T12:04:29Z</time>
      </trkpt>
      <trkpt lat="49.86271" lon="2.22594">
        <ele>47</ele>
        <time>2024-05-17T12:04:30Z</time>
      </trkpt>
      <trkpt lat="49.86272" lon="2.22594">
        <ele>47</ele>
        <time>2024-05-17T12:04:31Z</time>
      </trkpt>
      <trkpt lat="49.86273" lon="2.22595">
        <ele>47.1</ele>
        <time>2024-05-17T12:04:32Z</time>
      </trkpt>
      <trkpt lat="49.86274" lon="2.22595">
        <ele>47.1</ele>
        <time>2024-05-17T12:04:33Z</time>
      </trkpt>
      <trkpt lat="49.86275" lon="2.22595">
        <ele>47.1</ele>
        <time>2024-05-17T12:04:34Z</time>
      </trkpt>
      <trkpt lat="49.86275" lon="2.22595">
        <ele>47.2</ele>
        <time>2024-05-17T12:04:35Z</time>
      </trkpt>
      <trkpt lat="49.86276" lon="2.22595">
        <ele>47.2</ele>
        <time>2024-05-17T12:04:36Z</time>
      </trkpt>
      <trkpt lat="49.86277" lon="2.22595">
        <ele>47.2</ele>
        <time>2024-05-17T12:04:37Z</time>
      </trkpt>
      <trkpt lat="49.86278" lon="2.22595">
        <ele>47.3</ele>
        <time>2024-05-17T12:04:38Z</time>
      </trkpt>
      <trkpt lat="49.86279" lon="2.22595">
        <ele>47.3</ele>
        <time>2024-05-17T12:04:39Z</time>
      </trkpt>
      <trkpt lat="49.8628" lon="2.22595">
        <ele>47.3</ele>
        <time>2024-05-17T12:04:40Z</time>
      </trkpt>
      <trkpt lat="49.86281" lon="2.22595">
        <ele>47.4</ele>
        <time>2024-05-17T12:04:41Z</time>
      </trkpt>
      <trkpt lat="49.86282" lon="2.22594">
        <ele>47.4</ele>
        <time>2024-05-17T12:04:42Z</time>
      </trkpt>
      <trkpt lat="49.86283" lon="2.22594">
        <ele>47.5</ele>
        <time>2024-05-17T12:04:43Z</time>
      </trkpt>
      <trkpt lat="49.86284" lon="2.22594">
        <ele>47.5</ele>
        <time>2024-05-17T12:04:44Z</time>
      </trkpt>
      <trkpt lat="49.86285" lon="2.22593">
        <ele>47.5</ele>
        <time>2024-05-17T12:04:45Z</time>
      </trkpt>
      <trkpt lat="49.86286" lon="2.22593">
        <ele>47.6</ele>
        <time>2024-05-17T12:04:46Z</time>
      </trkpt>
      <trkpt lat="49.86287" lon="2.22592">
        <ele>47.6</ele>
        <time>2024-05-17T12:04:47Z</time>
      </trkpt>
      <trkpt lat="49.86289" lon="2.22591">
        <ele>47.7</ele>
        <time>2024-05-17T12:04:48Z</time>
      </trkpt>
      <trkpt lat="49.8629" lon="2.22591">
        <ele>47.8</ele>
        <time>2024-05-17T12:04:49Z</time>
      </trkpt>
      <trkpt lat="49.86292" lon="2.22589">
        <ele>47.9</ele>
        <time>2024-05-17T12:04:50Z</time>
      </trkpt>
      <trkpt lat="49.86293" lon="2.22589">
        <ele>47.9</ele>
        <time>2024-05-17T12:04:52Z</time>
      </trkpt>
      <trkpt lat="49.86294" lon="2.22588">
        <ele>47.9</ele>
        <time>2024-05-17T12:04:53Z</time>
      </trkpt>
      <trkpt lat="49.86295" lon="2.22588">
        <ele>48</ele>
        <time>2024-05-17T12:04:54Z</time>
      </trkpt>
      <trkpt lat="49.86296" lon="2.22586">
        <ele>48</ele>
        <time>2024-05-17T12:04:55Z</time>
      </trkpt>
      <trkpt lat="49.87877" lon="2.23986">
        <ele>42.4</ele>
        <time>2024-05-17T12:50:56Z</time>
      </trkpt>
      <trkpt lat="49.87853" lon="2.23995">
        <ele>42.6</ele>
        <time>2024-05-17T12:50:57Z</time>
      </trkpt>
      <trkpt lat="49.87856" lon="2.23994">
        <ele>42.7</ele>
        <time>2024-05-17T12:50:58Z</time>
      </trkpt>
      <trkpt lat="49.87858" lon="2.23993">
        <ele>42.7</ele>
        <time>2024-05-17T12:50:59Z</time>
      </trkpt>
      <trkpt lat="49.87858" lon="2.23993">
        <ele>42.7</ele>
        <time>2024-05-17T12:51:00Z</time>
      </trkpt>
      <trkpt lat="49.87859" lon="2.23993">
        <ele>42.7</ele>
        <time>2024-05-17T12:51:01Z</time>
      </trkpt>
      <trkpt lat="49.87859" lon="2.23993">
        <ele>42.7</ele>
        <time>2024-05-17T12:51:02Z</time>
      </trkpt>
      <trkpt lat="49.87859" lon="2.23992">
        <ele>42.7</ele>
        <time>2024-05-17T12:51:03Z</time>
      </trkpt>
      <trkpt lat="49.87859" lon="2.23992">
        <ele>42.7</ele>
        <time>2024-05-17T12:51:04Z</time>
      </trkpt>
      <trkpt lat="49.87859" lon="2.23992">
        <ele>42.7</ele>
        <time>2024-05-17T12:51:05Z</time>
      </trkpt>
      <trkpt lat="49.87859" lon="2.23992">
        <ele>42.7</ele>
        <time>2024-05-17T12:51:06Z</time>
      </trkpt>
      <trkpt lat="49.87859" lon="2.23992">
        <ele>42.7</ele>
        <time>2024-05-17T12:51:07Z</time>
      </trkpt>
      <trkpt lat="49.87859" lon="2.23992">
        <ele>42.7</ele>
        <time>2024-05-17T12:51:08Z</time>
      </trkpt>
      <trkpt lat="49.87859" lon="2.23992">
        <ele>42.7</ele>
        <time>2024-05-17T12:51:09Z</time>
      </trkpt>
      <trkpt lat="49.87859" lon="2.23992">
        <ele>42.7</ele>
        <time>2024-05-17T12:51:10Z</time>
      </trkpt>
      <trkpt lat="49.87859" lon="2.23992">
        <ele>42.7</ele>
        <time>2024-05-17T12:51:11Z</time>
      </trkpt>
      <trkpt lat="49.87859" lon="2.23992">
        <ele>42.7</ele>
        <time>2024-05-17T12:51:12Z</time>
      </trkpt>
      <trkpt lat="49.87859" lon="2.23992">
        <ele>42.7</ele>
        <time>2024-05-17T12:51:13Z</time>
      </trkpt>
      <trkpt lat="49.87859" lon="2.23992">
        <ele>42.7</ele>
        <time>2024-05-17T12:51:14Z</time>
      </trkpt>
      <trkpt lat="49.87859" lon="2.23992">
        <ele>42.7</ele>
        <time>2024-05-17T12:51:15Z</time>
      </trkpt>
      <trkpt lat="49.87859" lon="2.23992">
        <ele>42.7</ele>
        <time>2024-05-17T12:51:16Z</time>
      </trkpt>
      <trkpt lat="49.87859" lon="2.23992">
        <ele>42.7</ele>
        <time>2024-05-17T12:51:17Z</time>
      </trkpt>
      <trkpt lat="49.87859" lon="2.23992">
        <ele>42.7</ele>
        <time>2024-05-17T12:51:18Z</time>
      </trkpt>
      <trkpt lat="49.87859" lon="2.23992">
        <ele>42.7</ele>
        <time>2024-05-17T12:51:19Z</time>
      </trkpt>
      <trkpt lat="49.87859" lon="2.23992">
        <ele>42.7</ele>
        <time>2024-05-17T12:51:20Z</time>
      </trkpt>
      <trkpt lat="49.87858" lon="2.23992">
        <ele>42.7</ele>
        <time>2024-05-17T12:51:21Z</time>
      </trkpt>
      <trkpt lat="49.87858" lon="2.23993">
        <ele>42.7</ele>
        <time>2024-05-17T12:51:22Z</time>
      </trkpt>
      <trkpt lat="49.87858" lon="2.23993">
        <ele>42.7</ele>
        <time>2024-05-17T12:51:23Z</time>
      </trkpt>
      <trkpt lat="49.87858" lon="2.23993">
        <ele>42.7</ele>
        <time>2024-05-17T12:51:24Z</time>
      </trkpt>
      <trkpt lat="49.87858" lon="2.23993">
        <ele>42.7</ele>
        <time>2024-05-17T12:51:25Z</time>
      </trkpt>
      <trkpt lat="49.87858" lon="2.23993">
        <ele>42.7</ele>
        <time>2024-05-17T12:51:26Z</time>
      </trkpt>
      <trkpt lat="49.87858" lon="2.23993">
        <ele>42.7</ele>
        <time>2024-05-17T12:51:27Z</time>
      </trkpt>
      <trkpt lat="49.87859" lon="2.23993">
        <ele>42.7</ele>
        <time>2024-05-17T12:51:28Z</time>
      </trkpt>
      <trkpt lat="49.87859" lon="2.23993">
        <ele>42.7</ele>
        <time>2024-05-17T12:51:29Z</time>
      </trkpt>
      <trkpt lat="49.8786" lon="2.23993">
        <ele>42.7</ele>
        <time>2024-05-17T12:51:30Z</time>
      </trkpt>
      <trkpt lat="49.8786" lon="2.23993">
        <ele>42.7</ele>
        <time>2024-05-17T12:51:31Z</time>
      </trkpt>
      <trkpt lat="49.8786" lon="2.23993">
        <ele>42.7</ele>
        <time>2024-05-17T12:51:32Z</time>
      </trkpt>
      <trkpt lat="49.8786" lon="2.23992">
        <ele>42.7</ele>
        <time>2024-05-17T12:51:33Z</time>
      </trkpt>
      <trkpt lat="49.87861" lon="2.23991">
        <ele>42.7</ele>
        <time>2024-05-17T12:51:34Z</time>
      </trkpt>
      <trkpt lat="49.87861" lon="2.2399">
        <ele>42.8</ele>
        <time>2024-05-17T12:51:35Z</time>
      </trkpt>
      <trkpt lat="49.87861" lon="2.23989">
        <ele>42.8</ele>
        <time>2024-05-17T12:51:36Z</time>
      </trkpt>
      <trkpt lat="49.87864" lon="2.23991">
        <ele>42.8</ele>
        <time>2024-05-17T12:51:37Z</time>
      </trkpt>
      <trkpt lat="49.87864" lon="2.23993">
        <ele>42.8</ele>
        <time>2024-05-17T12:51:39Z</time>
      </trkpt>
      <trkpt lat="49.87865" lon="2.23995">
        <ele>42.8</ele>
        <time>2024-05-17T12:51:40Z</time>
      </trkpt>
      <trkpt lat="49.87865" lon="2.23997">
        <ele>42.8</ele>
        <time>2024-05-17T12:51:41Z</time>
      </trkpt>
      <trkpt lat="49.87866" lon="2.23998">
        <ele>42.8</ele>
        <time>2024-05-17T12:51:42Z</time>
      </trkpt>
      <trkpt lat="49.87866" lon="2.23999">
        <ele>42.8</ele>
        <time>2024-05-17T12:51:43Z</time>
      </trkpt>
      <trkpt lat="49.87866" lon="2.23999">
        <ele>42.8</ele>
        <time>2024-05-17T12:51:44Z</time>
      </trkpt>
      <trkpt lat="49.87867" lon="2.24">
        <ele>42.8</ele>
        <time>2024-05-17T12:51:45Z</time>
      </trkpt>
      <trkpt lat="49.87866" lon="2.24">
        <ele>42.8</ele>
        <time>2024-05-17T12:51:46Z</time>
      </trkpt>
      <trkpt lat="49.87867" lon="2.24">
        <ele>42.8</ele>
        <time>2024-05-17T12:51:47Z</time>
      </trkpt>
      <trkpt lat="49.87867" lon="2.24">
        <ele>42.9</ele>
        <time>2024-05-17T12:51:48Z</time>
      </trkpt>
      <trkpt lat="49.87868" lon="2.24001">
        <ele>42.9</ele>
        <time>2024-05-17T12:51:49Z</time>
      </trkpt>
      <trkpt lat="49.87868" lon="2.24001">
        <ele>42.9</ele>
        <time>2024-05-17T12:51:50Z</time>
      </trkpt>
      <trkpt lat="49.87868" lon="2.24001">
        <ele>42.9</ele>
        <time>2024-05-17T12:51:51Z</time>
      </trkpt>
      <trkpt lat="49.87869" lon="2.24002">
        <ele>42.9</ele>
        <time>2024-05-17T12:51:52Z</time>
      </trkpt>
      <trkpt lat="49.8787" lon="2.24003">
        <ele>42.9</ele>
        <time>2024-05-17T12:51:53Z</time>
      </trkpt>
      <trkpt lat="49.87871" lon="2.24004">
        <ele>42.9</ele>
        <time>2024-05-17T12:51:54Z</time>
      </trkpt>
      <trkpt lat="49.8787" lon="2.24003">
        <ele>42.9</ele>
        <time>2024-05-17T12:51:55Z</time>
      </trkpt>
      <trkpt lat="49.87871" lon="2.24003">
        <ele>42.9</ele>
        <time>2024-05-17T12:51:56Z</time>
      </trkpt>
      <trkpt lat="49.87872" lon="2.24003">
        <ele>42.9</ele>
        <time>2024-05-17T12:51:57Z</time>
      </trkpt>
      <trkpt lat="49.87873" lon="2.24003">
        <ele>42.9</ele>
        <time>2024-05-17T12:51:58Z</time>
      </trkpt>
      <trkpt lat="49.87874" lon="2.24004">
        <ele>42.9</ele>
        <time>2024-05-17T12:51:59Z</time>
      </trkpt>
      <trkpt lat="49.87875" lon="2.24005">
        <ele>42.9</ele>
        <time>2024-05-17T12:52:00Z</time>
      </trkpt>
      <trkpt lat="49.87875" lon="2.24007">
        <ele>43</ele>
        <time>2024-05-17T12:52:01Z</time>
      </trkpt>
      <trkpt lat="49.87876" lon="2.24008">
        <ele>43</ele>
        <time>2024-05-17T12:52:02Z</time>
      </trkpt>
      <trkpt lat="49.87877" lon="2.24009">
        <ele>43</ele>
        <time>2024-05-17T12:52:03Z</time>
      </trkpt>
      <trkpt lat="49.87878" lon="2.24011">
        <ele>43</ele>
        <time>2024-05-17T12:52:04Z</time>
      </trkpt>
      <trkpt lat="49.87879" lon="2.24012">
        <ele>43</ele>
        <time>2024-05-17T12:52:05Z</time>
      </trkpt>
      <trkpt lat="49.8788" lon="2.24012">
        <ele>43.1</ele>
        <time>2024-05-17T12:52:06Z</time>
      </trkpt>
      <trkpt lat="49.87881" lon="2.24013">
        <ele>43.1</ele>
        <time>2024-05-17T12:52:07Z</time>
      </trkpt>
      <trkpt lat="49.87881" lon="2.24013">
        <ele>43.1</ele>
        <time>2024-05-17T12:52:08Z</time>
      </trkpt>
      <trkpt lat="49.87882" lon="2.24014">
        <ele>43.1</ele>
        <time>2024-05-17T12:52:09Z</time>
      </trkpt>
      <trkpt lat="49.87882" lon="2.24014">
        <ele>43.1</ele>
        <time>2024-05-17T12:52:10Z</time>
      </trkpt>
      <trkpt lat="49.87883" lon="2.24014">
        <ele>43.2</ele>
        <time>2024-05-17T12:52:11Z</time>
      </trkpt>
      <trkpt lat="49.87884" lon="2.24015">
        <ele>43.2</ele>
        <time>2024-05-17T12:52:12Z</time>
      </trkpt>
      <trkpt lat="49.87884" lon="2.24015">
        <ele>43.2</ele>
        <time>2024-05-17T12:52:13Z</time>
      </trkpt>
      <trkpt lat="49.87885" lon="2.24015">
        <ele>43.2</ele>
        <time>2024-05-17T12:52:14Z</time>
      </trkpt>
      <trkpt lat="49.87885" lon="2.24015">
        <ele>43.2</ele>
        <time>2024-05-17T12:52:15Z</time>
      </trkpt>
      <trkpt lat="49.87884" lon="2.24015">
        <ele>43.2</ele>
        <time>2024-05-17T12:52:16Z</time>
      </trkpt>
      <trkpt lat="49.87885" lon="2.24015">
        <ele>43.3</ele>
        <time>2024-05-17T12:52:17Z</time>
      </trkpt>
      <trkpt lat="49.87886" lon="2.24015">
        <ele>43.3</ele>
        <time>2024-05-17T12:52:18Z</time>
      </trkpt>
      <trkpt lat="49.87885" lon="2.24015">
        <ele>43.3</ele>
        <time>2024-05-17T12:52:19Z</time>
      </trkpt>
      <trkpt lat="49.87886" lon="2.24015">
        <ele>43.3</ele>
        <time>2024-05-17T12:52:20Z</time>
      </trkpt>
      <trkpt lat="49.87886" lon="2.24016">
        <ele>43.3</ele>
        <time>2024-05-17T12:52:21Z</time>
      </trkpt>
      <trkpt lat="49.87887" lon="2.24017">
        <ele>43.3</ele>
        <time>2024-05-17T12:52:22Z</time>
      </trkpt>
      <trkpt lat="49.87888" lon="2.24017">
        <ele>43.4</ele>
        <time>2024-05-17T12:52:23Z</time>
      </trkpt>
      <trkpt lat="49.87889" lon="2.24017">
        <ele>43.4</ele>
        <time>2024-05-17T12:52:24Z</time>
      </trkpt>
      <trkpt lat="49.8789" lon="2.24018">
        <ele>43.4</ele>
        <time>2024-05-17T12:52:25Z</time>
      </trkpt>
      <trkpt lat="49.87891" lon="2.24018">
        <ele>43.5</ele>
        <time>2024-05-17T12:52:26Z</time>
      </trkpt>
      <trkpt lat="49.87892" lon="2.24019">
        <ele>43.5</ele>
        <time>2024-05-17T12:52:27Z</time>
      </trkpt>
      <trkpt lat="49.87893" lon="2.2402">
        <ele>43.5</ele>
        <time>2024-05-17T12:52:28Z</time>
      </trkpt>
      <trkpt lat="49.87896" lon="2.2402">
        <ele>43.6</ele>
        <time>2024-05-17T12:52:29Z</time>
      </trkpt>
      <trkpt lat="49.87898" lon="2.2402">
        <ele>43.7</ele>
        <time>2024-05-17T12:52:30Z</time>
      </trkpt>
      <trkpt lat="49.87901" lon="2.2402">
        <ele>43.7</ele>
        <time>2024-05-17T12:52:31Z</time>
      </trkpt>
      <trkpt lat="49.87902" lon="2.2402">
        <ele>43.8</ele>
        <time>2024-05-17T12:52:32Z</time>
      </trkpt>
      <trkpt lat="49.87904" lon="2.24021">
        <ele>43.8</ele>
        <time>2024-05-17T12:52:33Z</time>
      </trkpt>
      <trkpt lat="49.87905" lon="2.24021">
        <ele>43.8</ele>
        <time>2024-05-17T12:52:34Z</time>
      </trkpt>
      <trkpt lat="49.87905" lon="2.24021">
        <ele>43.8</ele>
        <time>2024-05-17T12:52:35Z</time>
      </trkpt>
      <trkpt lat="49.87906" lon="2.24022">
        <ele>43.9</ele>
        <time>2024-05-17T12:52:36Z</time>
      </trkpt>
      <trkpt lat="49.87907" lon="2.24022">
        <ele>43.9</ele>
        <time>2024-05-17T12:52:37Z</time>
      </trkpt>
      <trkpt lat="49.87909" lon="2.24023">
        <ele>43.9</ele>
        <time>2024-05-17T12:52:38Z</time>
      </trkpt>
      <trkpt lat="49.8791" lon="2.24023">
        <ele>44</ele>
        <time>2024-05-17T12:52:39Z</time>
      </trkpt>
      <trkpt lat="49.87911" lon="2.24023">
        <ele>44</ele>
        <time>2024-05-17T12:52:40Z</time>
      </trkpt>
      <trkpt lat="49.87912" lon="2.24023">
        <ele>44</ele>
        <time>2024-05-17T12:52:41Z</time>
      </trkpt>
      <trkpt lat="49.87913" lon="2.24024">
        <ele>44.1</ele>
        <time>2024-05-17T12:52:42Z</time>
      </trkpt>
      <trkpt lat="49.87914" lon="2.24024">
        <ele>44.1</ele>
        <time>2024-05-17T12:52:43Z</time>
      </trkpt>
      <trkpt lat="49.87916" lon="2.24025">
        <ele>44.2</ele>
        <time>2024-05-17T12:52:44Z</time>
      </trkpt>
      <trkpt lat="49.87917" lon="2.24025">
        <ele>44.2</ele>
        <time>2024-05-17T12:52:45Z</time>
      </trkpt>
      <trkpt lat="49.87917" lon="2.24025">
        <ele>44.2</ele>
        <time>2024-05-17T12:52:46Z</time>
      </trkpt>
      <trkpt lat="49.87918" lon="2.24025">
        <ele>44.2</ele>
        <time>2024-05-17T12:52:47Z</time>
      </trkpt>
      <trkpt lat="49.87919" lon="2.24025">
        <ele>44.3</ele>
        <time>2024-05-17T12:52:48Z</time>
      </trkpt>
      <trkpt lat="49.8792" lon="2.24024">
        <ele>44.3</ele>
        <time>2024-05-17T12:52:49Z</time>
      </trkpt>
      <trkpt lat="49.8792" lon="2.24024">
        <ele>44.3</ele>
        <time>2024-05-17T12:52:50Z</time>
      </trkpt>
      <trkpt lat="49.87921" lon="2.24024">
        <ele>44.3</ele>
        <time>2024-05-17T12:52:51Z</time>
      </trkpt>
      <trkpt lat="49.87922" lon="2.24024">
        <ele>44.4</ele>
        <time>2024-05-17T12:52:52Z</time>
      </trkpt>
      <trkpt lat="49.87923" lon="2.24024">
        <ele>44.4</ele>
        <time>2024-05-17T12:52:53Z</time>
      </trkpt>
      <trkpt lat="49.87924" lon="2.24024">
        <ele>44.4</ele>
        <time>2024-05-17T12:52:54Z</time>
      </trkpt>
      <trkpt lat="49.87926" lon="2.24024">
        <ele>44.5</ele>
        <time>2024-05-17T12:52:55Z</time>
      </trkpt>
      <trkpt lat="49.87927" lon="2.24024">
        <ele>44.5</ele>
        <time>2024-05-17T12:52:56Z</time>
      </trkpt>
      <trkpt lat="49.8793" lon="2.24024">
        <ele>44.6</ele>
        <time>2024-05-17T12:52:57Z</time>
      </trkpt>
      <trkpt lat="49.87931" lon="2.24024">
        <ele>44.7</ele>
        <time>2024-05-17T12:52:58Z</time>
      </trkpt>
      <trkpt lat="49.87934" lon="2.24024">
        <ele>44.8</ele>
        <time>2024-05-17T12:52:59Z</time>
      </trkpt>
      <trkpt lat="49.87935" lon="2.24024">
        <ele>44.8</ele>
        <time>2024-05-17T12:53:00Z</time>
      </trkpt>
      <trkpt lat="49.87938" lon="2.24024">
        <ele>44.9</ele>
        <time>2024-05-17T12:53:01Z</time>
      </trkpt>
      <trkpt lat="49.87939" lon="2.24024">
        <ele>44.9</ele>
        <time>2024-05-17T12:53:02Z</time>
      </trkpt>
      <trkpt lat="49.87941" lon="2.24023">
        <ele>45</ele>
        <time>2024-05-17T12:53:03Z</time>
      </trkpt>
      <trkpt lat="49.87942" lon="2.24023">
        <ele>45</ele>
        <time>2024-05-17T12:53:04Z</time>
      </trkpt>
      <trkpt lat="49.87944" lon="2.24023">
        <ele>45.1</ele>
        <time>2024-05-17T12:53:05Z</time>
      </trkpt>
      <trkpt lat="49.87945" lon="2.24023">
        <ele>45.1</ele>
        <time>2024-05-17T12:53:06Z</time>
      </trkpt>
      <trkpt lat="49.87946" lon="2.24023">
        <ele>45.1</ele>
        <time>2024-05-17T12:53:07Z</time>
      </trkpt>
      <trkpt lat="49.87947" lon="2.24022">
        <ele>45.2</ele>
        <time>2024-05-17T12:53:08Z</time>
      </trkpt>
      <trkpt lat="49.87949" lon="2.24022">
        <ele>45.2</ele>
        <time>2024-05-17T12:53:09Z</time>
      </trkpt>
      <trkpt lat="49.8795" lon="2.24021">
        <ele>45.3</ele>
        <time>2024-05-17T12:53:10Z</time>
      </trkpt>
      <trkpt lat="49.87951" lon="2.24021">
        <ele>45.3</ele>
        <time>2024-05-17T12:53:11Z</time>
      </trkpt>
      <trkpt lat="49.87952" lon="2.24021">
        <ele>45.3</ele>
        <time>2024-05-17T12:53:12Z</time>
      </trkpt>
      <trkpt lat="49.87953" lon="2.24021">
        <ele>45.4</ele>
        <time>2024-05-17T12:53:13Z</time>
      </trkpt>
      <trkpt lat="49.87954" lon="2.24021">
        <ele>45.4</ele>
        <time>2024-05-17T12:53:14Z</time>
      </trkpt>
      <trkpt lat="49.87956" lon="2.24021">
        <ele>45.4</ele>
        <time>2024-05-17T12:53:15Z</time>
      </trkpt>
      <trkpt lat="49.87958" lon="2.24021">
        <ele>45.5</ele>
        <time>2024-05-17T12:53:16Z</time>
      </trkpt>
      <trkpt lat="49.87959" lon="2.24021">
        <ele>45.5</ele>
        <time>2024-05-17T12:53:17Z</time>
      </trkpt>
      <trkpt lat="49.8796" lon="2.24021">
        <ele>45.5</ele>
        <time>2024-05-17T12:53:18Z</time>
      </trkpt>
      <trkpt lat="49.87961" lon="2.24021">
        <ele>45.6</ele>
        <time>2024-05-17T12:53:19Z</time>
      </trkpt>
      <trkpt lat="49.87963" lon="2.24021">
        <ele>45.6</ele>
        <time>2024-05-17T12:53:20Z</time>
      </trkpt>
      <trkpt lat="49.87964" lon="2.24021">
        <ele>45.7</ele>
        <time>2024-05-17T12:53:21Z</time>
      </trkpt>
      <trkpt lat="49.87966" lon="2.24021">
        <ele>45.7</ele>
        <time>2024-05-17T12:53:22Z</time>
      </trkpt>
      <trkpt lat="49.87969" lon="2.2402">
        <ele>45.8</ele>
        <time>2024-05-17T12:53:23Z</time>
      </trkpt>
      <trkpt lat="49.87969" lon="2.2402">
        <ele>45.8</ele>
        <time>2024-05-17T12:53:24Z</time>
      </trkpt>
      <trkpt lat="49.87971" lon="2.2402">
        <ele>45.8</ele>
        <time>2024-05-17T12:53:25Z</time>
      </trkpt>
      <trkpt lat="49.87972" lon="2.2402">
        <ele>45.9</ele>
        <time>2024-05-17T12:53:26Z</time>
      </trkpt>
      <trkpt lat="49.87974" lon="2.24021">
        <ele>45.9</ele>
        <time>2024-05-17T12:53:27Z</time>
      </trkpt>
      <trkpt lat="49.87975" lon="2.24021">
        <ele>45.9</ele>
        <time>2024-05-17T12:53:28Z</time>
      </trkpt>
      <trkpt lat="49.87977" lon="2.24021">
        <ele>46</ele>
        <time>2024-05-17T12:53:29Z</time>
      </trkpt>
      <trkpt lat="49.87978" lon="2.24021">
        <ele>46</ele>
        <time>2024-05-17T12:53:30Z</time>
      </trkpt>
      <trkpt lat="49.87979" lon="2.24021">
        <ele>46</ele>
        <time>2024-05-17T12:53:31Z</time>
      </trkpt>
      <trkpt lat="49.87981" lon="2.24021">
        <ele>46.1</ele>
        <time>2024-05-17T12:53:32Z</time>
      </trkpt>
      <trkpt lat="49.87982" lon="2.24021">
        <ele>46.1</ele>
        <time>2024-05-17T12:53:33Z</time>
      </trkpt>
      <trkpt lat="49.87983" lon="2.24021">
        <ele>46.1</ele>
        <time>2024-05-17T12:53:34Z</time>
      </trkpt>
      <trkpt lat="49.87985" lon="2.24021">
        <ele>46.2</ele>
        <time>2024-05-17T12:53:35Z</time>
      </trkpt>
      <trkpt lat="49.87986" lon="2.24021">
        <ele>46.2</ele>
        <time>2024-05-17T12:53:36Z</time>
      </trkpt>
      <trkpt lat="49.87986" lon="2.24021">
        <ele>46.2</ele>
        <time>2024-05-17T12:53:37Z</time>
      </trkpt>
      <trkpt lat="49.87989" lon="2.24021">
        <ele>46.3</ele>
        <time>2024-05-17T12:53:38Z</time>
      </trkpt>
      <trkpt lat="49.87989" lon="2.24021">
        <ele>46.3</ele>
        <time>2024-05-17T12:53:39Z</time>
      </trkpt>
      <trkpt lat="49.8799" lon="2.24021">
        <ele>46.3</ele>
        <time>2024-05-17T12:53:40Z</time>
      </trkpt>
      <trkpt lat="49.87991" lon="2.24021">
        <ele>46.3</ele>
        <time>2024-05-17T12:53:41Z</time>
      </trkpt>
      <trkpt lat="49.87992" lon="2.2402">
        <ele>46.4</ele>
        <time>2024-05-17T12:53:42Z</time>
      </trkpt>
      <trkpt lat="49.87993" lon="2.24019">
        <ele>46.4</ele>
        <time>2024-05-17T12:53:43Z</time>
      </trkpt>
      <trkpt lat="49.87994" lon="2.24019">
        <ele>46.4</ele>
        <time>2024-05-17T12:53:44Z</time>
      </trkpt>
      <trkpt lat="49.87995" lon="2.24019">
        <ele>46.4</ele>
        <time>2024-05-17T12:53:45Z</time>
      </trkpt>
      <trkpt lat="49.87996" lon="2.24019">
        <ele>46.5</ele>
        <time>2024-05-17T12:53:46Z</time>
      </trkpt>
      <trkpt lat="49.87997" lon="2.24019">
        <ele>46.5</ele>
        <time>2024-05-17T12:53:47Z</time>
      </trkpt>
      <trkpt lat="49.87998" lon="2.24018">
        <ele>46.5</ele>
        <time>2024-05-17T12:53:48Z</time>
      </trkpt>
      <trkpt lat="49.87999" lon="2.24018">
        <ele>46.5</ele>
        <time>2024-05-17T12:53:49Z</time>
      </trkpt>
      <trkpt lat="49.88" lon="2.24018">
        <ele>46.5</ele>
        <time>2024-05-17T12:53:50Z</time>
      </trkpt>
      <trkpt lat="49.88001" lon="2.24018">
        <ele>46.6</ele>
        <time>2024-05-17T12:53:51Z</time>
      </trkpt>
      <trkpt lat="49.88002" lon="2.24018">
        <ele>46.6</ele>
        <time>2024-05-17T12:53:52Z</time>
      </trkpt>
      <trkpt lat="49.88003" lon="2.24017">
        <ele>46.6</ele>
        <time>2024-05-17T12:53:53Z</time>
      </trkpt>
      <trkpt lat="49.88004" lon="2.24017">
        <ele>46.6</ele>
        <time>2024-05-17T12:53:54Z</time>
      </trkpt>
      <trkpt lat="49.88005" lon="2.24017">
        <ele>46.7</ele>
        <time>2024-05-17T12:53:55Z</time>
      </trkpt>
      <trkpt lat="49.88005" lon="2.24017">
        <ele>46.7</ele>
        <time>2024-05-17T12:53:56Z</time>
      </trkpt>
      <trkpt lat="49.88006" lon="2.24017">
        <ele>46.7</ele>
        <time>2024-05-17T12:53:57Z</time>
      </trkpt>
      <trkpt lat="49.88007" lon="2.24017">
        <ele>46.7</ele>
        <time>2024-05-17T12:53:58Z</time>
      </trkpt>
      <trkpt lat="49.88008" lon="2.24018">
        <ele>46.7</ele>
        <time>2024-05-17T12:53:59Z</time>
      </trkpt>
      <trkpt lat="49.88009" lon="2.24018">
        <ele>46.8</ele>
        <time>2024-05-17T12:54:00Z</time>
      </trkpt>
      <trkpt lat="49.8801" lon="2.24018">
        <ele>46.8</ele>
        <time>2024-05-17T12:54:01Z</time>
      </trkpt>
      <trkpt lat="49.88011" lon="2.24018">
        <ele>46.8</ele>
        <time>2024-05-17T12:54:02Z</time>
      </trkpt>
      <trkpt lat="49.88012" lon="2.24018">
        <ele>46.8</ele>
        <time>2024-05-17T12:54:03Z</time>
      </trkpt>
      <trkpt lat="49.88013" lon="2.24018">
        <ele>46.9</ele>
        <time>2024-05-17T12:54:04Z</time>
      </trkpt>
      <trkpt lat="49.88014" lon="2.24018">
        <ele>46.9</ele>
        <time>2024-05-17T12:54:05Z</time>
      </trkpt>
      <trkpt lat="49.88015" lon="2.24018">
        <ele>46.9</ele>
        <time>2024-05-17T12:54:06Z</time>
      </trkpt>
      <trkpt lat="49.88016" lon="2.24018">
        <ele>46.9</ele>
        <time>2024-05-17T12:54:07Z</time>
      </trkpt>
      <trkpt lat="49.88017" lon="2.24018">
        <ele>47</ele>
        <time>2024-05-17T12:54:08Z</time>
      </trkpt>
      <trkpt lat="49.88018" lon="2.24018">
        <ele>47</ele>
        <time>2024-05-17T12:54:09Z</time>
      </trkpt>
      <trkpt lat="49.88019" lon="2.24018">
        <ele>47</ele>
        <time>2024-05-17T12:54:10Z</time>
      </trkpt>
      <trkpt lat="49.8802" lon="2.24018">
        <ele>47</ele>
        <time>2024-05-17T12:54:11Z</time>
      </trkpt>
      <trkpt lat="49.88021" lon="2.24019">
        <ele>47.1</ele>
        <time>2024-05-17T12:54:12Z</time>
      </trkpt>
      <trkpt lat="49.88022" lon="2.24019">
        <ele>47.1</ele>
        <time>2024-05-17T12:54:13Z</time>
      </trkpt>
      <trkpt lat="49.88023" lon="2.24019">
        <ele>47.1</ele>
        <time>2024-05-17T12:54:14Z</time>
      </trkpt>
      <trkpt lat="49.88024" lon="2.24019">
        <ele>47.1</ele>
        <time>2024-05-17T12:54:15Z</time>
      </trkpt>
      <trkpt lat="49.88025" lon="2.24019">
        <ele>47.1</ele>
        <time>2024-05-17T12:54:16Z</time>
      </trkpt>
      <trkpt lat="49.88026" lon="2.24018">
        <ele>47.2</ele>
        <time>2024-05-17T12:54:17Z</time>
      </trkpt>
      <trkpt lat="49.88027" lon="2.24018">
        <ele>47.2</ele>
        <time>2024-05-17T12:54:18Z</time>
      </trkpt>
      <trkpt lat="49.88028" lon="2.24018">
        <ele>47.2</ele>
        <time>2024-05-17T12:54:19Z</time>
      </trkpt>
      <trkpt lat="49.88029" lon="2.24018">
        <ele>47.2</ele>
        <time>2024-05-17T12:54:20Z</time>
      </trkpt>
      <trkpt lat="49.8803" lon="2.24018">
        <ele>47.3</ele>
        <time>2024-05-17T12:54:21Z</time>
      </trkpt>
      <trkpt lat="49.88031" lon="2.24018">
        <ele>47.3</ele>
        <time>2024-05-17T12:54:22Z</time>
      </trkpt>
      <trkpt lat="49.88032" lon="2.24018">
        <ele>47.3</ele>
        <time>2024-05-17T12:54:23Z</time>
      </trkpt>
      <trkpt lat="49.88033" lon="2.24018">
        <ele>47.3</ele>
        <time>2024-05-17T12:54:24Z</time>
      </trkpt>
      <trkpt lat="49.88034" lon="2.24018">
        <ele>47.3</ele>
        <time>2024-05-17T12:54:25Z</time>
      </trkpt>
      <trkpt lat="49.88035" lon="2.24018">
        <ele>47.4</ele>
        <time>2024-05-17T12:54:26Z</time>
      </trkpt>
      <trkpt lat="49.88036" lon="2.24018">
        <ele>47.4</ele>
        <time>2024-05-17T12:54:27Z</time>
      </trkpt>
      <trkpt lat="49.88037" lon="2.24017">
        <ele>47.4</ele>
        <time>2024-05-17T12:54:28Z</time>
      </trkpt>
      <trkpt lat="49.88037" lon="2.24017">
        <ele>47.4</ele>
        <time>2024-05-17T12:54:29Z</time>
      </trkpt>
      <trkpt lat="49.88038" lon="2.24017">
        <ele>47.4</ele>
        <time>2024-05-17T12:54:30Z</time>
      </trkpt>
      <trkpt lat="49.88039" lon="2.24016">
        <ele>47.5</ele>
        <time>2024-05-17T12:54:31Z</time>
      </trkpt>
      <trkpt lat="49.8804" lon="2.24016">
        <ele>47.5</ele>
        <time>2024-05-17T12:54:32Z</time>
      </trkpt>
      <trkpt lat="49.88041" lon="2.24016">
        <ele>47.5</ele>
        <time>2024-05-17T12:54:33Z</time>
      </trkpt>
      <trkpt lat="49.88042" lon="2.24016">
        <ele>47.5</ele>
        <time>2024-05-17T12:54:34Z</time>
      </trkpt>
      <trkpt lat="49.88043" lon="2.24016">
        <ele>47.5</ele>
        <time>2024-05-17T12:54:35Z</time>
      </trkpt>
      <trkpt lat="49.88044" lon="2.24016">
        <ele>47.5</ele>
        <time>2024-05-17T12:54:36Z</time>
      </trkpt>
      <trkpt lat="49.88045" lon="2.24016">
        <ele>47.6</ele>
        <time>2024-05-17T12:54:37Z</time>
      </trkpt>
      <trkpt lat="49.88046" lon="2.24016">
        <ele>47.6</ele>
        <time>2024-05-17T12:54:38Z</time>
      </trkpt>
      <trkpt lat="49.88047" lon="2.24016">
        <ele>47.6</ele>
        <time>2024-05-17T12:54:39Z</time>
      </trkpt>
      <trkpt lat="49.88048" lon="2.24016">
        <ele>47.6</ele>
        <time>2024-05-17T12:54:40Z</time>
      </trkpt>
      <trkpt lat="49.88048" lon="2.24016">
        <ele>47.6</ele>
        <time>2024-05-17T12:54:41Z</time>
      </trkpt>
      <trkpt lat="49.88049" lon="2.24017">
        <ele>47.6</ele>
        <time>2024-05-17T12:54:42Z</time>
      </trkpt>
      <trkpt lat="49.8805" lon="2.24017">
        <ele>47.6</ele>
        <time>2024-05-17T12:54:43Z</time>
      </trkpt>
      <trkpt lat="49.88051" lon="2.24017">
        <ele>47.7</ele>
        <time>2024-05-17T12:54:44Z</time>
      </trkpt>
      <trkpt lat="49.88052" lon="2.24017">
        <ele>47.7</ele>
        <time>2024-05-17T12:54:45Z</time>
      </trkpt>
      <trkpt lat="49.88053" lon="2.24018">
        <ele>47.7</ele>
        <time>2024-05-17T12:54:46Z</time>
      </trkpt>
      <trkpt lat="49.88053" lon="2.24018">
        <ele>47.7</ele>
        <time>2024-05-17T12:54:47Z</time>
      </trkpt>
      <trkpt lat="49.88054" lon="2.24018">
        <ele>47.7</ele>
        <time>2024-05-17T12:54:48Z</time>
      </trkpt>
      <trkpt lat="49.88054" lon="2.24018">
        <ele>47.7</ele>
        <time>2024-05-17T12:54:49Z</time>
      </trkpt>
      <trkpt lat="49.88055" lon="2.24019">
        <ele>47.7</ele>
        <time>2024-05-17T12:54:50Z</time>
      </trkpt>
      <trkpt lat="49.88056" lon="2.24019">
        <ele>47.7</ele>
        <time>2024-05-17T12:54:51Z</time>
      </trkpt>
      <trkpt lat="49.88056" lon="2.2402">
        <ele>47.7</ele>
        <time>2024-05-17T12:54:52Z</time>
      </trkpt>
      <trkpt lat="49.88058" lon="2.24021">
        <ele>47.8</ele>
        <time>2024-05-17T12:54:53Z</time>
      </trkpt>
      <trkpt lat="49.88059" lon="2.24021">
        <ele>47.8</ele>
        <time>2024-05-17T12:54:55Z</time>
      </trkpt>
      <trkpt lat="49.8806" lon="2.24022">
        <ele>47.8</ele>
        <time>2024-05-17T12:54:56Z</time>
      </trkpt>
      <trkpt lat="49.88061" lon="2.24023">
        <ele>47.8</ele>
        <time>2024-05-17T12:54:57Z</time>
      </trkpt>
      <trkpt lat="49.88062" lon="2.24023">
        <ele>47.8</ele>
        <time>2024-05-17T12:54:58Z</time>
      </trkpt>
      <trkpt lat="49.88063" lon="2.24024">
        <ele>47.8</ele>
        <time>2024-05-17T12:54:59Z</time>
      </trkpt>
      <trkpt lat="49.88063" lon="2.24024">
        <ele>47.8</ele>
        <time>2024-05-17T12:55:00Z</time>
      </trkpt>
      <trkpt lat="49.88064" lon="2.24025">
        <ele>47.9</ele>
        <time>2024-05-17T12:55:01Z</time>
      </trkpt>
      <trkpt lat="49.88065" lon="2.24026">
        <ele>47.9</ele>
        <time>2024-05-17T12:55:02Z</time>
      </trkpt>
      <trkpt lat="49.88066" lon="2.24026">
        <ele>47.9</ele>
        <time>2024-05-17T12:55:03Z</time>
      </trkpt>
      <trkpt lat="49.88067" lon="2.24027">
        <ele>47.9</ele>
        <time>2024-05-17T12:55:04Z</time>
      </trkpt>
      <trkpt lat="49.88068" lon="2.24027">
        <ele>47.9</ele>
        <time>2024-05-17T12:55:05Z</time>
      </trkpt>
      <trkpt lat="49.88069" lon="2.24027">
        <ele>47.9</ele>
        <time>2024-05-17T12:55:06Z</time>
      </trkpt>
      <trkpt lat="49.8807" lon="2.24028">
        <ele>47.9</ele>
        <time>2024-05-17T12:55:07Z</time>
      </trkpt>
      <trkpt lat="49.88071" lon="2.24029">
        <ele>47.9</ele>
        <time>2024-05-17T12:55:08Z</time>
      </trkpt>
      <trkpt lat="49.88072" lon="2.24029">
        <ele>48</ele>
        <time>2024-05-17T12:55:09Z</time>
      </trkpt>
      <trkpt lat="49.88072" lon="2.2403">
        <ele>48</ele>
        <time>2024-05-17T12:55:10Z</time>
      </trkpt>
      <trkpt lat="49.88073" lon="2.2403">
        <ele>48</ele>
        <time>2024-05-17T12:55:11Z</time>
      </trkpt>
      <trkpt lat="49.88073" lon="2.2403">
        <ele>48</ele>
        <time>2024-05-17T12:55:12Z</time>
      </trkpt>
      <trkpt lat="49.88074" lon="2.2403">
        <ele>48</ele>
        <time>2024-05-17T12:55:13Z</time>
      </trkpt>
      <trkpt lat="49.88075" lon="2.24031">
        <ele>48</ele>
        <time>2024-05-17T12:55:14Z</time>
      </trkpt>
      <trkpt lat="49.88076" lon="2.24031">
        <ele>48</ele>
        <time>2024-05-17T12:55:15Z</time>
      </trkpt>
      <trkpt lat="49.88077" lon="2.24032">
        <ele>48</ele>
        <time>2024-05-17T12:55:16Z</time>
      </trkpt>
      <trkpt lat="49.88077" lon="2.24033">
        <ele>48</ele>
        <time>2024-05-17T12:55:17Z</time>
      </trkpt>
      <trkpt lat="49.88078" lon="2.24033">
        <ele>48.1</ele>
        <time>2024-05-17T12:55:18Z</time>
      </trkpt>
      <trkpt lat="49.88079" lon="2.24033">
        <ele>48.1</ele>
        <time>2024-05-17T12:55:19Z</time>
      </trkpt>
      <trkpt lat="49.8808" lon="2.24034">
        <ele>48.1</ele>
        <time>2024-05-17T12:55:20Z</time>
      </trkpt>
      <trkpt lat="49.88081" lon="2.24034">
        <ele>48.1</ele>
        <time>2024-05-17T12:55:21Z</time>
      </trkpt>
      <trkpt lat="49.88081" lon="2.24035">
        <ele>48.1</ele>
        <time>2024-05-17T12:55:22Z</time>
      </trkpt>
      <trkpt lat="49.88082" lon="2.24034">
        <ele>48.1</ele>
        <time>2024-05-17T12:55:23Z</time>
      </trkpt>
      <trkpt lat="49.88083" lon="2.24034">
        <ele>48.1</ele>
        <time>2024-05-17T12:55:24Z</time>
      </trkpt>
      <trkpt lat="49.88084" lon="2.24035">
        <ele>48.1</ele>
        <time>2024-05-17T12:55:25Z</time>
      </trkpt>
      <trkpt lat="49.88085" lon="2.24035">
        <ele>48.2</ele>
        <time>2024-05-17T12:55:26Z</time>
      </trkpt>
      <trkpt lat="49.88086" lon="2.24036">
        <ele>48.2</ele>
        <time>2024-05-17T12:55:27Z</time>
      </trkpt>
      <trkpt lat="49.88086" lon="2.24037">
        <ele>48.2</ele>
        <time>2024-05-17T12:55:28Z</time>
      </trkpt>
      <trkpt lat="49.88087" lon="2.24038">
        <ele>48.2</ele>
        <time>2024-05-17T12:55:29Z</time>
      </trkpt>
      <trkpt lat="49.88089" lon="2.24038">
        <ele>48.2</ele>
        <time>2024-05-17T12:55:30Z</time>
      </trkpt>
      <trkpt lat="49.8809" lon="2.24039">
        <ele>48.2</ele>
        <time>2024-05-17T12:55:31Z</time>
      </trkpt>
      <trkpt lat="49.88091" lon="2.24039">
        <ele>48.3</ele>
        <time>2024-05-17T12:55:32Z</time>
      </trkpt>
      <trkpt lat="49.88092" lon="2.2404">
        <ele>48.3</ele>
        <time>2024-05-17T12:55:33Z</time>
      </trkpt>
      <trkpt lat="49.88093" lon="2.24041">
        <ele>48.3</ele>
        <time>2024-05-17T12:55:34Z</time>
      </trkpt>
      <trkpt lat="49.88094" lon="2.24041">
        <ele>48.3</ele>
        <time>2024-05-17T12:55:35Z</time>
      </trkpt>
      <trkpt lat="49.88094" lon="2.24042">
        <ele>48.3</ele>
        <time>2024-05-17T12:55:36Z</time>
      </trkpt>
      <trkpt lat="49.88095" lon="2.24042">
        <ele>48.3</ele>
        <time>2024-05-17T12:55:37Z</time>
      </trkpt>
      <trkpt lat="49.88095" lon="2.24043">
        <ele>48.3</ele>
        <time>2024-05-17T12:55:38Z</time>
      </trkpt>
      <trkpt lat="49.88096" lon="2.24044">
        <ele>48.4</ele>
        <time>2024-05-17T12:55:39Z</time>
      </trkpt>
      <trkpt lat="49.88097" lon="2.24044">
        <ele>48.4</ele>
        <time>2024-05-17T12:55:40Z</time>
      </trkpt>
      <trkpt lat="49.88097" lon="2.24044">
        <ele>48.4</ele>
        <time>2024-05-17T12:55:41Z</time>
      </trkpt>
      <trkpt lat="49.88098" lon="2.24044">
        <ele>48.4</ele>
        <time>2024-05-17T12:55:42Z</time>
      </trkpt>
      <trkpt lat="49.88099" lon="2.24045">
        <ele>48.4</ele>
        <time>2024-05-17T12:55:43Z</time>
      </trkpt>
      <trkpt lat="49.88099" lon="2.24045">
        <ele>48.4</ele>
        <time>2024-05-17T12:55:44Z</time>
      </trkpt>
      <trkpt lat="49.881" lon="2.24046">
        <ele>48.4</ele>
        <time>2024-05-17T12:55:45Z</time>
      </trkpt>
      <trkpt lat="49.88101" lon="2.24047">
        <ele>48.4</ele>
        <time>2024-05-17T12:55:46Z</time>
      </trkpt>
      <trkpt lat="49.88102" lon="2.24047">
        <ele>48.5</ele>
        <time>2024-05-17T12:55:47Z</time>
      </trkpt>
      <trkpt lat="49.88103" lon="2.24048">
        <ele>48.5</ele>
        <time>2024-05-17T12:55:48Z</time>
      </trkpt>
      <trkpt lat="49.88104" lon="2.24049">
        <ele>48.5</ele>
        <time>2024-05-17T12:55:49Z</time>
      </trkpt>
      <trkpt lat="49.88105" lon="2.24049">
        <ele>48.5</ele>
        <time>2024-05-17T12:55:50Z</time>
      </trkpt>
      <trkpt lat="49.88105" lon="2.24049">
        <ele>48.5</ele>
        <time>2024-05-17T12:55:51Z</time>
      </trkpt>
      <trkpt lat="49.88106" lon="2.2405">
        <ele>48.5</ele>
        <time>2024-05-17T12:55:52Z</time>
      </trkpt>
      <trkpt lat="49.88107" lon="2.2405">
        <ele>48.5</ele>
        <time>2024-05-17T12:55:53Z</time>
      </trkpt>
      <trkpt lat="49.88108" lon="2.24051">
        <ele>48.5</ele>
        <time>2024-05-17T12:55:54Z</time>
      </trkpt>
      <trkpt lat="49.88109" lon="2.24052">
        <ele>48.5</ele>
        <time>2024-05-17T12:55:55Z</time>
      </trkpt>
      <trkpt lat="49.8811" lon="2.24052">
        <ele>48.5</ele>
        <time>2024-05-17T12:55:56Z</time>
      </trkpt>
      <trkpt lat="49.88111" lon="2.24053">
        <ele>48.5</ele>
        <time>2024-05-17T12:55:57Z</time>
      </trkpt>
      <trkpt lat="49.88112" lon="2.24053">
        <ele>48.6</ele>
        <time>2024-05-17T12:55:58Z</time>
      </trkpt>
      <trkpt lat="49.88113" lon="2.24054">
        <ele>48.6</ele>
        <time>2024-05-17T12:55:59Z</time>
      </trkpt>
      <trkpt lat="49.88115" lon="2.24055">
        <ele>48.6</ele>
        <time>2024-05-17T12:56:00Z</time>
      </trkpt>
      <trkpt lat="49.88116" lon="2.24055">
        <ele>48.6</ele>
        <time>2024-05-17T12:56:01Z</time>
      </trkpt>
      <trkpt lat="49.88117" lon="2.24055">
        <ele>48.6</ele>
        <time>2024-05-17T12:56:02Z</time>
      </trkpt>
      <trkpt lat="49.88118" lon="2.24056">
        <ele>48.6</ele>
        <time>2024-05-17T12:56:03Z</time>
      </trkpt>
      <trkpt lat="49.8812" lon="2.24057">
        <ele>48.6</ele>
        <time>2024-05-17T12:56:04Z</time>
      </trkpt>
      <trkpt lat="49.88121" lon="2.24058">
        <ele>48.6</ele>
        <time>2024-05-17T12:56:05Z</time>
      </trkpt>
      <trkpt lat="49.88123" lon="2.24059">
        <ele>48.6</ele>
        <time>2024-05-17T12:56:06Z</time>
      </trkpt>
      <trkpt lat="49.88124" lon="2.2406">
        <ele>48.6</ele>
        <time>2024-05-17T12:56:07Z</time>
      </trkpt>
      <trkpt lat="49.88126" lon="2.2406">
        <ele>48.5</ele>
        <time>2024-05-17T12:56:08Z</time>
      </trkpt>
      <trkpt lat="49.88127" lon="2.24059">
        <ele>48.5</ele>
        <time>2024-05-17T12:56:09Z</time>
      </trkpt>
      <trkpt lat="49.88129" lon="2.24058">
        <ele>48.5</ele>
        <time>2024-05-17T12:56:10Z</time>
      </trkpt>
      <trkpt lat="49.88129" lon="2.24058">
        <ele>48.5</ele>
        <time>2024-05-17T12:56:11Z</time>
      </trkpt>
      <trkpt lat="49.88129" lon="2.24056">
        <ele>48.5</ele>
        <time>2024-05-17T12:56:12Z</time>
      </trkpt>
      <trkpt lat="49.88129" lon="2.24056">
        <ele>48.5</ele>
        <time>2024-05-17T12:56:13Z</time>
      </trkpt>
      <trkpt lat="49.88129" lon="2.24056">
        <ele>48.5</ele>
        <time>2024-05-17T12:56:14Z</time>
      </trkpt>
      <trkpt lat="49.88129" lon="2.24056">
        <ele>48.5</ele>
        <time>2024-05-17T12:56:15Z</time>
      </trkpt>
      <trkpt lat="49.88129" lon="2.24056">
        <ele>48.5</ele>
        <time>2024-05-17T12:56:16Z</time>
      </trkpt>
      <trkpt lat="49.88129" lon="2.24056">
        <ele>48.5</ele>
        <time>2024-05-17T12:56:17Z</time>
      </trkpt>
      <trkpt lat="49.88129" lon="2.24056">
        <ele>48.5</ele>
        <time>2024-05-17T12:56:18Z</time>
      </trkpt>
      <trkpt lat="49.88129" lon="2.24056">
        <ele>48.5</ele>
        <time>2024-05-17T12:56:19Z</time>
      </trkpt>
      <trkpt lat="49.88129" lon="2.24056">
        <ele>48.5</ele>
        <time>2024-05-17T12:56:20Z</time>
      </trkpt>
      <trkpt lat="49.88129" lon="2.24056">
        <ele>48.5</ele>
        <time>2024-05-17T12:56:21Z</time>
      </trkpt>
      <trkpt lat="49.88128" lon="2.24056">
        <ele>48.5</ele>
        <time>2024-05-17T12:56:22Z</time>
      </trkpt>
      <trkpt lat="49.88128" lon="2.24056">
        <ele>48.5</ele>
        <time>2024-05-17T12:56:23Z</time>
      </trkpt>
      <trkpt lat="49.88128" lon="2.24056">
        <ele>48.5</ele>
        <time>2024-05-17T12:56:24Z</time>
      </trkpt>
      <trkpt lat="49.88129" lon="2.24056">
        <ele>48.5</ele>
        <time>2024-05-17T12:56:25Z</time>
      </trkpt>
      <trkpt lat="49.88129" lon="2.24057">
        <ele>48.5</ele>
        <time>2024-05-17T12:56:26Z</time>
      </trkpt>
      <trkpt lat="49.8813" lon="2.24057">
        <ele>48.4</ele>
        <time>2024-05-17T12:56:27Z</time>
      </trkpt>
      <trkpt lat="49.88131" lon="2.24057">
        <ele>48.4</ele>
        <time>2024-05-17T12:56:28Z</time>
      </trkpt>
      <trkpt lat="49.88132" lon="2.24058">
        <ele>48.4</ele>
        <time>2024-05-17T12:56:29Z</time>
      </trkpt>
      <trkpt lat="49.88132" lon="2.24058">
        <ele>48.4</ele>
        <time>2024-05-17T12:56:30Z</time>
      </trkpt>
      <trkpt lat="49.88133" lon="2.24058">
        <ele>48.4</ele>
        <time>2024-05-17T12:56:31Z</time>
      </trkpt>
      <trkpt lat="49.88133" lon="2.24059">
        <ele>48.4</ele>
        <time>2024-05-17T12:56:32Z</time>
      </trkpt>
      <trkpt lat="49.88133" lon="2.2406">
        <ele>48.4</ele>
        <time>2024-05-17T12:56:33Z</time>
      </trkpt>
      <trkpt lat="49.88133" lon="2.2406">
        <ele>48.4</ele>
        <time>2024-05-17T12:56:34Z</time>
      </trkpt>
      <trkpt lat="49.88133" lon="2.2406">
        <ele>48.4</ele>
        <time>2024-05-17T12:56:35Z</time>
      </trkpt>
      <trkpt lat="49.88133" lon="2.2406">
        <ele>48.4</ele>
        <time>2024-05-17T12:56:36Z</time>
      </trkpt>
      <trkpt lat="49.88133" lon="2.2406">
        <ele>48.4</ele>
        <time>2024-05-17T12:56:37Z</time>
      </trkpt>
      <trkpt lat="49.88133" lon="2.24061">
        <ele>48.4</ele>
        <time>2024-05-17T12:56:38Z</time>
      </trkpt>
      <trkpt lat="49.88133" lon="2.24061">
        <ele>48.3</ele>
        <time>2024-05-17T12:56:39Z</time>
      </trkpt>
      <trkpt lat="49.88134" lon="2.24061">
        <ele>48.3</ele>
        <time>2024-05-17T12:56:40Z</time>
      </trkpt>
      <trkpt lat="49.88135" lon="2.24062">
        <ele>48.3</ele>
        <time>2024-05-17T12:56:41Z</time>
      </trkpt>
      <trkpt lat="49.88136" lon="2.24063">
        <ele>48.3</ele>
        <time>2024-05-17T12:56:42Z</time>
      </trkpt>
      <trkpt lat="49.88137" lon="2.24065">
        <ele>48.2</ele>
        <time>2024-05-17T12:56:43Z</time>
      </trkpt>
      <trkpt lat="49.88138" lon="2.24066">
        <ele>48.2</ele>
        <time>2024-05-17T12:56:44Z</time>
      </trkpt>
      <trkpt lat="49.88139" lon="2.24066">
        <ele>48.2</ele>
        <time>2024-05-17T12:56:45Z</time>
      </trkpt>
      <trkpt lat="49.88141" lon="2.24067">
        <ele>48.1</ele>
        <time>2024-05-17T12:56:46Z</time>
      </trkpt>
      <trkpt lat="49.88142" lon="2.24068">
        <ele>48.1</ele>
        <time>2024-05-17T12:56:47Z</time>
      </trkpt>
      <trkpt lat="49.88142" lon="2.24069">
        <ele>48.1</ele>
        <time>2024-05-17T12:56:48Z</time>
      </trkpt>
      <trkpt lat="49.88143" lon="2.24069">
        <ele>48.1</ele>
        <time>2024-05-17T12:56:49Z</time>
      </trkpt>
      <trkpt lat="49.88143" lon="2.2407">
        <ele>48.1</ele>
        <time>2024-05-17T12:56:50Z</time>
      </trkpt>
      <trkpt lat="49.88144" lon="2.2407">
        <ele>48.1</ele>
        <time>2024-05-17T12:56:51Z</time>
      </trkpt>
      <trkpt lat="49.88144" lon="2.2407">
        <ele>48</ele>
        <time>2024-05-17T12:56:52Z</time>
      </trkpt>
      <trkpt lat="49.88144" lon="2.2407">
        <ele>48</ele>
        <time>2024-05-17T12:56:53Z</time>
      </trkpt>
      <trkpt lat="49.88144" lon="2.2407">
        <ele>48</ele>
        <time>2024-05-17T12:56:54Z</time>
      </trkpt>
      <trkpt lat="49.88144" lon="2.2407">
        <ele>48</ele>
        <time>2024-05-17T12:56:55Z</time>
      </trkpt>
      <trkpt lat="49.88144" lon="2.2407">
        <ele>48</ele>
        <time>2024-05-17T12:56:56Z</time>
      </trkpt>
      <trkpt lat="49.88144" lon="2.2407">
        <ele>48</ele>
        <time>2024-05-17T12:56:57Z</time>
      </trkpt>
      <trkpt lat="49.88145" lon="2.2407">
        <ele>48</ele>
        <time>2024-05-17T12:56:58Z</time>
      </trkpt>
      <trkpt lat="49.88145" lon="2.2407">
        <ele>48</ele>
        <time>2024-05-17T12:56:59Z</time>
      </trkpt>
      <trkpt lat="49.88146" lon="2.2407">
        <ele>48</ele>
        <time>2024-05-17T12:57:00Z</time>
      </trkpt>
      <trkpt lat="49.88147" lon="2.2407">
        <ele>48</ele>
        <time>2024-05-17T12:57:01Z</time>
      </trkpt>
      <trkpt lat="49.88147" lon="2.2407">
        <ele>48</ele>
        <time>2024-05-17T12:57:02Z</time>
      </trkpt>
      <trkpt lat="49.88147" lon="2.2407">
        <ele>47.9</ele>
        <time>2024-05-17T12:57:03Z</time>
      </trkpt>
      <trkpt lat="49.88147" lon="2.2407">
        <ele>47.9</ele>
        <time>2024-05-17T12:57:04Z</time>
      </trkpt>
      <trkpt lat="49.88148" lon="2.24069">
        <ele>47.9</ele>
        <time>2024-05-17T12:57:05Z</time>
      </trkpt>
      <trkpt lat="49.88148" lon="2.24069">
        <ele>47.9</ele>
        <time>2024-05-17T12:57:06Z</time>
      </trkpt>
      <trkpt lat="49.88148" lon="2.24069">
        <ele>47.9</ele>
        <time>2024-05-17T12:57:07Z</time>
      </trkpt>
      <trkpt lat="49.88149" lon="2.24069">
        <ele>47.8</ele>
        <time>2024-05-17T12:57:08Z</time>
      </trkpt>
      <trkpt lat="49.8815" lon="2.24068">
        <ele>47.7</ele>
        <time>2024-05-17T12:57:09Z</time>
      </trkpt>
      <trkpt lat="49.88151" lon="2.24068">
        <ele>47.7</ele>
        <time>2024-05-17T12:57:10Z</time>
      </trkpt>
      <trkpt lat="49.88151" lon="2.24068">
        <ele>47.6</ele>
        <time>2024-05-17T12:57:11Z</time>
      </trkpt>
      <trkpt lat="49.88152" lon="2.24068">
        <ele>47.6</ele>
        <time>2024-05-17T12:57:12Z</time>
      </trkpt>
      <trkpt lat="49.88152" lon="2.24066">
        <ele>47.5</ele>
        <time>2024-05-17T12:57:13Z</time>
      </trkpt>
      <trkpt lat="49.88153" lon="2.24064">
        <ele>47.4</ele>
        <time>2024-05-17T12:57:14Z</time>
      </trkpt>
      <trkpt lat="49.88153" lon="2.24063">
        <ele>47.4</ele>
        <time>2024-05-17T12:57:15Z</time>
      </trkpt>
      <trkpt lat="49.88154" lon="2.24063">
        <ele>47.3</ele>
        <time>2024-05-17T12:57:16Z</time>
      </trkpt>
      <trkpt lat="49.88154" lon="2.24064">
        <ele>47.3</ele>
        <time>2024-05-17T12:57:17Z</time>
      </trkpt>
      <trkpt lat="49.88154" lon="2.24065">
        <ele>47.2</ele>
        <time>2024-05-17T12:57:18Z</time>
      </trkpt>
      <trkpt lat="49.88155" lon="2.24066">
        <ele>47.2</ele>
        <time>2024-05-17T12:57:19Z</time>
      </trkpt>
      <trkpt lat="49.88156" lon="2.24067">
        <ele>47.1</ele>
        <time>2024-05-17T12:57:20Z</time>
      </trkpt>
      <trkpt lat="49.88156" lon="2.24068">
        <ele>47.1</ele>
        <time>2024-05-17T12:57:21Z</time>
      </trkpt>
      <trkpt lat="49.88157" lon="2.24069">
        <ele>47</ele>
        <time>2024-05-17T12:57:22Z</time>
      </trkpt>
      <trkpt lat="49.88157" lon="2.2407">
        <ele>46.9</ele>
        <time>2024-05-17T12:57:23Z</time>
      </trkpt>
      <trkpt lat="49.88158" lon="2.2407">
        <ele>46.9</ele>
        <time>2024-05-17T12:57:24Z</time>
      </trkpt>
      <trkpt lat="49.88158" lon="2.24072">
        <ele>46.8</ele>
        <time>2024-05-17T12:57:25Z</time>
      </trkpt>
      <trkpt lat="49.88158" lon="2.24073">
        <ele>46.7</ele>
        <time>2024-05-17T12:57:26Z</time>
      </trkpt>
      <trkpt lat="49.88159" lon="2.24075">
        <ele>46.7</ele>
        <time>2024-05-17T12:57:27Z</time>
      </trkpt>
      <trkpt lat="49.88159" lon="2.24076">
        <ele>46.6</ele>
        <time>2024-05-17T12:57:28Z</time>
      </trkpt>
      <trkpt lat="49.88159" lon="2.24076">
        <ele>46.6</ele>
        <time>2024-05-17T12:57:29Z</time>
      </trkpt>
      <trkpt lat="49.8816" lon="2.24077">
        <ele>46.5</ele>
        <time>2024-05-17T12:57:30Z</time>
      </trkpt>
      <trkpt lat="49.88161" lon="2.24077">
        <ele>46.5</ele>
        <time>2024-05-17T12:57:31Z</time>
      </trkpt>
      <trkpt lat="49.88161" lon="2.24077">
        <ele>46.5</ele>
        <time>2024-05-17T12:57:32Z</time>
      </trkpt>
      <trkpt lat="49.88162" lon="2.24077">
        <ele>46.4</ele>
        <time>2024-05-17T12:57:33Z</time>
      </trkpt>
      <trkpt lat="49.88162" lon="2.24077">
        <ele>46.4</ele>
        <time>2024-05-17T12:57:34Z</time>
      </trkpt>
      <trkpt lat="49.88163" lon="2.24077">
        <ele>46.3</ele>
        <time>2024-05-17T12:57:35Z</time>
      </trkpt>
      <trkpt lat="49.88163" lon="2.24077">
        <ele>46.3</ele>
        <time>2024-05-17T12:57:36Z</time>
      </trkpt>
      <trkpt lat="49.88163" lon="2.24076">
        <ele>46.3</ele>
        <time>2024-05-17T12:57:37Z</time>
      </trkpt>
      <trkpt lat="49.88163" lon="2.24076">
        <ele>46.3</ele>
        <time>2024-05-17T12:57:38Z</time>
      </trkpt>
      <trkpt lat="49.88164" lon="2.24076">
        <ele>46.2</ele>
        <time>2024-05-17T12:57:39Z</time>
      </trkpt>
      <trkpt lat="49.88164" lon="2.24075">
        <ele>46.2</ele>
        <time>2024-05-17T12:57:40Z</time>
      </trkpt>
      <trkpt lat="49.88164" lon="2.24075">
        <ele>46.2</ele>
        <time>2024-05-17T12:57:41Z</time>
      </trkpt>
      <trkpt lat="49.88165" lon="2.24074">
        <ele>46.1</ele>
        <time>2024-05-17T12:57:42Z</time>
      </trkpt>
      <trkpt lat="49.88165" lon="2.24073">
        <ele>46</ele>
        <time>2024-05-17T12:57:43Z</time>
      </trkpt>
      <trkpt lat="49.88166" lon="2.24072">
        <ele>46</ele>
        <time>2024-05-17T12:57:44Z</time>
      </trkpt>
      <trkpt lat="49.88166" lon="2.24072">
        <ele>46</ele>
        <time>2024-05-17T12:57:45Z</time>
      </trkpt>
      <trkpt lat="49.88167" lon="2.24072">
        <ele>45.9</ele>
        <time>2024-05-17T12:57:46Z</time>
      </trkpt>
      <trkpt lat="49.88168" lon="2.24072">
        <ele>45.9</ele>
        <time>2024-05-17T12:57:47Z</time>
      </trkpt>
      <trkpt lat="49.88168" lon="2.24072">
        <ele>45.8</ele>
        <time>2024-05-17T12:57:48Z</time>
      </trkpt>
      <trkpt lat="49.88169" lon="2.24072">
        <ele>45.7</ele>
        <time>2024-05-17T12:57:49Z</time>
      </trkpt>
      <trkpt lat="49.8817" lon="2.24073">
        <ele>45.7</ele>
        <time>2024-05-17T12:57:50Z</time>
      </trkpt>
      <trkpt lat="49.88171" lon="2.24074">
        <ele>45.6</ele>
        <time>2024-05-17T12:57:51Z</time>
      </trkpt>
      <trkpt lat="49.88171" lon="2.24074">
        <ele>45.6</ele>
        <time>2024-05-17T12:57:52Z</time>
      </trkpt>
      <trkpt lat="49.8817" lon="2.24076">
        <ele>45.5</ele>
        <time>2024-05-17T12:57:53Z</time>
      </trkpt>
      <trkpt lat="49.88169" lon="2.24078">
        <ele>45.3</ele>
        <time>2024-05-17T12:57:54Z</time>
      </trkpt>
      <trkpt lat="49.88168" lon="2.24079">
        <ele>45.2</ele>
        <time>2024-05-17T12:57:55Z</time>
      </trkpt>
      <trkpt lat="49.88167" lon="2.24079">
        <ele>45.2</ele>
        <time>2024-05-17T12:57:56Z</time>
      </trkpt>
      <trkpt lat="49.88168" lon="2.2408">
        <ele>45.1</ele>
        <time>2024-05-17T12:57:57Z</time>
      </trkpt>
      <trkpt lat="49.88168" lon="2.24081">
        <ele>45.1</ele>
        <time>2024-05-17T12:57:58Z</time>
      </trkpt>
      <trkpt lat="49.88169" lon="2.24081">
        <ele>45</ele>
        <time>2024-05-17T12:57:59Z</time>
      </trkpt>
      <trkpt lat="49.8817" lon="2.24081">
        <ele>44.9</ele>
        <time>2024-05-17T12:58:00Z</time>
      </trkpt>
      <trkpt lat="49.88171" lon="2.24081">
        <ele>44.9</ele>
        <time>2024-05-17T12:58:01Z</time>
      </trkpt>
      <trkpt lat="49.88171" lon="2.24081">
        <ele>44.8</ele>
        <time>2024-05-17T12:58:02Z</time>
      </trkpt>
      <trkpt lat="49.88172" lon="2.24081">
        <ele>44.7</ele>
        <time>2024-05-17T12:58:03Z</time>
      </trkpt>
      <trkpt lat="49.88173" lon="2.24081">
        <ele>44.7</ele>
        <time>2024-05-17T12:58:04Z</time>
      </trkpt>
      <trkpt lat="49.88174" lon="2.2408">
        <ele>44.6</ele>
        <time>2024-05-17T12:58:05Z</time>
      </trkpt>
      <trkpt lat="49.88174" lon="2.24081">
        <ele>44.5</ele>
        <time>2024-05-17T12:58:06Z</time>
      </trkpt>
      <trkpt lat="49.88175" lon="2.24081">
        <ele>44.5</ele>
        <time>2024-05-17T12:58:07Z</time>
      </trkpt>
      <trkpt lat="49.88175" lon="2.24082">
        <ele>44.4</ele>
        <time>2024-05-17T12:58:08Z</time>
      </trkpt>
      <trkpt lat="49.88177" lon="2.24083">
        <ele>44.3</ele>
        <time>2024-05-17T12:58:09Z</time>
      </trkpt>
      <trkpt lat="49.88177" lon="2.24082">
        <ele>44.2</ele>
        <time>2024-05-17T12:58:10Z</time>
      </trkpt>
      <trkpt lat="49.88178" lon="2.24082">
        <ele>44.2</ele>
        <time>2024-05-17T12:58:11Z</time>
      </trkpt>
      <trkpt lat="49.88179" lon="2.24082">
        <ele>44.1</ele>
        <time>2024-05-17T12:58:12Z</time>
      </trkpt>
      <trkpt lat="49.88179" lon="2.24082">
        <ele>44.1</ele>
        <time>2024-05-17T12:58:13Z</time>
      </trkpt>
      <trkpt lat="49.8818" lon="2.24082">
        <ele>44</ele>
        <time>2024-05-17T12:58:14Z</time>
      </trkpt>
      <trkpt lat="49.88183" lon="2.24083">
        <ele>43.8</ele>
        <time>2024-05-17T12:58:15Z</time>
      </trkpt>
      <trkpt lat="49.88184" lon="2.24084">
        <ele>43.7</ele>
        <time>2024-05-17T12:58:16Z</time>
      </trkpt>
      <trkpt lat="49.88187" lon="2.24085">
        <ele>43.5</ele>
        <time>2024-05-17T12:58:17Z</time>
      </trkpt>
      <trkpt lat="49.88187" lon="2.24085">
        <ele>43.4</ele>
        <time>2024-05-17T12:58:18Z</time>
      </trkpt>
      <trkpt lat="49.88189" lon="2.24086">
        <ele>43.3</ele>
        <time>2024-05-17T12:58:19Z</time>
      </trkpt>
      <trkpt lat="49.88191" lon="2.24086">
        <ele>43.1</ele>
        <time>2024-05-17T12:58:20Z</time>
      </trkpt>
      <trkpt lat="49.88193" lon="2.24088">
        <ele>42.9</ele>
        <time>2024-05-17T12:58:21Z</time>
      </trkpt>
      <trkpt lat="49.88194" lon="2.24088">
        <ele>42.9</ele>
        <time>2024-05-17T12:58:22Z</time>
      </trkpt>
      <trkpt lat="49.88196" lon="2.24089">
        <ele>42.8</ele>
        <time>2024-05-17T12:58:23Z</time>
      </trkpt>
      <trkpt lat="49.88197" lon="2.2409">
        <ele>42.7</ele>
        <time>2024-05-17T12:58:24Z</time>
      </trkpt>
      <trkpt lat="49.88199" lon="2.24091">
        <ele>42.5</ele>
        <time>2024-05-17T12:58:25Z</time>
      </trkpt>
      <trkpt lat="49.882" lon="2.24092">
        <ele>42.4</ele>
        <time>2024-05-17T12:58:26Z</time>
      </trkpt>
      <trkpt lat="49.88202" lon="2.24093">
        <ele>42.3</ele>
        <time>2024-05-17T12:58:27Z</time>
      </trkpt>
      <trkpt lat="49.88202" lon="2.24094">
        <ele>42.3</ele>
        <time>2024-05-17T12:58:28Z</time>
      </trkpt>
      <trkpt lat="49.88203" lon="2.24095">
        <ele>42.2</ele>
        <time>2024-05-17T12:58:29Z</time>
      </trkpt>
      <trkpt lat="49.88204" lon="2.24095">
        <ele>42.1</ele>
        <time>2024-05-17T12:58:30Z</time>
      </trkpt>
      <trkpt lat="49.88205" lon="2.24096">
        <ele>42.1</ele>
        <time>2024-05-17T12:58:31Z</time>
      </trkpt>
      <trkpt lat="49.88205" lon="2.24097">
        <ele>42</ele>
        <time>2024-05-17T12:58:32Z</time>
      </trkpt>
      <trkpt lat="49.88205" lon="2.24097">
        <ele>42</ele>
        <time>2024-05-17T12:58:33Z</time>
      </trkpt>
      <trkpt lat="49.88205" lon="2.24098">
        <ele>42</ele>
        <time>2024-05-17T12:58:34Z</time>
      </trkpt>
      <trkpt lat="49.88205" lon="2.24099">
        <ele>41.9</ele>
        <time>2024-05-17T12:58:35Z</time>
      </trkpt>
      <trkpt lat="49.88206" lon="2.241">
        <ele>41.9</ele>
        <time>2024-05-17T12:58:36Z</time>
      </trkpt>
      <trkpt lat="49.88207" lon="2.24101">
        <ele>41.8</ele>
        <time>2024-05-17T12:58:37Z</time>
      </trkpt>
      <trkpt lat="49.88208" lon="2.24102">
        <ele>41.7</ele>
        <time>2024-05-17T12:58:38Z</time>
      </trkpt>
      <trkpt lat="49.88208" lon="2.24104">
        <ele>41.6</ele>
        <time>2024-05-17T12:58:39Z</time>
      </trkpt>
      <trkpt lat="49.88209" lon="2.24105">
        <ele>41.6</ele>
        <time>2024-05-17T12:58:40Z</time>
      </trkpt>
      <trkpt lat="49.88208" lon="2.24105">
        <ele>41.6</ele>
        <time>2024-05-17T12:58:41Z</time>
      </trkpt>
      <trkpt lat="49.88208" lon="2.24105">
        <ele>41.6</ele>
        <time>2024-05-17T12:58:42Z</time>
      </trkpt>
      <trkpt lat="49.88209" lon="2.24105">
        <ele>41.5</ele>
        <time>2024-05-17T12:58:43Z</time>
      </trkpt>
      <trkpt lat="49.8821" lon="2.24106">
        <ele>41.5</ele>
        <time>2024-05-17T12:58:44Z</time>
      </trkpt>
      <trkpt lat="49.8821" lon="2.24106">
        <ele>41.4</ele>
        <time>2024-05-17T12:58:45Z</time>
      </trkpt>
      <trkpt lat="49.88211" lon="2.24106">
        <ele>41.4</ele>
        <time>2024-05-17T12:58:46Z</time>
      </trkpt>
      <trkpt lat="49.88211" lon="2.24106">
        <ele>41.4</ele>
        <time>2024-05-17T12:58:47Z</time>
      </trkpt>
      <trkpt lat="49.88212" lon="2.24106">
        <ele>41.3</ele>
        <time>2024-05-17T12:58:48Z</time>
      </trkpt>
      <trkpt lat="49.88212" lon="2.24107">
        <ele>41.3</ele>
        <time>2024-05-17T12:58:49Z</time>
      </trkpt>
      <trkpt lat="49.88213" lon="2.24108">
        <ele>41.3</ele>
        <time>2024-05-17T12:58:50Z</time>
      </trkpt>
      <trkpt lat="49.88214" lon="2.24108">
        <ele>41.2</ele>
        <time>2024-05-17T12:58:51Z</time>
      </trkpt>
      <trkpt lat="49.88215" lon="2.24109">
        <ele>41.2</ele>
        <time>2024-05-17T12:58:52Z</time>
      </trkpt>
      <trkpt lat="49.88216" lon="2.24109">
        <ele>41.1</ele>
        <time>2024-05-17T12:58:53Z</time>
      </trkpt>
      <trkpt lat="49.88218" lon="2.24111">
        <ele>41</ele>
        <time>2024-05-17T12:58:54Z</time>
      </trkpt>
      <trkpt lat="49.88218" lon="2.24112">
        <ele>41</ele>
        <time>2024-05-17T12:58:55Z</time>
      </trkpt>
      <trkpt lat="49.88219" lon="2.24112">
        <ele>40.9</ele>
        <time>2024-05-17T12:58:56Z</time>
      </trkpt>
      <trkpt lat="49.8822" lon="2.24113">
        <ele>40.8</ele>
        <time>2024-05-17T12:58:57Z</time>
      </trkpt>
      <trkpt lat="49.88221" lon="2.24114">
        <ele>40.8</ele>
        <time>2024-05-17T12:58:58Z</time>
      </trkpt>
      <trkpt lat="49.88222" lon="2.24115">
        <ele>40.8</ele>
        <time>2024-05-17T12:58:59Z</time>
      </trkpt>
      <trkpt lat="49.88222" lon="2.24116">
        <ele>40.7</ele>
        <time>2024-05-17T12:59:00Z</time>
      </trkpt>
      <trkpt lat="49.88223" lon="2.24116">
        <ele>40.7</ele>
        <time>2024-05-17T12:59:01Z</time>
      </trkpt>
      <trkpt lat="49.88223" lon="2.24115">
        <ele>40.7</ele>
        <time>2024-05-17T12:59:02Z</time>
      </trkpt>
      <trkpt lat="49.88223" lon="2.24115">
        <ele>40.7</ele>
        <time>2024-05-17T12:59:03Z</time>
      </trkpt>
      <trkpt lat="49.88223" lon="2.24115">
        <ele>40.7</ele>
        <time>2024-05-17T12:59:04Z</time>
      </trkpt>
      <trkpt lat="49.88224" lon="2.24116">
        <ele>40.6</ele>
        <time>2024-05-17T12:59:05Z</time>
      </trkpt>
      <trkpt lat="49.88225" lon="2.24116">
        <ele>40.6</ele>
        <time>2024-05-17T12:59:06Z</time>
      </trkpt>
      <trkpt lat="49.88225" lon="2.24117">
        <ele>40.6</ele>
        <time>2024-05-17T12:59:07Z</time>
      </trkpt>
      <trkpt lat="49.88225" lon="2.24117">
        <ele>40.6</ele>
        <time>2024-05-17T12:59:08Z</time>
      </trkpt>
      <trkpt lat="49.88225" lon="2.24116">
        <ele>40.6</ele>
        <time>2024-05-17T12:59:09Z</time>
      </trkpt>
      <trkpt lat="49.88225" lon="2.24116">
        <ele>40.6</ele>
        <time>2024-05-17T12:59:10Z</time>
      </trkpt>
      <trkpt lat="49.88224" lon="2.24116">
        <ele>40.6</ele>
        <time>2024-05-17T12:59:11Z</time>
      </trkpt>
      <trkpt lat="49.88224" lon="2.24116">
        <ele>40.6</ele>
        <time>2024-05-17T12:59:12Z</time>
      </trkpt>
      <trkpt lat="49.88224" lon="2.24116">
        <ele>40.6</ele>
        <time>2024-05-17T12:59:13Z</time>
      </trkpt>
      <trkpt lat="49.88224" lon="2.24116">
        <ele>40.6</ele>
        <time>2024-05-17T12:59:14Z</time>
      </trkpt>
      <trkpt lat="49.88224" lon="2.24115">
        <ele>40.5</ele>
        <time>2024-05-17T12:59:15Z</time>
      </trkpt>
      <trkpt lat="49.88224" lon="2.24115">
        <ele>40.5</ele>
        <time>2024-05-17T12:59:16Z</time>
      </trkpt>
      <trkpt lat="49.88224" lon="2.24115">
        <ele>40.5</ele>
        <time>2024-05-17T12:59:17Z</time>
      </trkpt>
      <trkpt lat="49.88223" lon="2.24115">
        <ele>40.5</ele>
        <time>2024-05-17T12:59:18Z</time>
      </trkpt>
      <trkpt lat="49.88223" lon="2.24115">
        <ele>40.5</ele>
        <time>2024-05-17T12:59:19Z</time>
      </trkpt>
      <trkpt lat="49.88223" lon="2.24115">
        <ele>40.5</ele>
        <time>2024-05-17T12:59:20Z</time>
      </trkpt>
      <trkpt lat="49.88223" lon="2.24114">
        <ele>40.5</ele>
        <time>2024-05-17T12:59:21Z</time>
      </trkpt>
      <trkpt lat="49.88223" lon="2.24114">
        <ele>40.5</ele>
        <time>2024-05-17T12:59:22Z</time>
      </trkpt>
      <trkpt lat="49.88223" lon="2.24114">
        <ele>40.5</ele>
        <time>2024-05-17T12:59:23Z</time>
      </trkpt>
      <trkpt lat="49.88223" lon="2.24114">
        <ele>40.5</ele>
        <time>2024-05-17T12:59:24Z</time>
      </trkpt>
      <trkpt lat="49.88222" lon="2.24114">
        <ele>40.5</ele>
        <time>2024-05-17T12:59:25Z</time>
      </trkpt>
      <trkpt lat="49.88222" lon="2.24114">
        <ele>40.5</ele>
        <time>2024-05-17T12:59:26Z</time>
      </trkpt>
      <trkpt lat="49.88222" lon="2.24113">
        <ele>40.5</ele>
        <time>2024-05-17T12:59:27Z</time>
      </trkpt>
      <trkpt lat="49.88222" lon="2.24113">
        <ele>40.5</ele>
        <time>2024-05-17T12:59:28Z</time>
      </trkpt>
      <trkpt lat="49.88222" lon="2.24113">
        <ele>40.5</ele>
        <time>2024-05-17T12:59:29Z</time>
      </trkpt>
      <trkpt lat="49.88222" lon="2.24113">
        <ele>40.4</ele>
        <time>2024-05-17T12:59:30Z</time>
      </trkpt>
      <trkpt lat="49.88222" lon="2.24113">
        <ele>40.4</ele>
        <time>2024-05-17T12:59:31Z</time>
      </trkpt>
      <trkpt lat="49.88221" lon="2.24113">
        <ele>40.4</ele>
        <time>2024-05-17T12:59:32Z</time>
      </trkpt>
      <trkpt lat="49.88221" lon="2.24112">
        <ele>40.4</ele>
        <time>2024-05-17T12:59:33Z</time>
      </trkpt>
      <trkpt lat="49.88221" lon="2.24112">
        <ele>40.4</ele>
        <time>2024-05-17T12:59:34Z</time>
      </trkpt>
      <trkpt lat="49.88221" lon="2.24112">
        <ele>40.4</ele>
        <time>2024-05-17T12:59:35Z</time>
      </trkpt>
      <trkpt lat="49.88221" lon="2.24112">
        <ele>40.4</ele>
        <time>2024-05-17T12:59:36Z</time>
      </trkpt>
      <trkpt lat="49.88221" lon="2.24112">
        <ele>40.4</ele>
        <time>2024-05-17T12:59:37Z</time>
      </trkpt>
      <trkpt lat="49.88221" lon="2.24112">
        <ele>40.4</ele>
        <time>2024-05-17T12:59:38Z</time>
      </trkpt>
      <trkpt lat="49.8822" lon="2.24111">
        <ele>40.4</ele>
        <time>2024-05-17T12:59:39Z</time>
      </trkpt>
      <trkpt lat="49.8822" lon="2.24111">
        <ele>40.4</ele>
        <time>2024-05-17T12:59:40Z</time>
      </trkpt>
      <trkpt lat="49.8822" lon="2.24111">
        <ele>40.4</ele>
        <time>2024-05-17T12:59:41Z</time>
      </trkpt>
      <trkpt lat="49.8822" lon="2.24111">
        <ele>40.4</ele>
        <time>2024-05-17T12:59:42Z</time>
      </trkpt>
      <trkpt lat="49.8822" lon="2.24111">
        <ele>40.4</ele>
        <time>2024-05-17T12:59:43Z</time>
      </trkpt>
      <trkpt lat="49.8822" lon="2.24111">
        <ele>40.4</ele>
        <time>2024-05-17T12:59:44Z</time>
      </trkpt>
      <trkpt lat="49.8822" lon="2.2411">
        <ele>40.4</ele>
        <time>2024-05-17T12:59:45Z</time>
      </trkpt>
      <trkpt lat="49.88223" lon="2.24115">
        <ele>40.2</ele>
        <time>2024-05-17T12:59:46Z</time>
      </trkpt>
      <trkpt lat="49.88223" lon="2.24115">
        <ele>40.2</ele>
        <time>2024-05-17T12:59:47Z</time>
      </trkpt>
      <trkpt lat="49.88223" lon="2.24114">
        <ele>40.2</ele>
        <time>2024-05-17T12:59:48Z</time>
      </trkpt>
      <trkpt lat="49.88222" lon="2.24114">
        <ele>40.1</ele>
        <time>2024-05-17T12:59:49Z</time>
      </trkpt>
      <trkpt lat="49.88222" lon="2.24114">
        <ele>40.1</ele>
        <time>2024-05-17T12:59:50Z</time>
      </trkpt>
      <trkpt lat="49.88222" lon="2.24114">
        <ele>40.1</ele>
        <time>2024-05-17T12:59:51Z</time>
      </trkpt>
      <trkpt lat="49.88222" lon="2.24115">
        <ele>40.1</ele>
        <time>2024-05-17T12:59:52Z</time>
      </trkpt>
      <trkpt lat="49.88223" lon="2.24116">
        <ele>40.1</ele>
        <time>2024-05-17T12:59:53Z</time>
      </trkpt>
      <trkpt lat="49.88223" lon="2.24117">
        <ele>40</ele>
        <time>2024-05-17T12:59:54Z</time>
      </trkpt>
      <trkpt lat="49.88223" lon="2.24118">
        <ele>40</ele>
        <time>2024-05-17T12:59:55Z</time>
      </trkpt>
      <trkpt lat="49.88224" lon="2.24119">
        <ele>40</ele>
        <time>2024-05-17T12:59:56Z</time>
      </trkpt>
      <trkpt lat="49.88224" lon="2.2412">
        <ele>40</ele>
        <time>2024-05-17T12:59:57Z</time>
      </trkpt>
      <trkpt lat="49.88224" lon="2.24121">
        <ele>40</ele>
        <time>2024-05-17T12:59:58Z</time>
      </trkpt>
      <trkpt lat="49.88224" lon="2.24123">
        <ele>39.9</ele>
        <time>2024-05-17T12:59:59Z</time>
      </trkpt>
      <trkpt lat="49.88224" lon="2.24124">
        <ele>39.9</ele>
        <time>2024-05-17T13:00:00Z</time>
      </trkpt>
      <trkpt lat="49.88224" lon="2.24126">
        <ele>39.9</ele>
        <time>2024-05-17T13:00:01Z</time>
      </trkpt>
      <trkpt lat="49.88224" lon="2.24128">
        <ele>39.8</ele>
        <time>2024-05-17T13:00:02Z</time>
      </trkpt>
      <trkpt lat="49.88223" lon="2.24129">
        <ele>39.8</ele>
        <time>2024-05-17T13:00:03Z</time>
      </trkpt>
      <trkpt lat="49.88223" lon="2.2413">
        <ele>39.8</ele>
        <time>2024-05-17T13:00:04Z</time>
      </trkpt>
      <trkpt lat="49.88221" lon="2.2413">
        <ele>39.7</ele>
        <time>2024-05-17T13:00:05Z</time>
      </trkpt>
      <trkpt lat="49.88221" lon="2.24132">
        <ele>39.7</ele>
        <time>2024-05-17T13:00:06Z</time>
      </trkpt>
      <trkpt lat="49.88221" lon="2.24134">
        <ele>39.6</ele>
        <time>2024-05-17T13:00:07Z</time>
      </trkpt>
      <trkpt lat="49.88221" lon="2.24135">
        <ele>39.6</ele>
        <time>2024-05-17T13:00:08Z</time>
      </trkpt>
      <trkpt lat="49.88221" lon="2.24136">
        <ele>39.6</ele>
        <time>2024-05-17T13:00:09Z</time>
      </trkpt>
      <trkpt lat="49.88221" lon="2.24138">
        <ele>39.6</ele>
        <time>2024-05-17T13:00:10Z</time>
      </trkpt>
      <trkpt lat="49.88221" lon="2.24139">
        <ele>39.5</ele>
        <time>2024-05-17T13:00:11Z</time>
      </trkpt>
      <trkpt lat="49.88221" lon="2.2414">
        <ele>39.5</ele>
        <time>2024-05-17T13:00:12Z</time>
      </trkpt>
      <trkpt lat="49.8822" lon="2.24142">
        <ele>39.5</ele>
        <time>2024-05-17T13:00:13Z</time>
      </trkpt>
      <trkpt lat="49.88221" lon="2.24143">
        <ele>39.4</ele>
        <time>2024-05-17T13:00:14Z</time>
      </trkpt>
      <trkpt lat="49.88221" lon="2.24145">
        <ele>39.4</ele>
        <time>2024-05-17T13:00:15Z</time>
      </trkpt>
      <trkpt lat="49.88221" lon="2.24146">
        <ele>39.4</ele>
        <time>2024-05-17T13:00:16Z</time>
      </trkpt>
      <trkpt lat="49.88221" lon="2.24148">
        <ele>39.3</ele>
        <time>2024-05-17T13:00:17Z</time>
      </trkpt>
      <trkpt lat="49.88222" lon="2.24149">
        <ele>39.3</ele>
        <time>2024-05-17T13:00:18Z</time>
      </trkpt>
      <trkpt lat="49.88222" lon="2.24149">
        <ele>39.3</ele>
        <time>2024-05-17T13:00:19Z</time>
      </trkpt>
      <trkpt lat="49.88222" lon="2.24149">
        <ele>39.3</ele>
        <time>2024-05-17T13:00:20Z</time>
      </trkpt>
      <trkpt lat="49.88222" lon="2.24149">
        <ele>39.3</ele>
        <time>2024-05-17T13:00:21Z</time>
      </trkpt>
      <trkpt lat="49.88223" lon="2.24149">
        <ele>39.3</ele>
        <time>2024-05-17T13:00:22Z</time>
      </trkpt>
      <trkpt lat="49.88223" lon="2.2415">
        <ele>39.3</ele>
        <time>2024-05-17T13:00:23Z</time>
      </trkpt>
      <trkpt lat="49.88223" lon="2.24151">
        <ele>39.2</ele>
        <time>2024-05-17T13:00:24Z</time>
      </trkpt>
      <trkpt lat="49.88223" lon="2.24153">
        <ele>39.2</ele>
        <time>2024-05-17T13:00:25Z</time>
      </trkpt>
      <trkpt lat="49.88223" lon="2.24154">
        <ele>39.2</ele>
        <time>2024-05-17T13:00:26Z</time>
      </trkpt>
      <trkpt lat="49.88223" lon="2.24156">
        <ele>39.2</ele>
        <time>2024-05-17T13:00:27Z</time>
      </trkpt>
      <trkpt lat="49.88223" lon="2.24157">
        <ele>39.1</ele>
        <time>2024-05-17T13:00:28Z</time>
      </trkpt>
      <trkpt lat="49.88224" lon="2.24159">
        <ele>39.1</ele>
        <time>2024-05-17T13:00:29Z</time>
      </trkpt>
      <trkpt lat="49.88224" lon="2.24161">
        <ele>39.1</ele>
        <time>2024-05-17T13:00:30Z</time>
      </trkpt>
      <trkpt lat="49.88224" lon="2.24162">
        <ele>39</ele>
        <time>2024-05-17T13:00:31Z</time>
      </trkpt>
      <trkpt lat="49.88224" lon="2.24163">
        <ele>39</ele>
        <time>2024-05-17T13:00:32Z</time>
      </trkpt>
      <trkpt lat="49.88224" lon="2.24164">
        <ele>39</ele>
        <time>2024-05-17T13:00:33Z</time>
      </trkpt>
      <trkpt lat="49.88224" lon="2.24165">
        <ele>39</ele>
        <time>2024-05-17T13:00:34Z</time>
      </trkpt>
      <trkpt lat="49.88224" lon="2.24167">
        <ele>38.9</ele>
        <time>2024-05-17T13:00:35Z</time>
      </trkpt>
      <trkpt lat="49.88225" lon="2.24168">
        <ele>38.9</ele>
        <time>2024-05-17T13:00:36Z</time>
      </trkpt>
      <trkpt lat="49.88225" lon="2.2417">
        <ele>38.9</ele>
        <time>2024-05-17T13:00:37Z</time>
      </trkpt>
      <trkpt lat="49.88225" lon="2.24171">
        <ele>38.9</ele>
        <time>2024-05-17T13:00:38Z</time>
      </trkpt>
      <trkpt lat="49.88225" lon="2.24172">
        <ele>38.8</ele>
        <time>2024-05-17T13:00:39Z</time>
      </trkpt>
      <trkpt lat="49.88226" lon="2.24174">
        <ele>38.8</ele>
        <time>2024-05-17T13:00:40Z</time>
      </trkpt>
      <trkpt lat="49.88226" lon="2.24176">
        <ele>38.8</ele>
        <time>2024-05-17T13:00:41Z</time>
      </trkpt>
      <trkpt lat="49.88226" lon="2.24177">
        <ele>38.8</ele>
        <time>2024-05-17T13:00:42Z</time>
      </trkpt>
      <trkpt lat="49.88226" lon="2.24179">
        <ele>38.7</ele>
        <time>2024-05-17T13:00:43Z</time>
      </trkpt>
      <trkpt lat="49.88226" lon="2.24181">
        <ele>38.7</ele>
        <time>2024-05-17T13:00:44Z</time>
      </trkpt>
      <trkpt lat="49.88226" lon="2.24182">
        <ele>38.7</ele>
        <time>2024-05-17T13:00:45Z</time>
      </trkpt>
      <trkpt lat="49.88226" lon="2.24184">
        <ele>38.7</ele>
        <time>2024-05-17T13:00:46Z</time>
      </trkpt>
      <trkpt lat="49.88226" lon="2.24185">
        <ele>38.6</ele>
        <time>2024-05-17T13:00:47Z</time>
      </trkpt>
      <trkpt lat="49.88226" lon="2.24187">
        <ele>38.6</ele>
        <time>2024-05-17T13:00:48Z</time>
      </trkpt>
      <trkpt lat="49.88226" lon="2.24188">
        <ele>38.6</ele>
        <time>2024-05-17T13:00:49Z</time>
      </trkpt>
      <trkpt lat="49.88225" lon="2.24189">
        <ele>38.6</ele>
        <time>2024-05-17T13:00:50Z</time>
      </trkpt>
      <trkpt lat="49.88225" lon="2.24191">
        <ele>38.5</ele>
        <time>2024-05-17T13:00:51Z</time>
      </trkpt>
      <trkpt lat="49.88225" lon="2.24192">
        <ele>38.5</ele>
        <time>2024-05-17T13:00:52Z</time>
      </trkpt>
      <trkpt lat="49.88225" lon="2.24195">
        <ele>38.5</ele>
        <time>2024-05-17T13:00:53Z</time>
      </trkpt>
      <trkpt lat="49.88225" lon="2.24196">
        <ele>38.4</ele>
        <time>2024-05-17T13:00:54Z</time>
      </trkpt>
      <trkpt lat="49.88225" lon="2.24197">
        <ele>38.4</ele>
        <time>2024-05-17T13:00:55Z</time>
      </trkpt>
      <trkpt lat="49.88225" lon="2.24198">
        <ele>38.4</ele>
        <time>2024-05-17T13:00:56Z</time>
      </trkpt>
      <trkpt lat="49.88225" lon="2.24199">
        <ele>38.4</ele>
        <time>2024-05-17T13:00:57Z</time>
      </trkpt>
      <trkpt lat="49.88224" lon="2.24201">
        <ele>38.4</ele>
        <time>2024-05-17T13:00:58Z</time>
      </trkpt>
      <trkpt lat="49.88224" lon="2.24202">
        <ele>38.4</ele>
        <time>2024-05-17T13:00:59Z</time>
      </trkpt>
      <trkpt lat="49.88224" lon="2.24203">
        <ele>38.3</ele>
        <time>2024-05-17T13:01:00Z</time>
      </trkpt>
      <trkpt lat="49.88223" lon="2.24204">
        <ele>38.3</ele>
        <time>2024-05-17T13:01:01Z</time>
      </trkpt>
      <trkpt lat="49.88223" lon="2.24204">
        <ele>38.3</ele>
        <time>2024-05-17T13:01:02Z</time>
      </trkpt>
      <trkpt lat="49.88223" lon="2.24205">
        <ele>38.3</ele>
        <time>2024-05-17T13:01:03Z</time>
      </trkpt>
      <trkpt lat="49.88223" lon="2.24206">
        <ele>38.3</ele>
        <time>2024-05-17T13:01:04Z</time>
      </trkpt>
      <trkpt lat="49.88223" lon="2.24206">
        <ele>38.3</ele>
        <time>2024-05-17T13:01:05Z</time>
      </trkpt>
      <trkpt lat="49.88223" lon="2.24207">
        <ele>38.3</ele>
        <time>2024-05-17T13:01:06Z</time>
      </trkpt>
      <trkpt lat="49.88223" lon="2.24208">
        <ele>38.3</ele>
        <time>2024-05-17T13:01:07Z</time>
      </trkpt>
      <trkpt lat="49.88223" lon="2.2421">
        <ele>38.2</ele>
        <time>2024-05-17T13:01:08Z</time>
      </trkpt>
      <trkpt lat="49.88223" lon="2.24211">
        <ele>38.2</ele>
        <time>2024-05-17T13:01:09Z</time>
      </trkpt>
      <trkpt lat="49.88223" lon="2.24212">
        <ele>38.2</ele>
        <time>2024-05-17T13:01:10Z</time>
      </trkpt>
      <trkpt lat="49.88223" lon="2.24213">
        <ele>38.2</ele>
        <time>2024-05-17T13:01:11Z</time>
      </trkpt>
      <trkpt lat="49.88223" lon="2.24215">
        <ele>38.2</ele>
        <time>2024-05-17T13:01:12Z</time>
      </trkpt>
      <trkpt lat="49.88223" lon="2.24216">
        <ele>38.2</ele>
        <time>2024-05-17T13:01:13Z</time>
      </trkpt>
      <trkpt lat="49.88223" lon="2.24218">
        <ele>38.1</ele>
        <time>2024-05-17T13:01:14Z</time>
      </trkpt>
      <trkpt lat="49.88223" lon="2.24219">
        <ele>38.1</ele>
        <time>2024-05-17T13:01:15Z</time>
      </trkpt>
      <trkpt lat="49.88223" lon="2.2422">
        <ele>38.1</ele>
        <time>2024-05-17T13:01:16Z</time>
      </trkpt>
      <trkpt lat="49.88223" lon="2.24222">
        <ele>38.1</ele>
        <time>2024-05-17T13:01:17Z</time>
      </trkpt>
      <trkpt lat="49.88223" lon="2.24223">
        <ele>38.1</ele>
        <time>2024-05-17T13:01:18Z</time>
      </trkpt>
      <trkpt lat="49.88223" lon="2.24225">
        <ele>38</ele>
        <time>2024-05-17T13:01:19Z</time>
      </trkpt>
      <trkpt lat="49.88223" lon="2.24226">
        <ele>38</ele>
        <time>2024-05-17T13:01:20Z</time>
      </trkpt>
      <trkpt lat="49.88223" lon="2.24227">
        <ele>38</ele>
        <time>2024-05-17T13:01:21Z</time>
      </trkpt>
      <trkpt lat="49.88223" lon="2.24229">
        <ele>38</ele>
        <time>2024-05-17T13:01:22Z</time>
      </trkpt>
      <trkpt lat="49.88223" lon="2.2423">
        <ele>38</ele>
        <time>2024-05-17T13:01:23Z</time>
      </trkpt>
      <trkpt lat="49.88223" lon="2.24231">
        <ele>37.9</ele>
        <time>2024-05-17T13:01:24Z</time>
      </trkpt>
      <trkpt lat="49.88223" lon="2.24231">
        <ele>37.9</ele>
        <time>2024-05-17T13:01:25Z</time>
      </trkpt>
      <trkpt lat="49.88223" lon="2.24232">
        <ele>37.9</ele>
        <time>2024-05-17T13:01:26Z</time>
      </trkpt>
      <trkpt lat="49.88223" lon="2.24232">
        <ele>37.9</ele>
        <time>2024-05-17T13:01:27Z</time>
      </trkpt>
      <trkpt lat="49.88223" lon="2.24233">
        <ele>37.9</ele>
        <time>2024-05-17T13:01:28Z</time>
      </trkpt>
      <trkpt lat="49.88221" lon="2.24234">
        <ele>37.9</ele>
        <time>2024-05-17T13:01:29Z</time>
      </trkpt>
      <trkpt lat="49.8822" lon="2.24234">
        <ele>37.8</ele>
        <time>2024-05-17T13:01:30Z</time>
      </trkpt>
      <trkpt lat="49.88219" lon="2.24234">
        <ele>37.8</ele>
        <time>2024-05-17T13:01:31Z</time>
      </trkpt>
      <trkpt lat="49.88218" lon="2.24234">
        <ele>37.8</ele>
        <time>2024-05-17T13:01:32Z</time>
      </trkpt>
      <trkpt lat="49.88217" lon="2.24234">
        <ele>37.8</ele>
        <time>2024-05-17T13:01:33Z</time>
      </trkpt>
      <trkpt lat="49.88217" lon="2.24234">
        <ele>37.8</ele>
        <time>2024-05-17T13:01:34Z</time>
      </trkpt>
      <trkpt lat="49.88217" lon="2.24234">
        <ele>37.8</ele>
        <time>2024-05-17T13:01:35Z</time>
      </trkpt>
      <trkpt lat="49.88217" lon="2.24234">
        <ele>37.8</ele>
        <time>2024-05-17T13:01:36Z</time>
      </trkpt>
      <trkpt lat="49.88217" lon="2.24234">
        <ele>37.8</ele>
        <time>2024-05-17T13:01:37Z</time>
      </trkpt>
      <trkpt lat="49.88217" lon="2.24233">
        <ele>37.8</ele>
        <time>2024-05-17T13:01:38Z</time>
      </trkpt>
      <trkpt lat="49.88217" lon="2.24233">
        <ele>37.8</ele>
        <time>2024-05-17T13:01:39Z</time>
      </trkpt>
      <trkpt lat="49.88217" lon="2.24233">
        <ele>37.8</ele>
        <time>2024-05-17T13:01:40Z</time>
      </trkpt>
      <trkpt lat="49.88217" lon="2.24233">
        <ele>37.8</ele>
        <time>2024-05-17T13:01:41Z</time>
      </trkpt>
      <trkpt lat="49.88217" lon="2.24233">
        <ele>37.8</ele>
        <time>2024-05-17T13:01:42Z</time>
      </trkpt>
      <trkpt lat="49.88217" lon="2.24233">
        <ele>37.8</ele>
        <time>2024-05-17T13:01:43Z</time>
      </trkpt>
      <trkpt lat="49.88217" lon="2.24233">
        <ele>37.8</ele>
        <time>2024-05-17T13:01:44Z</time>
      </trkpt>
      <trkpt lat="49.88217" lon="2.24234">
        <ele>37.8</ele>
        <time>2024-05-17T13:01:45Z</time>
      </trkpt>
      <trkpt lat="49.88218" lon="2.24234">
        <ele>37.8</ele>
        <time>2024-05-17T13:01:46Z</time>
      </trkpt>
      <trkpt lat="49.88218" lon="2.24234">
        <ele>37.8</ele>
        <time>2024-05-17T13:01:47Z</time>
      </trkpt>
      <trkpt lat="49.88218" lon="2.24234">
        <ele>37.8</ele>
        <time>2024-05-17T13:01:48Z</time>
      </trkpt>
      <trkpt lat="49.88219" lon="2.24234">
        <ele>37.8</ele>
        <time>2024-05-17T13:01:49Z</time>
      </trkpt>
      <trkpt lat="49.88219" lon="2.24234">
        <ele>37.8</ele>
        <time>2024-05-17T13:01:50Z</time>
      </trkpt>
      <trkpt lat="49.8822" lon="2.24235">
        <ele>37.8</ele>
        <time>2024-05-17T13:01:51Z</time>
      </trkpt>
      <trkpt lat="49.8822" lon="2.24235">
        <ele>37.8</ele>
        <time>2024-05-17T13:01:52Z</time>
      </trkpt>
      <trkpt lat="49.8822" lon="2.24235">
        <ele>37.8</ele>
        <time>2024-05-17T13:01:53Z</time>
      </trkpt>
      <trkpt lat="49.88221" lon="2.24235">
        <ele>37.8</ele>
        <time>2024-05-17T13:01:54Z</time>
      </trkpt>
      <trkpt lat="49.88222" lon="2.24236">
        <ele>37.8</ele>
        <time>2024-05-17T13:01:55Z</time>
      </trkpt>
      <trkpt lat="49.88223" lon="2.24236">
        <ele>37.8</ele>
        <time>2024-05-17T13:01:56Z</time>
      </trkpt>
      <trkpt lat="49.88225" lon="2.24237">
        <ele>37.8</ele>
        <time>2024-05-17T13:01:57Z</time>
      </trkpt>
      <trkpt lat="49.88225" lon="2.24238">
        <ele>37.8</ele>
        <time>2024-05-17T13:01:58Z</time>
      </trkpt>
      <trkpt lat="49.88226" lon="2.24238">
        <ele>37.8</ele>
        <time>2024-05-17T13:01:59Z</time>
      </trkpt>
      <trkpt lat="49.88226" lon="2.24239">
        <ele>37.8</ele>
        <time>2024-05-17T13:02:00Z</time>
      </trkpt>
      <trkpt lat="49.88227" lon="2.24239">
        <ele>37.8</ele>
        <time>2024-05-17T13:02:01Z</time>
      </trkpt>
      <trkpt lat="49.88228" lon="2.2424">
        <ele>37.8</ele>
        <time>2024-05-17T13:02:02Z</time>
      </trkpt>
      <trkpt lat="49.88229" lon="2.2424">
        <ele>37.8</ele>
        <time>2024-05-17T13:02:03Z</time>
      </trkpt>
      <trkpt lat="49.88229" lon="2.24241">
        <ele>37.8</ele>
        <time>2024-05-17T13:02:04Z</time>
      </trkpt>
      <trkpt lat="49.88229" lon="2.24242">
        <ele>37.8</ele>
        <time>2024-05-17T13:02:05Z</time>
      </trkpt>
      <trkpt lat="49.88229" lon="2.24243">
        <ele>37.7</ele>
        <time>2024-05-17T13:02:06Z</time>
      </trkpt>
      <trkpt lat="49.88229" lon="2.24244">
        <ele>37.7</ele>
        <time>2024-05-17T13:02:07Z</time>
      </trkpt>
      <trkpt lat="49.8823" lon="2.24245">
        <ele>37.6</ele>
        <time>2024-05-17T13:02:08Z</time>
      </trkpt>
      <trkpt lat="49.8823" lon="2.24245">
        <ele>37.6</ele>
        <time>2024-05-17T13:02:09Z</time>
      </trkpt>
      <trkpt lat="49.88231" lon="2.24246">
        <ele>37.6</ele>
        <time>2024-05-17T13:02:10Z</time>
      </trkpt>
      <trkpt lat="49.88231" lon="2.24246">
        <ele>37.5</ele>
        <time>2024-05-17T13:02:11Z</time>
      </trkpt>
      <trkpt lat="49.88231" lon="2.24246">
        <ele>37.5</ele>
        <time>2024-05-17T13:02:12Z</time>
      </trkpt>
      <trkpt lat="49.88232" lon="2.24247">
        <ele>37.5</ele>
        <time>2024-05-17T13:02:13Z</time>
      </trkpt>
      <trkpt lat="49.88233" lon="2.24248">
        <ele>37.4</ele>
        <time>2024-05-17T13:02:14Z</time>
      </trkpt>
      <trkpt lat="49.88234" lon="2.2425">
        <ele>37.3</ele>
        <time>2024-05-17T13:02:15Z</time>
      </trkpt>
      <trkpt lat="49.88235" lon="2.24251">
        <ele>37.3</ele>
        <time>2024-05-17T13:02:16Z</time>
      </trkpt>
      <trkpt lat="49.88236" lon="2.24252">
        <ele>37.2</ele>
        <time>2024-05-17T13:02:17Z</time>
      </trkpt>
      <trkpt lat="49.88236" lon="2.24253">
        <ele>37.2</ele>
        <time>2024-05-17T13:02:18Z</time>
      </trkpt>
      <trkpt lat="49.88236" lon="2.24254">
        <ele>37.1</ele>
        <time>2024-05-17T13:02:19Z</time>
      </trkpt>
      <trkpt lat="49.88237" lon="2.24256">
        <ele>37</ele>
        <time>2024-05-17T13:02:20Z</time>
      </trkpt>
      <trkpt lat="49.88237" lon="2.24257">
        <ele>37</ele>
        <time>2024-05-17T13:02:21Z</time>
      </trkpt>
      <trkpt lat="49.88237" lon="2.24258">
        <ele>37</ele>
        <time>2024-05-17T13:02:22Z</time>
      </trkpt>
      <trkpt lat="49.88238" lon="2.24258">
        <ele>36.9</ele>
        <time>2024-05-17T13:02:23Z</time>
      </trkpt>
      <trkpt lat="49.88238" lon="2.24259">
        <ele>36.9</ele>
        <time>2024-05-17T13:02:24Z</time>
      </trkpt>
      <trkpt lat="49.88239" lon="2.2426">
        <ele>36.8</ele>
        <time>2024-05-17T13:02:25Z</time>
      </trkpt>
      <trkpt lat="49.8824" lon="2.24261">
        <ele>36.8</ele>
        <time>2024-05-17T13:02:26Z</time>
      </trkpt>
      <trkpt lat="49.8824" lon="2.24262">
        <ele>36.7</ele>
        <time>2024-05-17T13:02:27Z</time>
      </trkpt>
      <trkpt lat="49.88241" lon="2.24262">
        <ele>36.7</ele>
        <time>2024-05-17T13:02:28Z</time>
      </trkpt>
      <trkpt lat="49.88241" lon="2.24263">
        <ele>36.7</ele>
        <time>2024-05-17T13:02:29Z</time>
      </trkpt>
      <trkpt lat="49.88242" lon="2.24266">
        <ele>36.6</ele>
        <time>2024-05-17T13:02:30Z</time>
      </trkpt>
      <trkpt lat="49.88242" lon="2.24268">
        <ele>36.5</ele>
        <time>2024-05-17T13:02:31Z</time>
      </trkpt>
      <trkpt lat="49.88243" lon="2.24271">
        <ele>36.4</ele>
        <time>2024-05-17T13:02:32Z</time>
      </trkpt>
      <trkpt lat="49.88243" lon="2.24272">
        <ele>36.3</ele>
        <time>2024-05-17T13:02:33Z</time>
      </trkpt>
      <trkpt lat="49.88243" lon="2.24275">
        <ele>36.2</ele>
        <time>2024-05-17T13:02:34Z</time>
      </trkpt>
      <trkpt lat="49.88243" lon="2.24277">
        <ele>36.2</ele>
        <time>2024-05-17T13:02:35Z</time>
      </trkpt>
      <trkpt lat="49.88243" lon="2.24278">
        <ele>36.1</ele>
        <time>2024-05-17T13:02:36Z</time>
      </trkpt>
      <trkpt lat="49.88243" lon="2.2428">
        <ele>36.1</ele>
        <time>2024-05-17T13:02:37Z</time>
      </trkpt>
      <trkpt lat="49.88244" lon="2.24282">
        <ele>36</ele>
        <time>2024-05-17T13:02:38Z</time>
      </trkpt>
      <trkpt lat="49.88244" lon="2.24282">
        <ele>36</ele>
        <time>2024-05-17T13:02:39Z</time>
      </trkpt>
      <trkpt lat="49.88244" lon="2.24283">
        <ele>36</ele>
        <time>2024-05-17T13:02:40Z</time>
      </trkpt>
      <trkpt lat="49.88244" lon="2.24284">
        <ele>35.9</ele>
        <time>2024-05-17T13:02:41Z</time>
      </trkpt>
      <trkpt lat="49.88245" lon="2.24285">
        <ele>35.9</ele>
        <time>2024-05-17T13:02:42Z</time>
      </trkpt>
      <trkpt lat="49.88245" lon="2.24287">
        <ele>35.8</ele>
        <time>2024-05-17T13:02:43Z</time>
      </trkpt>
      <trkpt lat="49.88245" lon="2.24288">
        <ele>35.8</ele>
        <time>2024-05-17T13:02:44Z</time>
      </trkpt>
      <trkpt lat="49.88246" lon="2.2429">
        <ele>35.7</ele>
        <time>2024-05-17T13:02:45Z</time>
      </trkpt>
      <trkpt lat="49.88246" lon="2.24292">
        <ele>35.7</ele>
        <time>2024-05-17T13:02:46Z</time>
      </trkpt>
      <trkpt lat="49.88246" lon="2.24293">
        <ele>35.6</ele>
        <time>2024-05-17T13:02:47Z</time>
      </trkpt>
      <trkpt lat="49.88247" lon="2.24295">
        <ele>35.5</ele>
        <time>2024-05-17T13:02:48Z</time>
      </trkpt>
      <trkpt lat="49.88247" lon="2.24297">
        <ele>35.5</ele>
        <time>2024-05-17T13:02:49Z</time>
      </trkpt>
      <trkpt lat="49.88247" lon="2.243">
        <ele>35.4</ele>
        <time>2024-05-17T13:02:50Z</time>
      </trkpt>
      <trkpt lat="49.88248" lon="2.24301">
        <ele>35.3</ele>
        <time>2024-05-17T13:02:51Z</time>
      </trkpt>
      <trkpt lat="49.88248" lon="2.24302">
        <ele>35.3</ele>
        <time>2024-05-17T13:02:52Z</time>
      </trkpt>
      <trkpt lat="49.88248" lon="2.24304">
        <ele>35.2</ele>
        <time>2024-05-17T13:02:53Z</time>
      </trkpt>
      <trkpt lat="49.88248" lon="2.24305">
        <ele>35.2</ele>
        <time>2024-05-17T13:02:54Z</time>
      </trkpt>
      <trkpt lat="49.88248" lon="2.24306">
        <ele>35.2</ele>
        <time>2024-05-17T13:02:55Z</time>
      </trkpt>
      <trkpt lat="49.88248" lon="2.24307">
        <ele>35.2</ele>
        <time>2024-05-17T13:02:56Z</time>
      </trkpt>
      <trkpt lat="49.88249" lon="2.24308">
        <ele>35.1</ele>
        <time>2024-05-17T13:02:57Z</time>
      </trkpt>
      <trkpt lat="49.88248" lon="2.24309">
        <ele>35.1</ele>
        <time>2024-05-17T13:02:58Z</time>
      </trkpt>
      <trkpt lat="49.88249" lon="2.2431">
        <ele>35.1</ele>
        <time>2024-05-17T13:02:59Z</time>
      </trkpt>
      <trkpt lat="49.88249" lon="2.24311">
        <ele>35</ele>
        <time>2024-05-17T13:03:00Z</time>
      </trkpt>
      <trkpt lat="49.88249" lon="2.24313">
        <ele>35</ele>
        <time>2024-05-17T13:03:01Z</time>
      </trkpt>
      <trkpt lat="49.88249" lon="2.24314">
        <ele>34.9</ele>
        <time>2024-05-17T13:03:02Z</time>
      </trkpt>
      <trkpt lat="49.8825" lon="2.24316">
        <ele>34.9</ele>
        <time>2024-05-17T13:03:03Z</time>
      </trkpt>
      <trkpt lat="49.8825" lon="2.24317">
        <ele>34.8</ele>
        <time>2024-05-17T13:03:04Z</time>
      </trkpt>
      <trkpt lat="49.88251" lon="2.24318">
        <ele>34.8</ele>
        <time>2024-05-17T13:03:05Z</time>
      </trkpt>
      <trkpt lat="49.88251" lon="2.24319">
        <ele>34.8</ele>
        <time>2024-05-17T13:03:06Z</time>
      </trkpt>
      <trkpt lat="49.88251" lon="2.24321">
        <ele>34.7</ele>
        <time>2024-05-17T13:03:07Z</time>
      </trkpt>
      <trkpt lat="49.88251" lon="2.24324">
        <ele>34.6</ele>
        <time>2024-05-17T13:03:08Z</time>
      </trkpt>
      <trkpt lat="49.88251" lon="2.24326">
        <ele>34.6</ele>
        <time>2024-05-17T13:03:09Z</time>
      </trkpt>
      <trkpt lat="49.88252" lon="2.24327">
        <ele>34.5</ele>
        <time>2024-05-17T13:03:10Z</time>
      </trkpt>
      <trkpt lat="49.88252" lon="2.2433">
        <ele>34.5</ele>
        <time>2024-05-17T13:03:11Z</time>
      </trkpt>
      <trkpt lat="49.88252" lon="2.24332">
        <ele>34.4</ele>
        <time>2024-05-17T13:03:12Z</time>
      </trkpt>
      <trkpt lat="49.88252" lon="2.24334">
        <ele>34.4</ele>
        <time>2024-05-17T13:03:13Z</time>
      </trkpt>
      <trkpt lat="49.88252" lon="2.24334">
        <ele>34.3</ele>
        <time>2024-05-17T13:03:14Z</time>
      </trkpt>
      <trkpt lat="49.88252" lon="2.24335">
        <ele>34.3</ele>
        <time>2024-05-17T13:03:15Z</time>
      </trkpt>
      <trkpt lat="49.88252" lon="2.24336">
        <ele>34.3</ele>
        <time>2024-05-17T13:03:16Z</time>
      </trkpt>
      <trkpt lat="49.88253" lon="2.24337">
        <ele>34.3</ele>
        <time>2024-05-17T13:03:17Z</time>
      </trkpt>
      <trkpt lat="49.88252" lon="2.24337">
        <ele>34.2</ele>
        <time>2024-05-17T13:03:18Z</time>
      </trkpt>
      <trkpt lat="49.88252" lon="2.24338">
        <ele>34.2</ele>
        <time>2024-05-17T13:03:19Z</time>
      </trkpt>
      <trkpt lat="49.88252" lon="2.2434">
        <ele>34.2</ele>
        <time>2024-05-17T13:03:20Z</time>
      </trkpt>
      <trkpt lat="49.88253" lon="2.24341">
        <ele>34.1</ele>
        <time>2024-05-17T13:03:21Z</time>
      </trkpt>
      <trkpt lat="49.88253" lon="2.24343">
        <ele>34.1</ele>
        <time>2024-05-17T13:03:22Z</time>
      </trkpt>
      <trkpt lat="49.88253" lon="2.24344">
        <ele>34</ele>
        <time>2024-05-17T13:03:23Z</time>
      </trkpt>
      <trkpt lat="49.88254" lon="2.24346">
        <ele>34</ele>
        <time>2024-05-17T13:03:24Z</time>
      </trkpt>
      <trkpt lat="49.88254" lon="2.24347">
        <ele>34</ele>
        <time>2024-05-17T13:03:25Z</time>
      </trkpt>
      <trkpt lat="49.88254" lon="2.24349">
        <ele>33.9</ele>
        <time>2024-05-17T13:03:26Z</time>
      </trkpt>
      <trkpt lat="49.88254" lon="2.24351">
        <ele>33.9</ele>
        <time>2024-05-17T13:03:27Z</time>
      </trkpt>
      <trkpt lat="49.88254" lon="2.24353">
        <ele>33.8</ele>
        <time>2024-05-17T13:03:28Z</time>
      </trkpt>
      <trkpt lat="49.88253" lon="2.24355">
        <ele>33.8</ele>
        <time>2024-05-17T13:03:29Z</time>
      </trkpt>
      <trkpt lat="49.88253" lon="2.24357">
        <ele>33.7</ele>
        <time>2024-05-17T13:03:30Z</time>
      </trkpt>
      <trkpt lat="49.88253" lon="2.24359">
        <ele>33.7</ele>
        <time>2024-05-17T13:03:31Z</time>
      </trkpt>
      <trkpt lat="49.88253" lon="2.24361">
        <ele>33.6</ele>
        <time>2024-05-17T13:03:32Z</time>
      </trkpt>
      <trkpt lat="49.88253" lon="2.24362">
        <ele>33.6</ele>
        <time>2024-05-17T13:03:33Z</time>
      </trkpt>
      <trkpt lat="49.88253" lon="2.24364">
        <ele>33.6</ele>
        <time>2024-05-17T13:03:34Z</time>
      </trkpt>
      <trkpt lat="49.88253" lon="2.24365">
        <ele>33.5</ele>
        <time>2024-05-17T13:03:35Z</time>
      </trkpt>
      <trkpt lat="49.88253" lon="2.24366">
        <ele>33.5</ele>
        <time>2024-05-17T13:03:36Z</time>
      </trkpt>
      <trkpt lat="49.88253" lon="2.24367">
        <ele>33.5</ele>
        <time>2024-05-17T13:03:37Z</time>
      </trkpt>
      <trkpt lat="49.88253" lon="2.24368">
        <ele>33.5</ele>
        <time>2024-05-17T13:03:38Z</time>
      </trkpt>
      <trkpt lat="49.88252" lon="2.24369">
        <ele>33.4</ele>
        <time>2024-05-17T13:03:39Z</time>
      </trkpt>
      <trkpt lat="49.88253" lon="2.2437">
        <ele>33.4</ele>
        <time>2024-05-17T13:03:40Z</time>
      </trkpt>
      <trkpt lat="49.88252" lon="2.24373">
        <ele>33.3</ele>
        <time>2024-05-17T13:03:41Z</time>
      </trkpt>
      <trkpt lat="49.88252" lon="2.24374">
        <ele>33.3</ele>
        <time>2024-05-17T13:03:42Z</time>
      </trkpt>
      <trkpt lat="49.88252" lon="2.24375">
        <ele>33.3</ele>
        <time>2024-05-17T13:03:43Z</time>
      </trkpt>
      <trkpt lat="49.88252" lon="2.24376">
        <ele>33.3</ele>
        <time>2024-05-17T13:03:44Z</time>
      </trkpt>
      <trkpt lat="49.88252" lon="2.24378">
        <ele>33.2</ele>
        <time>2024-05-17T13:03:45Z</time>
      </trkpt>
      <trkpt lat="49.88252" lon="2.24379">
        <ele>33.2</ele>
        <time>2024-05-17T13:03:46Z</time>
      </trkpt>
      <trkpt lat="49.88252" lon="2.24381">
        <ele>33.2</ele>
        <time>2024-05-17T13:03:47Z</time>
      </trkpt>
      <trkpt lat="49.88252" lon="2.24382">
        <ele>33.1</ele>
        <time>2024-05-17T13:03:48Z</time>
      </trkpt>
      <trkpt lat="49.88252" lon="2.24384">
        <ele>33.1</ele>
        <time>2024-05-17T13:03:49Z</time>
      </trkpt>
      <trkpt lat="49.88252" lon="2.24386">
        <ele>33</ele>
        <time>2024-05-17T13:03:50Z</time>
      </trkpt>
      <trkpt lat="49.88253" lon="2.24389">
        <ele>33</ele>
        <time>2024-05-17T13:03:51Z</time>
      </trkpt>
      <trkpt lat="49.88252" lon="2.2439">
        <ele>32.9</ele>
        <time>2024-05-17T13:03:52Z</time>
      </trkpt>
      <trkpt lat="49.88252" lon="2.24392">
        <ele>32.9</ele>
        <time>2024-05-17T13:03:53Z</time>
      </trkpt>
      <trkpt lat="49.88252" lon="2.24393">
        <ele>32.8</ele>
        <time>2024-05-17T13:03:54Z</time>
      </trkpt>
      <trkpt lat="49.88252" lon="2.24395">
        <ele>32.8</ele>
        <time>2024-05-17T13:03:55Z</time>
      </trkpt>
      <trkpt lat="49.88252" lon="2.24396">
        <ele>32.7</ele>
        <time>2024-05-17T13:03:56Z</time>
      </trkpt>
      <trkpt lat="49.88251" lon="2.24398">
        <ele>32.7</ele>
        <time>2024-05-17T13:03:57Z</time>
      </trkpt>
      <trkpt lat="49.88251" lon="2.244">
        <ele>32.7</ele>
        <time>2024-05-17T13:03:58Z</time>
      </trkpt>
      <trkpt lat="49.88251" lon="2.24401">
        <ele>32.6</ele>
        <time>2024-05-17T13:03:59Z</time>
      </trkpt>
      <trkpt lat="49.88251" lon="2.24404">
        <ele>32.5</ele>
        <time>2024-05-17T13:04:00Z</time>
      </trkpt>
      <trkpt lat="49.88251" lon="2.24405">
        <ele>32.5</ele>
        <time>2024-05-17T13:04:01Z</time>
      </trkpt>
      <trkpt lat="49.88251" lon="2.24406">
        <ele>32.5</ele>
        <time>2024-05-17T13:04:02Z</time>
      </trkpt>
      <trkpt lat="49.88252" lon="2.24407">
        <ele>32.4</ele>
        <time>2024-05-17T13:04:03Z</time>
      </trkpt>
      <trkpt lat="49.88251" lon="2.24407">
        <ele>32.4</ele>
        <time>2024-05-17T13:04:04Z</time>
      </trkpt>
      <trkpt lat="49.88251" lon="2.24408">
        <ele>32.4</ele>
        <time>2024-05-17T13:04:05Z</time>
      </trkpt>
      <trkpt lat="49.88251" lon="2.24409">
        <ele>32.4</ele>
        <time>2024-05-17T13:04:06Z</time>
      </trkpt>
      <trkpt lat="49.88252" lon="2.24411">
        <ele>32.3</ele>
        <time>2024-05-17T13:04:07Z</time>
      </trkpt>
      <trkpt lat="49.88251" lon="2.24412">
        <ele>32.3</ele>
        <time>2024-05-17T13:04:08Z</time>
      </trkpt>
      <trkpt lat="49.88252" lon="2.24414">
        <ele>32.2</ele>
        <time>2024-05-17T13:04:09Z</time>
      </trkpt>
      <trkpt lat="49.88252" lon="2.24416">
        <ele>32.2</ele>
        <time>2024-05-17T13:04:10Z</time>
      </trkpt>
      <trkpt lat="49.88251" lon="2.24417">
        <ele>32.2</ele>
        <time>2024-05-17T13:04:11Z</time>
      </trkpt>
      <trkpt lat="49.88251" lon="2.24418">
        <ele>32.1</ele>
        <time>2024-05-17T13:04:12Z</time>
      </trkpt>
      <trkpt lat="49.88251" lon="2.24419">
        <ele>32.1</ele>
        <time>2024-05-17T13:04:13Z</time>
      </trkpt>
      <trkpt lat="49.8825" lon="2.2442">
        <ele>32.1</ele>
        <time>2024-05-17T13:04:14Z</time>
      </trkpt>
      <trkpt lat="49.8825" lon="2.24421">
        <ele>32.1</ele>
        <time>2024-05-17T13:04:15Z</time>
      </trkpt>
      <trkpt lat="49.88249" lon="2.24422">
        <ele>32.1</ele>
        <time>2024-05-17T13:04:16Z</time>
      </trkpt>
      <trkpt lat="49.88248" lon="2.24423">
        <ele>32.1</ele>
        <time>2024-05-17T13:04:17Z</time>
      </trkpt>
      <trkpt lat="49.88248" lon="2.24424">
        <ele>32.2</ele>
        <time>2024-05-17T13:04:18Z</time>
      </trkpt>
      <trkpt lat="49.88247" lon="2.24423">
        <ele>32.2</ele>
        <time>2024-05-17T13:04:19Z</time>
      </trkpt>
      <trkpt lat="49.88247" lon="2.24424">
        <ele>32.2</ele>
        <time>2024-05-17T13:04:20Z</time>
      </trkpt>
      <trkpt lat="49.88246" lon="2.24424">
        <ele>32.2</ele>
        <time>2024-05-17T13:04:21Z</time>
      </trkpt>
      <trkpt lat="49.88244" lon="2.24422">
        <ele>32.2</ele>
        <time>2024-05-17T13:04:22Z</time>
      </trkpt>
      <trkpt lat="49.88243" lon="2.24421">
        <ele>32.2</ele>
        <time>2024-05-17T13:04:23Z</time>
      </trkpt>
      <trkpt lat="49.88243" lon="2.24419">
        <ele>32.2</ele>
        <time>2024-05-17T13:04:24Z</time>
      </trkpt>
      <trkpt lat="49.88242" lon="2.24414">
        <ele>32.3</ele>
        <time>2024-05-17T13:04:25Z</time>
      </trkpt>
      <trkpt lat="49.88242" lon="2.24412">
        <ele>32.3</ele>
        <time>2024-05-17T13:04:26Z</time>
      </trkpt>
      <trkpt lat="49.88241" lon="2.24409">
        <ele>32.3</ele>
        <time>2024-05-17T13:04:27Z</time>
      </trkpt>
      <trkpt lat="49.88241" lon="2.24408">
        <ele>32.3</ele>
        <time>2024-05-17T13:04:28Z</time>
      </trkpt>
      <trkpt lat="49.8824" lon="2.24406">
        <ele>32.3</ele>
        <time>2024-05-17T13:04:29Z</time>
      </trkpt>
      <trkpt lat="49.88239" lon="2.24406">
        <ele>32.3</ele>
        <time>2024-05-17T13:04:30Z</time>
      </trkpt>
      <trkpt lat="49.88239" lon="2.24405">
        <ele>32.4</ele>
        <time>2024-05-17T13:04:31Z</time>
      </trkpt>
      <trkpt lat="49.88238" lon="2.24404">
        <ele>32.4</ele>
        <time>2024-05-17T13:04:32Z</time>
      </trkpt>
      <trkpt lat="49.88237" lon="2.24403">
        <ele>32.4</ele>
        <time>2024-05-17T13:04:33Z</time>
      </trkpt>
      <trkpt lat="49.88236" lon="2.24402">
        <ele>32.4</ele>
        <time>2024-05-17T13:04:34Z</time>
      </trkpt>
      <trkpt lat="49.88235" lon="2.24401">
        <ele>32.4</ele>
        <time>2024-05-17T13:04:35Z</time>
      </trkpt>
      <trkpt lat="49.88235" lon="2.24399">
        <ele>32.4</ele>
        <time>2024-05-17T13:04:36Z</time>
      </trkpt>
      <trkpt lat="49.88234" lon="2.24398">
        <ele>32.4</ele>
        <time>2024-05-17T13:04:37Z</time>
      </trkpt>
      <trkpt lat="49.88234" lon="2.24397">
        <ele>32.4</ele>
        <time>2024-05-17T13:04:38Z</time>
      </trkpt>
      <trkpt lat="49.88233" lon="2.24396">
        <ele>32.4</ele>
        <time>2024-05-17T13:04:39Z</time>
      </trkpt>
      <trkpt lat="49.88232" lon="2.24396">
        <ele>32.5</ele>
        <time>2024-05-17T13:04:40Z</time>
      </trkpt>
      <trkpt lat="49.88231" lon="2.24395">
        <ele>32.5</ele>
        <time>2024-05-17T13:04:41Z</time>
      </trkpt>
      <trkpt lat="49.8823" lon="2.24394">
        <ele>32.5</ele>
        <time>2024-05-17T13:04:42Z</time>
      </trkpt>
      <trkpt lat="49.88229" lon="2.24393">
        <ele>32.5</ele>
        <time>2024-05-17T13:04:43Z</time>
      </trkpt>
      <trkpt lat="49.88228" lon="2.24393">
        <ele>32.5</ele>
        <time>2024-05-17T13:04:44Z</time>
      </trkpt>
      <trkpt lat="49.88227" lon="2.24393">
        <ele>32.5</ele>
        <time>2024-05-17T13:04:45Z</time>
      </trkpt>
      <trkpt lat="49.88226" lon="2.24393">
        <ele>32.5</ele>
        <time>2024-05-17T13:04:46Z</time>
      </trkpt>
      <trkpt lat="49.88225" lon="2.24392">
        <ele>32.6</ele>
        <time>2024-05-17T13:04:47Z</time>
      </trkpt>
      <trkpt lat="49.88224" lon="2.24392">
        <ele>32.6</ele>
        <time>2024-05-17T13:04:48Z</time>
      </trkpt>
      <trkpt lat="49.88223" lon="2.24391">
        <ele>32.6</ele>
        <time>2024-05-17T13:04:49Z</time>
      </trkpt>
      <trkpt lat="49.88222" lon="2.24391">
        <ele>32.6</ele>
        <time>2024-05-17T13:04:50Z</time>
      </trkpt>
      <trkpt lat="49.88221" lon="2.24391">
        <ele>32.6</ele>
        <time>2024-05-17T13:04:51Z</time>
      </trkpt>
      <trkpt lat="49.8822" lon="2.24391">
        <ele>32.6</ele>
        <time>2024-05-17T13:04:52Z</time>
      </trkpt>
      <trkpt lat="49.88218" lon="2.2439">
        <ele>32.7</ele>
        <time>2024-05-17T13:04:53Z</time>
      </trkpt>
      <trkpt lat="49.88217" lon="2.24391">
        <ele>32.7</ele>
        <time>2024-05-17T13:04:54Z</time>
      </trkpt>
      <trkpt lat="49.88216" lon="2.24391">
        <ele>32.7</ele>
        <time>2024-05-17T13:04:55Z</time>
      </trkpt>
      <trkpt lat="49.88215" lon="2.24391">
        <ele>32.7</ele>
        <time>2024-05-17T13:04:56Z</time>
      </trkpt>
      <trkpt lat="49.88214" lon="2.24391">
        <ele>32.7</ele>
        <time>2024-05-17T13:04:57Z</time>
      </trkpt>
      <trkpt lat="49.88213" lon="2.2439">
        <ele>32.7</ele>
        <time>2024-05-17T13:04:58Z</time>
      </trkpt>
      <trkpt lat="49.88211" lon="2.24389">
        <ele>32.7</ele>
        <time>2024-05-17T13:04:59Z</time>
      </trkpt>
      <trkpt lat="49.8821" lon="2.2439">
        <ele>32.8</ele>
        <time>2024-05-17T13:05:00Z</time>
      </trkpt>
      <trkpt lat="49.88209" lon="2.24389">
        <ele>32.8</ele>
        <time>2024-05-17T13:05:01Z</time>
      </trkpt>
      <trkpt lat="49.88208" lon="2.2439">
        <ele>32.8</ele>
        <time>2024-05-17T13:05:02Z</time>
      </trkpt>
      <trkpt lat="49.88207" lon="2.2439">
        <ele>32.8</ele>
        <time>2024-05-17T13:05:03Z</time>
      </trkpt>
      <trkpt lat="49.88205" lon="2.24391">
        <ele>32.8</ele>
        <time>2024-05-17T13:05:04Z</time>
      </trkpt>
      <trkpt lat="49.88205" lon="2.24391">
        <ele>32.8</ele>
        <time>2024-05-17T13:05:05Z</time>
      </trkpt>
      <trkpt lat="49.88204" lon="2.24392">
        <ele>32.8</ele>
        <time>2024-05-17T13:05:06Z</time>
      </trkpt>
      <trkpt lat="49.88202" lon="2.24392">
        <ele>32.9</ele>
        <time>2024-05-17T13:05:07Z</time>
      </trkpt>
      <trkpt lat="49.88201" lon="2.24392">
        <ele>32.9</ele>
        <time>2024-05-17T13:05:08Z</time>
      </trkpt>
      <trkpt lat="49.882" lon="2.24392">
        <ele>32.9</ele>
        <time>2024-05-17T13:05:09Z</time>
      </trkpt>
      <trkpt lat="49.882" lon="2.24392">
        <ele>32.9</ele>
        <time>2024-05-17T13:05:10Z</time>
      </trkpt>
      <trkpt lat="49.88199" lon="2.24393">
        <ele>32.9</ele>
        <time>2024-05-17T13:05:11Z</time>
      </trkpt>
      <trkpt lat="49.88199" lon="2.24393">
        <ele>32.9</ele>
        <time>2024-05-17T13:05:12Z</time>
      </trkpt>
      <trkpt lat="49.88198" lon="2.24393">
        <ele>32.9</ele>
        <time>2024-05-17T13:05:13Z</time>
      </trkpt>
      <trkpt lat="49.88197" lon="2.24393">
        <ele>32.9</ele>
        <time>2024-05-17T13:05:14Z</time>
      </trkpt>
      <trkpt lat="49.88196" lon="2.24393">
        <ele>32.9</ele>
        <time>2024-05-17T13:05:15Z</time>
      </trkpt>
      <trkpt lat="49.88195" lon="2.24392">
        <ele>33</ele>
        <time>2024-05-17T13:05:16Z</time>
      </trkpt>
      <trkpt lat="49.88194" lon="2.24392">
        <ele>33</ele>
        <time>2024-05-17T13:05:17Z</time>
      </trkpt>
      <trkpt lat="49.88193" lon="2.24392">
        <ele>33</ele>
        <time>2024-05-17T13:05:18Z</time>
      </trkpt>
      <trkpt lat="49.88192" lon="2.24392">
        <ele>33</ele>
        <time>2024-05-17T13:05:19Z</time>
      </trkpt>
      <trkpt lat="49.88192" lon="2.24391">
        <ele>33</ele>
        <time>2024-05-17T13:05:20Z</time>
      </trkpt>
      <trkpt lat="49.88191" lon="2.24391">
        <ele>33</ele>
        <time>2024-05-17T13:05:21Z</time>
      </trkpt>
      <trkpt lat="49.8819" lon="2.24391">
        <ele>33</ele>
        <time>2024-05-17T13:05:22Z</time>
      </trkpt>
      <trkpt lat="49.8819" lon="2.24391">
        <ele>33</ele>
        <time>2024-05-17T13:05:23Z</time>
      </trkpt>
      <trkpt lat="49.88189" lon="2.2439">
        <ele>33</ele>
        <time>2024-05-17T13:05:24Z</time>
      </trkpt>
      <trkpt lat="49.88189" lon="2.2439">
        <ele>33</ele>
        <time>2024-05-17T13:05:25Z</time>
      </trkpt>
      <trkpt lat="49.88189" lon="2.24389">
        <ele>33</ele>
        <time>2024-05-17T13:05:26Z</time>
      </trkpt>
      <trkpt lat="49.88188" lon="2.24389">
        <ele>33</ele>
        <time>2024-05-17T13:05:27Z</time>
      </trkpt>
      <trkpt lat="49.88187" lon="2.24388">
        <ele>33.1</ele>
        <time>2024-05-17T13:05:28Z</time>
      </trkpt>
      <trkpt lat="49.88186" lon="2.24388">
        <ele>33.1</ele>
        <time>2024-05-17T13:05:29Z</time>
      </trkpt>
      <trkpt lat="49.88185" lon="2.24387">
        <ele>33.1</ele>
        <time>2024-05-17T13:05:30Z</time>
      </trkpt>
      <trkpt lat="49.88183" lon="2.24387">
        <ele>33.1</ele>
        <time>2024-05-17T13:05:31Z</time>
      </trkpt>
      <trkpt lat="49.88182" lon="2.24386">
        <ele>33.1</ele>
        <time>2024-05-17T13:05:32Z</time>
      </trkpt>
      <trkpt lat="49.88181" lon="2.24386">
        <ele>33.1</ele>
        <time>2024-05-17T13:05:33Z</time>
      </trkpt>
      <trkpt lat="49.8818" lon="2.24386">
        <ele>33.1</ele>
        <time>2024-05-17T13:05:34Z</time>
      </trkpt>
      <trkpt lat="49.88179" lon="2.24385">
        <ele>33.1</ele>
        <time>2024-05-17T13:05:35Z</time>
      </trkpt>
      <trkpt lat="49.88178" lon="2.24383">
        <ele>33.1</ele>
        <time>2024-05-17T13:05:36Z</time>
      </trkpt>
      <trkpt lat="49.88177" lon="2.24381">
        <ele>33.2</ele>
        <time>2024-05-17T13:05:37Z</time>
      </trkpt>
      <trkpt lat="49.88176" lon="2.24381">
        <ele>33.2</ele>
        <time>2024-05-17T13:05:38Z</time>
      </trkpt>
      <trkpt lat="49.88175" lon="2.24381">
        <ele>33.2</ele>
        <time>2024-05-17T13:05:39Z</time>
      </trkpt>
      <trkpt lat="49.88174" lon="2.24381">
        <ele>33.2</ele>
        <time>2024-05-17T13:05:40Z</time>
      </trkpt>
      <trkpt lat="49.88173" lon="2.24382">
        <ele>33.2</ele>
        <time>2024-05-17T13:05:41Z</time>
      </trkpt>
      <trkpt lat="49.88171" lon="2.24381">
        <ele>33.2</ele>
        <time>2024-05-17T13:05:42Z</time>
      </trkpt>
      <trkpt lat="49.8817" lon="2.24381">
        <ele>33.2</ele>
        <time>2024-05-17T13:05:43Z</time>
      </trkpt>
      <trkpt lat="49.88169" lon="2.24381">
        <ele>33.2</ele>
        <time>2024-05-17T13:05:44Z</time>
      </trkpt>
      <trkpt lat="49.88167" lon="2.2438">
        <ele>33.2</ele>
        <time>2024-05-17T13:05:46Z</time>
      </trkpt>
      <trkpt lat="49.88166" lon="2.2438">
        <ele>33.2</ele>
        <time>2024-05-17T13:05:47Z</time>
      </trkpt>
      <trkpt lat="49.88165" lon="2.24379">
        <ele>33.2</ele>
        <time>2024-05-17T13:05:48Z</time>
      </trkpt>
      <trkpt lat="49.88163" lon="2.24379">
        <ele>33.3</ele>
        <time>2024-05-17T13:05:49Z</time>
      </trkpt>
      <trkpt lat="49.88162" lon="2.24379">
        <ele>33.3</ele>
        <time>2024-05-17T13:05:50Z</time>
      </trkpt>
      <trkpt lat="49.88161" lon="2.24379">
        <ele>33.3</ele>
        <time>2024-05-17T13:05:51Z</time>
      </trkpt>
      <trkpt lat="49.8816" lon="2.24379">
        <ele>33.3</ele>
        <time>2024-05-17T13:05:52Z</time>
      </trkpt>
      <trkpt lat="49.88038" lon="2.24558">
        <ele>26.6</ele>
        <time>2024-05-17T13:12:11Z</time>
      </trkpt>
      <trkpt lat="49.88044" lon="2.24544">
        <ele>26.6</ele>
        <time>2024-05-17T13:12:12Z</time>
      </trkpt>
      <trkpt lat="49.88045" lon="2.24542">
        <ele>26.6</ele>
        <time>2024-05-17T13:12:13Z</time>
      </trkpt>
      <trkpt lat="49.88045" lon="2.24541">
        <ele>26.6</ele>
        <time>2024-05-17T13:12:15Z</time>
      </trkpt>
      <trkpt lat="49.88045" lon="2.2454">
        <ele>26.6</ele>
        <time>2024-05-17T13:12:16Z</time>
      </trkpt>
      <trkpt lat="49.88045" lon="2.2454">
        <ele>26.6</ele>
        <time>2024-05-17T13:12:17Z</time>
      </trkpt>
      <trkpt lat="49.88046" lon="2.2454">
        <ele>26.6</ele>
        <time>2024-05-17T13:12:18Z</time>
      </trkpt>
      <trkpt lat="49.88046" lon="2.2454">
        <ele>26.6</ele>
        <time>2024-05-17T13:12:19Z</time>
      </trkpt>
      <trkpt lat="49.88046" lon="2.24539">
        <ele>26.6</ele>
        <time>2024-05-17T13:12:20Z</time>
      </trkpt>
      <trkpt lat="49.88046" lon="2.24539">
        <ele>26.6</ele>
        <time>2024-05-17T13:12:21Z</time>
      </trkpt>
      <trkpt lat="49.88046" lon="2.24539">
        <ele>26.6</ele>
        <time>2024-05-17T13:12:22Z</time>
      </trkpt>
      <trkpt lat="49.88046" lon="2.24539">
        <ele>26.6</ele>
        <time>2024-05-17T13:12:23Z</time>
      </trkpt>
      <trkpt lat="49.88046" lon="2.24539">
        <ele>26.6</ele>
        <time>2024-05-17T13:12:24Z</time>
      </trkpt>
      <trkpt lat="49.88046" lon="2.24539">
        <ele>26.6</ele>
        <time>2024-05-17T13:12:25Z</time>
      </trkpt>
      <trkpt lat="49.88046" lon="2.24539">
        <ele>26.6</ele>
        <time>2024-05-17T13:12:26Z</time>
      </trkpt>
      <trkpt lat="49.88046" lon="2.24539">
        <ele>26.6</ele>
        <time>2024-05-17T13:12:27Z</time>
      </trkpt>
      <trkpt lat="49.88046" lon="2.24539">
        <ele>26.6</ele>
        <time>2024-05-17T13:12:28Z</time>
      </trkpt>
      <trkpt lat="49.88046" lon="2.24539">
        <ele>26.6</ele>
        <time>2024-05-17T13:12:29Z</time>
      </trkpt>
      <trkpt lat="49.88046" lon="2.24539">
        <ele>26.6</ele>
        <time>2024-05-17T13:12:30Z</time>
      </trkpt>
      <trkpt lat="49.88046" lon="2.24539">
        <ele>26.6</ele>
        <time>2024-05-17T13:12:31Z</time>
      </trkpt>
      <trkpt lat="49.88046" lon="2.24539">
        <ele>26.6</ele>
        <time>2024-05-17T13:12:32Z</time>
      </trkpt>
      <trkpt lat="49.88046" lon="2.24539">
        <ele>26.6</ele>
        <time>2024-05-17T13:12:33Z</time>
      </trkpt>
      <trkpt lat="49.88046" lon="2.24539">
        <ele>26.6</ele>
        <time>2024-05-17T13:12:34Z</time>
      </trkpt>
      <trkpt lat="49.88046" lon="2.24539">
        <ele>26.6</ele>
        <time>2024-05-17T13:12:35Z</time>
      </trkpt>
      <trkpt lat="49.88046" lon="2.24539">
        <ele>26.6</ele>
        <time>2024-05-17T13:12:36Z</time>
      </trkpt>
      <trkpt lat="49.88046" lon="2.24539">
        <ele>26.6</ele>
        <time>2024-05-17T13:12:37Z</time>
      </trkpt>
      <trkpt lat="49.88046" lon="2.24539">
        <ele>26.6</ele>
        <time>2024-05-17T13:12:38Z</time>
      </trkpt>
      <trkpt lat="49.88046" lon="2.24539">
        <ele>26.6</ele>
        <time>2024-05-17T13:12:39Z</time>
      </trkpt>
      <trkpt lat="49.88046" lon="2.24539">
        <ele>26.6</ele>
        <time>2024-05-17T13:12:40Z</time>
      </trkpt>
      <trkpt lat="49.88046" lon="2.24539">
        <ele>26.6</ele>
        <time>2024-05-17T13:12:42Z</time>
      </trkpt>
      <trkpt lat="49.88046" lon="2.24539">
        <ele>26.6</ele>
        <time>2024-05-17T13:12:43Z</time>
      </trkpt>
      <trkpt lat="49.88046" lon="2.24539">
        <ele>26.6</ele>
        <time>2024-05-17T13:12:44Z</time>
      </trkpt>
      <trkpt lat="49.88046" lon="2.24539">
        <ele>26.6</ele>
        <time>2024-05-17T13:12:45Z</time>
      </trkpt>
      <trkpt lat="49.88046" lon="2.24539">
        <ele>26.6</ele>
        <time>2024-05-17T13:12:46Z</time>
      </trkpt>
      <trkpt lat="49.88046" lon="2.24539">
        <ele>26.6</ele>
        <time>2024-05-17T13:12:47Z</time>
      </trkpt>
      <trkpt lat="49.88046" lon="2.24539">
        <ele>26.6</ele>
        <time>2024-05-17T13:12:48Z</time>
      </trkpt>
      <trkpt lat="49.88046" lon="2.24539">
        <ele>26.6</ele>
        <time>2024-05-17T13:12:49Z</time>
      </trkpt>
      <trkpt lat="49.88046" lon="2.24539">
        <ele>26.6</ele>
        <time>2024-05-17T13:12:50Z</time>
      </trkpt>
      <trkpt lat="49.88046" lon="2.24539">
        <ele>26.6</ele>
        <time>2024-05-17T13:12:51Z</time>
      </trkpt>
      <trkpt lat="49.88046" lon="2.24539">
        <ele>26.6</ele>
        <time>2024-05-17T13:12:52Z</time>
      </trkpt>
      <trkpt lat="49.88046" lon="2.24539">
        <ele>26.6</ele>
        <time>2024-05-17T13:12:53Z</time>
      </trkpt>
      <trkpt lat="49.88046" lon="2.24539">
        <ele>26.6</ele>
        <time>2024-05-17T13:12:54Z</time>
      </trkpt>
      <trkpt lat="49.88046" lon="2.24539">
        <ele>26.6</ele>
        <time>2024-05-17T13:12:55Z</time>
      </trkpt>
      <trkpt lat="49.88046" lon="2.24539">
        <ele>26.6</ele>
        <time>2024-05-17T13:12:56Z</time>
      </trkpt>
      <trkpt lat="49.88046" lon="2.24539">
        <ele>26.6</ele>
        <time>2024-05-17T13:12:57Z</time>
      </trkpt>
      <trkpt lat="49.88046" lon="2.24539">
        <ele>26.6</ele>
        <time>2024-05-17T13:12:58Z</time>
      </trkpt>
      <trkpt lat="49.88046" lon="2.24539">
        <ele>26.6</ele>
        <time>2024-05-17T13:12:59Z</time>
      </trkpt>
      <trkpt lat="49.88046" lon="2.24539">
        <ele>26.6</ele>
        <time>2024-05-17T13:13:00Z</time>
      </trkpt>
      <trkpt lat="49.88046" lon="2.24539">
        <ele>26.6</ele>
        <time>2024-05-17T13:13:01Z</time>
      </trkpt>
      <trkpt lat="49.88046" lon="2.24539">
        <ele>26.6</ele>
        <time>2024-05-17T13:13:02Z</time>
      </trkpt>
      <trkpt lat="49.88046" lon="2.24539">
        <ele>26.6</ele>
        <time>2024-05-17T13:13:03Z</time>
      </trkpt>
      <trkpt lat="49.88046" lon="2.24539">
        <ele>26.6</ele>
        <time>2024-05-17T13:13:04Z</time>
      </trkpt>
      <trkpt lat="49.88046" lon="2.24539">
        <ele>26.6</ele>
        <time>2024-05-17T13:13:05Z</time>
      </trkpt>
      <trkpt lat="49.88046" lon="2.24539">
        <ele>26.6</ele>
        <time>2024-05-17T13:13:06Z</time>
      </trkpt>
      <trkpt lat="49.88046" lon="2.24539">
        <ele>26.6</ele>
        <time>2024-05-17T13:13:07Z</time>
      </trkpt>
      <trkpt lat="49.88046" lon="2.24539">
        <ele>26.6</ele>
        <time>2024-05-17T13:13:08Z</time>
      </trkpt>
      <trkpt lat="49.88046" lon="2.24539">
        <ele>26.6</ele>
        <time>2024-05-17T13:13:09Z</time>
      </trkpt>
      <trkpt lat="49.88046" lon="2.24539">
        <ele>26.6</ele>
        <time>2024-05-17T13:13:10Z</time>
      </trkpt>
      <trkpt lat="49.88046" lon="2.24539">
        <ele>26.6</ele>
        <time>2024-05-17T13:13:11Z</time>
      </trkpt>
      <trkpt lat="49.88046" lon="2.24539">
        <ele>26.6</ele>
        <time>2024-05-17T13:13:12Z</time>
      </trkpt>
      <trkpt lat="49.88046" lon="2.24539">
        <ele>26.6</ele>
        <time>2024-05-17T13:13:13Z</time>
      </trkpt>
      <trkpt lat="49.88046" lon="2.24539">
        <ele>26.6</ele>
        <time>2024-05-17T13:13:14Z</time>
      </trkpt>
      <trkpt lat="49.88046" lon="2.24539">
        <ele>26.6</ele>
        <time>2024-05-17T13:13:15Z</time>
      </trkpt>
      <trkpt lat="49.88046" lon="2.24539">
        <ele>26.6</ele>
        <time>2024-05-17T13:13:16Z</time>
      </trkpt>
      <trkpt lat="49.88046" lon="2.24539">
        <ele>26.6</ele>
        <time>2024-05-17T13:13:17Z</time>
      </trkpt>
      <trkpt lat="49.88046" lon="2.24539">
        <ele>26.6</ele>
        <time>2024-05-17T13:13:18Z</time>
      </trkpt>
      <trkpt lat="49.88046" lon="2.24539">
        <ele>26.6</ele>
        <time>2024-05-17T13:13:19Z</time>
      </trkpt>
      <trkpt lat="49.88046" lon="2.24539">
        <ele>26.6</ele>
        <time>2024-05-17T13:13:20Z</time>
      </trkpt>
      <trkpt lat="49.88046" lon="2.24539">
        <ele>26.6</ele>
        <time>2024-05-17T13:13:21Z</time>
      </trkpt>
      <trkpt lat="49.88046" lon="2.24539">
        <ele>26.6</ele>
        <time>2024-05-17T13:13:22Z</time>
      </trkpt>
      <trkpt lat="49.88046" lon="2.24539">
        <ele>26.6</ele>
        <time>2024-05-17T13:13:23Z</time>
      </trkpt>
      <trkpt lat="49.88046" lon="2.24539">
        <ele>26.6</ele>
        <time>2024-05-17T13:13:24Z</time>
      </trkpt>
      <trkpt lat="49.88046" lon="2.24539">
        <ele>26.6</ele>
        <time>2024-05-17T13:13:25Z</time>
      </trkpt>
      <trkpt lat="49.88046" lon="2.24539">
        <ele>26.6</ele>
        <time>2024-05-17T13:13:26Z</time>
      </trkpt>
      <trkpt lat="49.88046" lon="2.24539">
        <ele>26.6</ele>
        <time>2024-05-17T13:13:27Z</time>
      </trkpt>
      <trkpt lat="49.88046" lon="2.24539">
        <ele>26.6</ele>
        <time>2024-05-17T13:13:28Z</time>
      </trkpt>
      <trkpt lat="49.88046" lon="2.24539">
        <ele>26.6</ele>
        <time>2024-05-17T13:13:29Z</time>
      </trkpt>
      <trkpt lat="49.88046" lon="2.24539">
        <ele>26.6</ele>
        <time>2024-05-17T13:13:30Z</time>
      </trkpt>
      <trkpt lat="49.88046" lon="2.24539">
        <ele>26.6</ele>
        <time>2024-05-17T13:13:31Z</time>
      </trkpt>
      <trkpt lat="49.88046" lon="2.24539">
        <ele>26.6</ele>
        <time>2024-05-17T13:13:32Z</time>
      </trkpt>
      <trkpt lat="49.88046" lon="2.24539">
        <ele>26.6</ele>
        <time>2024-05-17T13:13:33Z</time>
      </trkpt>
      <trkpt lat="49.88047" lon="2.24539">
        <ele>26.6</ele>
        <time>2024-05-17T13:13:34Z</time>
      </trkpt>
      <trkpt lat="49.88047" lon="2.2454">
        <ele>26.6</ele>
        <time>2024-05-17T13:13:35Z</time>
      </trkpt>
      <trkpt lat="49.88047" lon="2.2454">
        <ele>26.6</ele>
        <time>2024-05-17T13:13:36Z</time>
      </trkpt>
      <trkpt lat="49.88047" lon="2.2454">
        <ele>26.6</ele>
        <time>2024-05-17T13:13:37Z</time>
      </trkpt>
      <trkpt lat="49.88047" lon="2.2454">
        <ele>26.6</ele>
        <time>2024-05-17T13:13:38Z</time>
      </trkpt>
      <trkpt lat="49.88047" lon="2.2454">
        <ele>26.6</ele>
        <time>2024-05-17T13:13:39Z</time>
      </trkpt>
      <trkpt lat="49.88046" lon="2.2454">
        <ele>26.6</ele>
        <time>2024-05-17T13:13:40Z</time>
      </trkpt>
      <trkpt lat="49.88046" lon="2.2454">
        <ele>26.6</ele>
        <time>2024-05-17T13:13:41Z</time>
      </trkpt>
      <trkpt lat="49.88046" lon="2.2454">
        <ele>26.6</ele>
        <time>2024-05-17T13:13:42Z</time>
      </trkpt>
      <trkpt lat="49.88046" lon="2.24541">
        <ele>26.6</ele>
        <time>2024-05-17T13:13:43Z</time>
      </trkpt>
      <trkpt lat="49.88046" lon="2.24541">
        <ele>26.6</ele>
        <time>2024-05-17T13:13:44Z</time>
      </trkpt>
      <trkpt lat="49.88045" lon="2.24541">
        <ele>26.6</ele>
        <time>2024-05-17T13:13:45Z</time>
      </trkpt>
      <trkpt lat="49.88045" lon="2.24541">
        <ele>26.6</ele>
        <time>2024-05-17T13:13:46Z</time>
      </trkpt>
      <trkpt lat="49.88045" lon="2.24541">
        <ele>26.6</ele>
        <time>2024-05-17T13:13:47Z</time>
      </trkpt>
      <trkpt lat="49.88045" lon="2.24541">
        <ele>26.6</ele>
        <time>2024-05-17T13:13:48Z</time>
      </trkpt>
      <trkpt lat="49.88045" lon="2.24541">
        <ele>26.6</ele>
        <time>2024-05-17T13:13:49Z</time>
      </trkpt>
      <trkpt lat="49.88045" lon="2.24541">
        <ele>26.6</ele>
        <time>2024-05-17T13:13:50Z</time>
      </trkpt>
      <trkpt lat="49.88044" lon="2.24541">
        <ele>26.6</ele>
        <time>2024-05-17T13:13:51Z</time>
      </trkpt>
      <trkpt lat="49.88044" lon="2.24541">
        <ele>26.6</ele>
        <time>2024-05-17T13:13:52Z</time>
      </trkpt>
      <trkpt lat="49.88044" lon="2.24542">
        <ele>26.6</ele>
        <time>2024-05-17T13:13:53Z</time>
      </trkpt>
      <trkpt lat="49.88044" lon="2.24542">
        <ele>26.6</ele>
        <time>2024-05-17T13:13:54Z</time>
      </trkpt>
      <trkpt lat="49.88044" lon="2.24542">
        <ele>26.6</ele>
        <time>2024-05-17T13:13:55Z</time>
      </trkpt>
      <trkpt lat="49.88044" lon="2.24542">
        <ele>26.6</ele>
        <time>2024-05-17T13:13:56Z</time>
      </trkpt>
      <trkpt lat="49.88044" lon="2.24542">
        <ele>26.6</ele>
        <time>2024-05-17T13:13:57Z</time>
      </trkpt>
      <trkpt lat="49.88044" lon="2.24542">
        <ele>26.6</ele>
        <time>2024-05-17T13:13:58Z</time>
      </trkpt>
      <trkpt lat="49.88044" lon="2.24542">
        <ele>26.6</ele>
        <time>2024-05-17T13:13:59Z</time>
      </trkpt>
      <trkpt lat="49.88044" lon="2.24542">
        <ele>26.6</ele>
        <time>2024-05-17T13:14:00Z</time>
      </trkpt>
      <trkpt lat="49.88044" lon="2.24542">
        <ele>26.6</ele>
        <time>2024-05-17T13:14:01Z</time>
      </trkpt>
      <trkpt lat="49.88044" lon="2.24542">
        <ele>26.6</ele>
        <time>2024-05-17T13:14:02Z</time>
      </trkpt>
      <trkpt lat="49.88044" lon="2.24542">
        <ele>26.6</ele>
        <time>2024-05-17T13:14:03Z</time>
      </trkpt>
      <trkpt lat="49.88044" lon="2.24542">
        <ele>26.6</ele>
        <time>2024-05-17T13:14:04Z</time>
      </trkpt>
      <trkpt lat="49.88044" lon="2.24542">
        <ele>26.6</ele>
        <time>2024-05-17T13:14:05Z</time>
      </trkpt>
      <trkpt lat="49.88044" lon="2.24542">
        <ele>26.6</ele>
        <time>2024-05-17T13:14:06Z</time>
      </trkpt>
      <trkpt lat="49.88044" lon="2.24542">
        <ele>26.6</ele>
        <time>2024-05-17T13:14:07Z</time>
      </trkpt>
      <trkpt lat="49.88044" lon="2.24542">
        <ele>26.6</ele>
        <time>2024-05-17T13:14:08Z</time>
      </trkpt>
      <trkpt lat="49.88044" lon="2.24542">
        <ele>26.6</ele>
        <time>2024-05-17T13:14:09Z</time>
      </trkpt>
      <trkpt lat="49.88044" lon="2.24542">
        <ele>26.6</ele>
        <time>2024-05-17T13:14:10Z</time>
      </trkpt>
      <trkpt lat="49.88044" lon="2.24542">
        <ele>26.6</ele>
        <time>2024-05-17T13:14:11Z</time>
      </trkpt>
      <trkpt lat="49.88044" lon="2.24542">
        <ele>26.6</ele>
        <time>2024-05-17T13:14:12Z</time>
      </trkpt>
      <trkpt lat="49.88044" lon="2.24542">
        <ele>26.6</ele>
        <time>2024-05-17T13:14:13Z</time>
      </trkpt>
      <trkpt lat="49.88044" lon="2.24542">
        <ele>26.6</ele>
        <time>2024-05-17T13:14:14Z</time>
      </trkpt>
      <trkpt lat="49.88044" lon="2.24542">
        <ele>26.6</ele>
        <time>2024-05-17T13:14:15Z</time>
      </trkpt>
      <trkpt lat="49.88044" lon="2.24542">
        <ele>26.6</ele>
        <time>2024-05-17T13:14:16Z</time>
      </trkpt>
      <trkpt lat="49.88044" lon="2.24542">
        <ele>26.6</ele>
        <time>2024-05-17T13:14:17Z</time>
      </trkpt>
      <trkpt lat="49.88044" lon="2.24542">
        <ele>26.6</ele>
        <time>2024-05-17T13:14:18Z</time>
      </trkpt>
      <trkpt lat="49.88044" lon="2.24542">
        <ele>26.6</ele>
        <time>2024-05-17T13:14:19Z</time>
      </trkpt>
      <trkpt lat="49.88043" lon="2.24542">
        <ele>26.6</ele>
        <time>2024-05-17T13:14:20Z</time>
      </trkpt>
      <trkpt lat="49.88044" lon="2.24543">
        <ele>26.6</ele>
        <time>2024-05-17T13:14:21Z</time>
      </trkpt>
      <trkpt lat="49.88044" lon="2.24543">
        <ele>26.6</ele>
        <time>2024-05-17T13:14:22Z</time>
      </trkpt>
      <trkpt lat="49.88044" lon="2.24543">
        <ele>26.6</ele>
        <time>2024-05-17T13:14:23Z</time>
      </trkpt>
      <trkpt lat="49.88044" lon="2.24543">
        <ele>26.6</ele>
        <time>2024-05-17T13:14:24Z</time>
      </trkpt>
      <trkpt lat="49.88044" lon="2.24543">
        <ele>26.6</ele>
        <time>2024-05-17T13:14:25Z</time>
      </trkpt>
      <trkpt lat="49.88044" lon="2.24543">
        <ele>26.6</ele>
        <time>2024-05-17T13:14:26Z</time>
      </trkpt>
      <trkpt lat="49.88044" lon="2.24544">
        <ele>26.6</ele>
        <time>2024-05-17T13:14:27Z</time>
      </trkpt>
      <trkpt lat="49.88043" lon="2.24545">
        <ele>26.6</ele>
        <time>2024-05-17T13:14:28Z</time>
      </trkpt>
      <trkpt lat="49.88043" lon="2.24546">
        <ele>26.6</ele>
        <time>2024-05-17T13:14:29Z</time>
      </trkpt>
      <trkpt lat="49.88042" lon="2.24547">
        <ele>26.6</ele>
        <time>2024-05-17T13:14:30Z</time>
      </trkpt>
      <trkpt lat="49.88042" lon="2.24547">
        <ele>26.6</ele>
        <time>2024-05-17T13:14:31Z</time>
      </trkpt>
      <trkpt lat="49.88041" lon="2.24548">
        <ele>26.6</ele>
        <time>2024-05-17T13:14:32Z</time>
      </trkpt>
      <trkpt lat="49.88041" lon="2.24548">
        <ele>26.6</ele>
        <time>2024-05-17T13:14:33Z</time>
      </trkpt>
      <trkpt lat="49.8804" lon="2.24549">
        <ele>26.6</ele>
        <time>2024-05-17T13:14:34Z</time>
      </trkpt>
      <trkpt lat="49.88039" lon="2.24549">
        <ele>26.6</ele>
        <time>2024-05-17T13:14:35Z</time>
      </trkpt>
      <trkpt lat="49.88038" lon="2.2455">
        <ele>26.6</ele>
        <time>2024-05-17T13:14:36Z</time>
      </trkpt>
      <trkpt lat="49.88037" lon="2.24551">
        <ele>26.6</ele>
        <time>2024-05-17T13:14:37Z</time>
      </trkpt>
      <trkpt lat="49.88037" lon="2.24552">
        <ele>26.6</ele>
        <time>2024-05-17T13:14:38Z</time>
      </trkpt>
      <trkpt lat="49.88037" lon="2.24553">
        <ele>26.6</ele>
        <time>2024-05-17T13:14:39Z</time>
      </trkpt>
      <trkpt lat="49.88038" lon="2.24554">
        <ele>26.6</ele>
        <time>2024-05-17T13:14:40Z</time>
      </trkpt>
      <trkpt lat="49.88038" lon="2.24554">
        <ele>26.6</ele>
        <time>2024-05-17T13:14:41Z</time>
      </trkpt>
      <trkpt lat="49.88037" lon="2.24554">
        <ele>26.6</ele>
        <time>2024-05-17T13:14:42Z</time>
      </trkpt>
      <trkpt lat="49.88037" lon="2.24555">
        <ele>26.6</ele>
        <time>2024-05-17T13:14:43Z</time>
      </trkpt>
      <trkpt lat="49.88037" lon="2.24555">
        <ele>26.6</ele>
        <time>2024-05-17T13:14:44Z</time>
      </trkpt>
      <trkpt lat="49.88037" lon="2.24555">
        <ele>26.6</ele>
        <time>2024-05-17T13:14:45Z</time>
      </trkpt>
      <trkpt lat="49.88037" lon="2.24555">
        <ele>26.6</ele>
        <time>2024-05-17T13:14:46Z</time>
      </trkpt>
      <trkpt lat="49.88036" lon="2.24556">
        <ele>26.6</ele>
        <time>2024-05-17T13:14:47Z</time>
      </trkpt>
      <trkpt lat="49.88035" lon="2.24556">
        <ele>26.6</ele>
        <time>2024-05-17T13:14:48Z</time>
      </trkpt>
      <trkpt lat="49.88034" lon="2.24556">
        <ele>26.6</ele>
        <time>2024-05-17T13:14:49Z</time>
      </trkpt>
      <trkpt lat="49.88033" lon="2.24557">
        <ele>26.6</ele>
        <time>2024-05-17T13:14:50Z</time>
      </trkpt>
      <trkpt lat="49.88033" lon="2.24559">
        <ele>26.6</ele>
        <time>2024-05-17T13:14:51Z</time>
      </trkpt>
      <trkpt lat="49.88032" lon="2.2456">
        <ele>26.6</ele>
        <time>2024-05-17T13:14:52Z</time>
      </trkpt>
      <trkpt lat="49.88031" lon="2.24562">
        <ele>26.6</ele>
        <time>2024-05-17T13:14:53Z</time>
      </trkpt>
      <trkpt lat="49.88031" lon="2.24565">
        <ele>26.6</ele>
        <time>2024-05-17T13:14:54Z</time>
      </trkpt>
      <trkpt lat="49.88029" lon="2.24567">
        <ele>26.6</ele>
        <time>2024-05-17T13:14:55Z</time>
      </trkpt>
      <trkpt lat="49.88029" lon="2.24568">
        <ele>26.6</ele>
        <time>2024-05-17T13:14:56Z</time>
      </trkpt>
      <trkpt lat="49.88028" lon="2.24568">
        <ele>26.6</ele>
        <time>2024-05-17T13:14:57Z</time>
      </trkpt>
      <trkpt lat="49.88026" lon="2.2457">
        <ele>26.6</ele>
        <time>2024-05-17T13:14:58Z</time>
      </trkpt>
      <trkpt lat="49.88026" lon="2.24572">
        <ele>26.6</ele>
        <time>2024-05-17T13:14:59Z</time>
      </trkpt>
      <trkpt lat="49.88025" lon="2.24573">
        <ele>26.6</ele>
        <time>2024-05-17T13:15:00Z</time>
      </trkpt>
      <trkpt lat="49.88024" lon="2.24574">
        <ele>26.6</ele>
        <time>2024-05-17T13:15:01Z</time>
      </trkpt>
      <trkpt lat="49.88024" lon="2.24575">
        <ele>26.6</ele>
        <time>2024-05-17T13:15:02Z</time>
      </trkpt>
      <trkpt lat="49.88024" lon="2.24576">
        <ele>26.6</ele>
        <time>2024-05-17T13:15:03Z</time>
      </trkpt>
      <trkpt lat="49.88023" lon="2.24576">
        <ele>26.6</ele>
        <time>2024-05-17T13:15:04Z</time>
      </trkpt>
      <trkpt lat="49.88023" lon="2.24577">
        <ele>26.6</ele>
        <time>2024-05-17T13:15:05Z</time>
      </trkpt>
      <trkpt lat="49.88022" lon="2.24578">
        <ele>26.6</ele>
        <time>2024-05-17T13:15:06Z</time>
      </trkpt>
      <trkpt lat="49.88021" lon="2.24579">
        <ele>26.6</ele>
        <time>2024-05-17T13:15:07Z</time>
      </trkpt>
      <trkpt lat="49.88021" lon="2.24579">
        <ele>26.6</ele>
        <time>2024-05-17T13:15:08Z</time>
      </trkpt>
      <trkpt lat="49.8802" lon="2.24581">
        <ele>26.6</ele>
        <time>2024-05-17T13:15:09Z</time>
      </trkpt>
      <trkpt lat="49.88019" lon="2.24581">
        <ele>26.6</ele>
        <time>2024-05-17T13:15:10Z</time>
      </trkpt>
      <trkpt lat="49.88019" lon="2.24582">
        <ele>26.6</ele>
        <time>2024-05-17T13:15:11Z</time>
      </trkpt>
      <trkpt lat="49.88018" lon="2.24583">
        <ele>26.6</ele>
        <time>2024-05-17T13:15:12Z</time>
      </trkpt>
      <trkpt lat="49.88018" lon="2.24583">
        <ele>26.6</ele>
        <time>2024-05-17T13:15:13Z</time>
      </trkpt>
      <trkpt lat="49.88017" lon="2.24584">
        <ele>26.6</ele>
        <time>2024-05-17T13:15:14Z</time>
      </trkpt>
      <trkpt lat="49.88017" lon="2.24584">
        <ele>26.6</ele>
        <time>2024-05-17T13:15:15Z</time>
      </trkpt>
      <trkpt lat="49.88017" lon="2.24584">
        <ele>26.6</ele>
        <time>2024-05-17T13:15:16Z</time>
      </trkpt>
      <trkpt lat="49.88016" lon="2.24585">
        <ele>26.6</ele>
        <time>2024-05-17T13:15:17Z</time>
      </trkpt>
      <trkpt lat="49.88016" lon="2.24585">
        <ele>26.6</ele>
        <time>2024-05-17T13:15:18Z</time>
      </trkpt>
      <trkpt lat="49.88016" lon="2.24585">
        <ele>26.6</ele>
        <time>2024-05-17T13:15:19Z</time>
      </trkpt>
      <trkpt lat="49.88015" lon="2.24585">
        <ele>26.6</ele>
        <time>2024-05-17T13:15:20Z</time>
      </trkpt>
      <trkpt lat="49.88015" lon="2.24586">
        <ele>26.6</ele>
        <time>2024-05-17T13:15:21Z</time>
      </trkpt>
      <trkpt lat="49.88014" lon="2.24587">
        <ele>26.6</ele>
        <time>2024-05-17T13:15:22Z</time>
      </trkpt>
      <trkpt lat="49.88013" lon="2.24587">
        <ele>26.6</ele>
        <time>2024-05-17T13:15:23Z</time>
      </trkpt>
      <trkpt lat="49.88012" lon="2.24588">
        <ele>26.6</ele>
        <time>2024-05-17T13:15:24Z</time>
      </trkpt>
      <trkpt lat="49.88011" lon="2.24589">
        <ele>26.6</ele>
        <time>2024-05-17T13:15:25Z</time>
      </trkpt>
      <trkpt lat="49.88011" lon="2.2459">
        <ele>26.6</ele>
        <time>2024-05-17T13:15:26Z</time>
      </trkpt>
      <trkpt lat="49.8801" lon="2.24592">
        <ele>26.5</ele>
        <time>2024-05-17T13:15:27Z</time>
      </trkpt>
      <trkpt lat="49.88009" lon="2.24592">
        <ele>26.5</ele>
        <time>2024-05-17T13:15:28Z</time>
      </trkpt>
      <trkpt lat="49.88008" lon="2.24593">
        <ele>26.5</ele>
        <time>2024-05-17T13:15:29Z</time>
      </trkpt>
      <trkpt lat="49.88007" lon="2.24593">
        <ele>26.5</ele>
        <time>2024-05-17T13:15:30Z</time>
      </trkpt>
      <trkpt lat="49.88006" lon="2.24594">
        <ele>26.5</ele>
        <time>2024-05-17T13:15:31Z</time>
      </trkpt>
      <trkpt lat="49.88005" lon="2.24595">
        <ele>26.5</ele>
        <time>2024-05-17T13:15:32Z</time>
      </trkpt>
      <trkpt lat="49.88003" lon="2.24596">
        <ele>26.5</ele>
        <time>2024-05-17T13:15:33Z</time>
      </trkpt>
      <trkpt lat="49.88002" lon="2.24597">
        <ele>26.5</ele>
        <time>2024-05-17T13:15:34Z</time>
      </trkpt>
      <trkpt lat="49.88002" lon="2.24598">
        <ele>26.5</ele>
        <time>2024-05-17T13:15:35Z</time>
      </trkpt>
      <trkpt lat="49.88" lon="2.24599">
        <ele>26.5</ele>
        <time>2024-05-17T13:15:36Z</time>
      </trkpt>
      <trkpt lat="49.87999" lon="2.246">
        <ele>26.5</ele>
        <time>2024-05-17T13:15:37Z</time>
      </trkpt>
      <trkpt lat="49.87997" lon="2.24602">
        <ele>26.5</ele>
        <time>2024-05-17T13:15:39Z</time>
      </trkpt>
      <trkpt lat="49.87996" lon="2.24603">
        <ele>26.5</ele>
        <time>2024-05-17T13:15:40Z</time>
      </trkpt>
      <trkpt lat="49.87995" lon="2.24603">
        <ele>26.5</ele>
        <time>2024-05-17T13:15:41Z</time>
      </trkpt>
      <trkpt lat="49.87993" lon="2.24604">
        <ele>26.5</ele>
        <time>2024-05-17T13:15:42Z</time>
      </trkpt>
      <trkpt lat="49.87992" lon="2.24604">
        <ele>26.5</ele>
        <time>2024-05-17T13:15:43Z</time>
      </trkpt>
      <trkpt lat="49.8799" lon="2.24605">
        <ele>26.5</ele>
        <time>2024-05-17T13:15:44Z</time>
      </trkpt>
      <trkpt lat="49.87453" lon="2.24258">
        <ele>25.2</ele>
        <time>2024-05-17T13:46:35Z</time>
      </trkpt>
      <trkpt lat="49.86917" lon="2.23911">
        <ele>29.7</ele>
        <time>2024-05-17T13:46:47Z</time>
      </trkpt>
      <trkpt lat="49.86915" lon="2.23908">
        <ele>29.8</ele>
        <time>2024-05-17T13:46:48Z</time>
      </trkpt>
      <trkpt lat="49.86917" lon="2.23913">
        <ele>29.8</ele>
        <time>2024-05-17T13:46:49Z</time>
      </trkpt>
      <trkpt lat="49.8692" lon="2.23914">
        <ele>29.8</ele>
        <time>2024-05-17T13:46:50Z</time>
      </trkpt>
      <trkpt lat="49.86922" lon="2.23914">
        <ele>29.9</ele>
        <time>2024-05-17T13:46:52Z</time>
      </trkpt>
      <trkpt lat="49.86922" lon="2.23915">
        <ele>30</ele>
        <time>2024-05-17T13:46:53Z</time>
      </trkpt>
      <trkpt lat="49.86923" lon="2.23915">
        <ele>30</ele>
        <time>2024-05-17T13:46:54Z</time>
      </trkpt>
      <trkpt lat="49.86923" lon="2.23915">
        <ele>30</ele>
        <time>2024-05-17T13:46:55Z</time>
      </trkpt>
      <trkpt lat="49.86924" lon="2.23915">
        <ele>30.1</ele>
        <time>2024-05-17T13:46:56Z</time>
      </trkpt>
      <trkpt lat="49.86924" lon="2.23915">
        <ele>30.2</ele>
        <time>2024-05-17T13:46:57Z</time>
      </trkpt>
      <trkpt lat="49.86924" lon="2.23915">
        <ele>30.2</ele>
        <time>2024-05-17T13:46:58Z</time>
      </trkpt>
      <trkpt lat="49.86924" lon="2.23915">
        <ele>30.3</ele>
        <time>2024-05-17T13:46:59Z</time>
      </trkpt>
      <trkpt lat="49.86924" lon="2.23915">
        <ele>30.4</ele>
        <time>2024-05-17T13:47:00Z</time>
      </trkpt>
      <trkpt lat="49.86924" lon="2.23915">
        <ele>30.5</ele>
        <time>2024-05-17T13:47:01Z</time>
      </trkpt>
      <trkpt lat="49.86924" lon="2.23915">
        <ele>30.5</ele>
        <time>2024-05-17T13:47:02Z</time>
      </trkpt>
      <trkpt lat="49.86924" lon="2.23915">
        <ele>30.6</ele>
        <time>2024-05-17T13:47:03Z</time>
      </trkpt>
      <trkpt lat="49.86924" lon="2.23915">
        <ele>30.7</ele>
        <time>2024-05-17T13:47:04Z</time>
      </trkpt>
      <trkpt lat="49.86924" lon="2.23915">
        <ele>30.8</ele>
        <time>2024-05-17T13:47:05Z</time>
      </trkpt>
      <trkpt lat="49.86924" lon="2.23915">
        <ele>30.8</ele>
        <time>2024-05-17T13:47:06Z</time>
      </trkpt>
      <trkpt lat="49.86924" lon="2.23915">
        <ele>30.9</ele>
        <time>2024-05-17T13:47:07Z</time>
      </trkpt>
      <trkpt lat="49.86924" lon="2.23915">
        <ele>31</ele>
        <time>2024-05-17T13:47:08Z</time>
      </trkpt>
      <trkpt lat="49.86926" lon="2.23916">
        <ele>31</ele>
        <time>2024-05-17T13:47:09Z</time>
      </trkpt>
      <trkpt lat="49.86927" lon="2.23916">
        <ele>31.1</ele>
        <time>2024-05-17T13:47:10Z</time>
      </trkpt>
      <trkpt lat="49.86928" lon="2.23917">
        <ele>31.2</ele>
        <time>2024-05-17T13:47:11Z</time>
      </trkpt>
      <trkpt lat="49.86928" lon="2.23917">
        <ele>31.2</ele>
        <time>2024-05-17T13:47:12Z</time>
      </trkpt>
      <trkpt lat="49.86928" lon="2.23918">
        <ele>31.3</ele>
        <time>2024-05-17T13:47:13Z</time>
      </trkpt>
      <trkpt lat="49.86928" lon="2.23918">
        <ele>31.3</ele>
        <time>2024-05-17T13:47:14Z</time>
      </trkpt>
      <trkpt lat="49.86928" lon="2.23918">
        <ele>31.4</ele>
        <time>2024-05-17T13:47:15Z</time>
      </trkpt>
      <trkpt lat="49.86928" lon="2.23918">
        <ele>31.4</ele>
        <time>2024-05-17T13:47:16Z</time>
      </trkpt>
      <trkpt lat="49.86928" lon="2.23917">
        <ele>31.4</ele>
        <time>2024-05-17T13:47:17Z</time>
      </trkpt>
      <trkpt lat="49.86928" lon="2.23916">
        <ele>31.4</ele>
        <time>2024-05-17T13:47:18Z</time>
      </trkpt>
      <trkpt lat="49.86928" lon="2.23916">
        <ele>31.4</ele>
        <time>2024-05-17T13:47:19Z</time>
      </trkpt>
      <trkpt lat="49.86927" lon="2.23915">
        <ele>31.4</ele>
        <time>2024-05-17T13:47:20Z</time>
      </trkpt>
      <trkpt lat="49.86927" lon="2.23915">
        <ele>31.4</ele>
        <time>2024-05-17T13:47:21Z</time>
      </trkpt>
      <trkpt lat="49.86927" lon="2.23914">
        <ele>31.4</ele>
        <time>2024-05-17T13:47:22Z</time>
      </trkpt>
      <trkpt lat="49.86927" lon="2.23914">
        <ele>31.5</ele>
        <time>2024-05-17T13:47:23Z</time>
      </trkpt>
      <trkpt lat="49.86927" lon="2.23913">
        <ele>31.5</ele>
        <time>2024-05-17T13:47:24Z</time>
      </trkpt>
      <trkpt lat="49.86926" lon="2.23911">
        <ele>31.5</ele>
        <time>2024-05-17T13:47:25Z</time>
      </trkpt>
      <trkpt lat="49.86925" lon="2.23909">
        <ele>31.5</ele>
        <time>2024-05-17T13:47:26Z</time>
      </trkpt>
      <trkpt lat="49.86925" lon="2.23908">
        <ele>31.5</ele>
        <time>2024-05-17T13:47:27Z</time>
      </trkpt>
      <trkpt lat="49.86924" lon="2.23906">
        <ele>31.5</ele>
        <time>2024-05-17T13:47:28Z</time>
      </trkpt>
      <trkpt lat="49.86924" lon="2.23905">
        <ele>31.5</ele>
        <time>2024-05-17T13:47:29Z</time>
      </trkpt>
      <trkpt lat="49.86923" lon="2.23904">
        <ele>31.5</ele>
        <time>2024-05-17T13:47:30Z</time>
      </trkpt>
      <trkpt lat="49.86923" lon="2.23902">
        <ele>31.5</ele>
        <time>2024-05-17T13:47:31Z</time>
      </trkpt>
      <trkpt lat="49.86922" lon="2.23901">
        <ele>31.5</ele>
        <time>2024-05-17T13:47:32Z</time>
      </trkpt>
      <trkpt lat="49.86921" lon="2.23899">
        <ele>31.6</ele>
        <time>2024-05-17T13:47:33Z</time>
      </trkpt>
      <trkpt lat="49.8692" lon="2.23898">
        <ele>31.6</ele>
        <time>2024-05-17T13:47:34Z</time>
      </trkpt>
      <trkpt lat="49.8692" lon="2.23897">
        <ele>31.6</ele>
        <time>2024-05-17T13:47:35Z</time>
      </trkpt>
      <trkpt lat="49.86918" lon="2.23896">
        <ele>31.6</ele>
        <time>2024-05-17T13:47:36Z</time>
      </trkpt>
      <trkpt lat="49.86917" lon="2.23896">
        <ele>31.6</ele>
        <time>2024-05-17T13:47:37Z</time>
      </trkpt>
      <trkpt lat="49.86916" lon="2.23896">
        <ele>31.6</ele>
        <time>2024-05-17T13:47:38Z</time>
      </trkpt>
      <trkpt lat="49.86915" lon="2.23895">
        <ele>31.6</ele>
        <time>2024-05-17T13:47:39Z</time>
      </trkpt>
      <trkpt lat="49.86915" lon="2.23895">
        <ele>31.6</ele>
        <time>2024-05-17T13:47:40Z</time>
      </trkpt>
      <trkpt lat="49.86914" lon="2.23893">
        <ele>31.6</ele>
        <time>2024-05-17T13:47:41Z</time>
      </trkpt>
      <trkpt lat="49.86912" lon="2.23891">
        <ele>31.7</ele>
        <time>2024-05-17T13:47:42Z</time>
      </trkpt>
      <trkpt lat="49.86912" lon="2.2389">
        <ele>31.7</ele>
        <time>2024-05-17T13:47:43Z</time>
      </trkpt>
      <trkpt lat="49.86911" lon="2.23889">
        <ele>31.7</ele>
        <time>2024-05-17T13:47:44Z</time>
      </trkpt>
      <trkpt lat="49.86909" lon="2.23885">
        <ele>31.8</ele>
        <time>2024-05-17T13:47:45Z</time>
      </trkpt>
      <trkpt lat="49.86909" lon="2.23883">
        <ele>31.8</ele>
        <time>2024-05-17T13:47:46Z</time>
      </trkpt>
      <trkpt lat="49.86907" lon="2.2388">
        <ele>31.9</ele>
        <time>2024-05-17T13:47:47Z</time>
      </trkpt>
      <trkpt lat="49.86906" lon="2.23878">
        <ele>31.9</ele>
        <time>2024-05-17T13:47:48Z</time>
      </trkpt>
      <trkpt lat="49.86905" lon="2.23876">
        <ele>32</ele>
        <time>2024-05-17T13:47:49Z</time>
      </trkpt>
      <trkpt lat="49.86904" lon="2.23874">
        <ele>32</ele>
        <time>2024-05-17T13:47:50Z</time>
      </trkpt>
      <trkpt lat="49.86904" lon="2.23872">
        <ele>32</ele>
        <time>2024-05-17T13:47:51Z</time>
      </trkpt>
      <trkpt lat="49.86903" lon="2.2387">
        <ele>32.1</ele>
        <time>2024-05-17T13:47:52Z</time>
      </trkpt>
      <trkpt lat="49.86903" lon="2.23868">
        <ele>32.1</ele>
        <time>2024-05-17T13:47:53Z</time>
      </trkpt>
      <trkpt lat="49.86902" lon="2.23867">
        <ele>32.1</ele>
        <time>2024-05-17T13:47:54Z</time>
      </trkpt>
      <trkpt lat="49.86902" lon="2.23866">
        <ele>32.2</ele>
        <time>2024-05-17T13:47:55Z</time>
      </trkpt>
      <trkpt lat="49.86902" lon="2.23865">
        <ele>32.2</ele>
        <time>2024-05-17T13:47:56Z</time>
      </trkpt>
      <trkpt lat="49.86901" lon="2.23864">
        <ele>32.2</ele>
        <time>2024-05-17T13:47:57Z</time>
      </trkpt>
      <trkpt lat="49.86901" lon="2.23862">
        <ele>32.2</ele>
        <time>2024-05-17T13:47:58Z</time>
      </trkpt>
      <trkpt lat="49.86901" lon="2.23862">
        <ele>32.2</ele>
        <time>2024-05-17T13:47:59Z</time>
      </trkpt>
      <trkpt lat="49.869" lon="2.2386">
        <ele>32.3</ele>
        <time>2024-05-17T13:48:00Z</time>
      </trkpt>
      <trkpt lat="49.869" lon="2.23859">
        <ele>32.3</ele>
        <time>2024-05-17T13:48:01Z</time>
      </trkpt>
      <trkpt lat="49.86899" lon="2.23858">
        <ele>32.3</ele>
        <time>2024-05-17T13:48:02Z</time>
      </trkpt>
      <trkpt lat="49.86899" lon="2.23858">
        <ele>32.3</ele>
        <time>2024-05-17T13:48:03Z</time>
      </trkpt>
      <trkpt lat="49.86899" lon="2.23857">
        <ele>32.3</ele>
        <time>2024-05-17T13:48:04Z</time>
      </trkpt>
      <trkpt lat="49.86898" lon="2.23856">
        <ele>32.3</ele>
        <time>2024-05-17T13:48:05Z</time>
      </trkpt>
      <trkpt lat="49.86898" lon="2.23855">
        <ele>32.4</ele>
        <time>2024-05-17T13:48:06Z</time>
      </trkpt>
      <trkpt lat="49.86897" lon="2.23853">
        <ele>32.4</ele>
        <time>2024-05-17T13:48:07Z</time>
      </trkpt>
      <trkpt lat="49.86897" lon="2.23852">
        <ele>32.4</ele>
        <time>2024-05-17T13:48:08Z</time>
      </trkpt>
      <trkpt lat="49.86897" lon="2.2385">
        <ele>32.4</ele>
        <time>2024-05-17T13:48:09Z</time>
      </trkpt>
      <trkpt lat="49.86897" lon="2.23849">
        <ele>32.5</ele>
        <time>2024-05-17T13:48:10Z</time>
      </trkpt>
      <trkpt lat="49.86897" lon="2.23848">
        <ele>32.5</ele>
        <time>2024-05-17T13:48:11Z</time>
      </trkpt>
      <trkpt lat="49.86896" lon="2.23846">
        <ele>32.5</ele>
        <time>2024-05-17T13:48:12Z</time>
      </trkpt>
      <trkpt lat="49.86896" lon="2.23844">
        <ele>32.5</ele>
        <time>2024-05-17T13:48:13Z</time>
      </trkpt>
      <trkpt lat="49.86896" lon="2.23843">
        <ele>32.6</ele>
        <time>2024-05-17T13:48:14Z</time>
      </trkpt>
      <trkpt lat="49.86895" lon="2.23841">
        <ele>32.6</ele>
        <time>2024-05-17T13:48:15Z</time>
      </trkpt>
      <trkpt lat="49.86894" lon="2.2384">
        <ele>32.6</ele>
        <time>2024-05-17T13:48:16Z</time>
      </trkpt>
      <trkpt lat="49.86894" lon="2.23839">
        <ele>32.6</ele>
        <time>2024-05-17T13:48:17Z</time>
      </trkpt>
      <trkpt lat="49.86894" lon="2.23838">
        <ele>32.6</ele>
        <time>2024-05-17T13:48:18Z</time>
      </trkpt>
      <trkpt lat="49.86893" lon="2.23837">
        <ele>32.7</ele>
        <time>2024-05-17T13:48:19Z</time>
      </trkpt>
      <trkpt lat="49.86892" lon="2.23836">
        <ele>32.7</ele>
        <time>2024-05-17T13:48:20Z</time>
      </trkpt>
      <trkpt lat="49.86891" lon="2.23834">
        <ele>32.7</ele>
        <time>2024-05-17T13:48:21Z</time>
      </trkpt>
      <trkpt lat="49.86891" lon="2.23833">
        <ele>32.7</ele>
        <time>2024-05-17T13:48:22Z</time>
      </trkpt>
      <trkpt lat="49.8689" lon="2.23832">
        <ele>32.8</ele>
        <time>2024-05-17T13:48:23Z</time>
      </trkpt>
      <trkpt lat="49.86889" lon="2.23831">
        <ele>32.8</ele>
        <time>2024-05-17T13:48:24Z</time>
      </trkpt>
      <trkpt lat="49.86889" lon="2.23829">
        <ele>32.8</ele>
        <time>2024-05-17T13:48:25Z</time>
      </trkpt>
      <trkpt lat="49.86888" lon="2.23828">
        <ele>32.8</ele>
        <time>2024-05-17T13:48:26Z</time>
      </trkpt>
      <trkpt lat="49.86888" lon="2.23827">
        <ele>32.8</ele>
        <time>2024-05-17T13:48:27Z</time>
      </trkpt>
      <trkpt lat="49.86888" lon="2.23826">
        <ele>32.8</ele>
        <time>2024-05-17T13:48:28Z</time>
      </trkpt>
      <trkpt lat="49.86887" lon="2.23825">
        <ele>32.9</ele>
        <time>2024-05-17T13:48:29Z</time>
      </trkpt>
      <trkpt lat="49.86887" lon="2.23825">
        <ele>32.9</ele>
        <time>2024-05-17T13:48:30Z</time>
      </trkpt>
      <trkpt lat="49.86887" lon="2.23824">
        <ele>32.9</ele>
        <time>2024-05-17T13:48:31Z</time>
      </trkpt>
      <trkpt lat="49.86887" lon="2.23823">
        <ele>32.9</ele>
        <time>2024-05-17T13:48:32Z</time>
      </trkpt>
      <trkpt lat="49.86887" lon="2.23822">
        <ele>32.9</ele>
        <time>2024-05-17T13:48:33Z</time>
      </trkpt>
      <trkpt lat="49.86886" lon="2.23819">
        <ele>32.9</ele>
        <time>2024-05-17T13:48:34Z</time>
      </trkpt>
      <trkpt lat="49.86886" lon="2.23817">
        <ele>33</ele>
        <time>2024-05-17T13:48:35Z</time>
      </trkpt>
      <trkpt lat="49.86885" lon="2.23816">
        <ele>33</ele>
        <time>2024-05-17T13:48:36Z</time>
      </trkpt>
      <trkpt lat="49.86884" lon="2.23814">
        <ele>33</ele>
        <time>2024-05-17T13:48:37Z</time>
      </trkpt>
      <trkpt lat="49.86884" lon="2.23813">
        <ele>33</ele>
        <time>2024-05-17T13:48:38Z</time>
      </trkpt>
      <trkpt lat="49.86883" lon="2.23812">
        <ele>33</ele>
        <time>2024-05-17T13:48:39Z</time>
      </trkpt>
      <trkpt lat="49.86883" lon="2.23811">
        <ele>33</ele>
        <time>2024-05-17T13:48:40Z</time>
      </trkpt>
      <trkpt lat="49.86882" lon="2.2381">
        <ele>33.1</ele>
        <time>2024-05-17T13:48:41Z</time>
      </trkpt>
      <trkpt lat="49.86881" lon="2.23808">
        <ele>33.1</ele>
        <time>2024-05-17T13:48:42Z</time>
      </trkpt>
      <trkpt lat="49.8688" lon="2.23805">
        <ele>33.1</ele>
        <time>2024-05-17T13:48:43Z</time>
      </trkpt>
      <trkpt lat="49.8688" lon="2.23804">
        <ele>33.1</ele>
        <time>2024-05-17T13:48:44Z</time>
      </trkpt>
      <trkpt lat="49.86879" lon="2.23803">
        <ele>33.1</ele>
        <time>2024-05-17T13:48:45Z</time>
      </trkpt>
      <trkpt lat="49.86879" lon="2.23802">
        <ele>33.2</ele>
        <time>2024-05-17T13:48:46Z</time>
      </trkpt>
      <trkpt lat="49.86878" lon="2.238">
        <ele>33.2</ele>
        <time>2024-05-17T13:48:47Z</time>
      </trkpt>
      <trkpt lat="49.86878" lon="2.23799">
        <ele>33.2</ele>
        <time>2024-05-17T13:48:48Z</time>
      </trkpt>
      <trkpt lat="49.86878" lon="2.23797">
        <ele>33.2</ele>
        <time>2024-05-17T13:48:49Z</time>
      </trkpt>
      <trkpt lat="49.86877" lon="2.23795">
        <ele>33.2</ele>
        <time>2024-05-17T13:48:50Z</time>
      </trkpt>
      <trkpt lat="49.86877" lon="2.23794">
        <ele>33.2</ele>
        <time>2024-05-17T13:48:51Z</time>
      </trkpt>
      <trkpt lat="49.86876" lon="2.23791">
        <ele>33.3</ele>
        <time>2024-05-17T13:48:52Z</time>
      </trkpt>
      <trkpt lat="49.86876" lon="2.2379">
        <ele>33.3</ele>
        <time>2024-05-17T13:48:53Z</time>
      </trkpt>
      <trkpt lat="49.86876" lon="2.23788">
        <ele>33.3</ele>
        <time>2024-05-17T13:48:54Z</time>
      </trkpt>
      <trkpt lat="49.86876" lon="2.23787">
        <ele>33.3</ele>
        <time>2024-05-17T13:48:55Z</time>
      </trkpt>
      <trkpt lat="49.86877" lon="2.23786">
        <ele>33.3</ele>
        <time>2024-05-17T13:48:56Z</time>
      </trkpt>
      <trkpt lat="49.86877" lon="2.23785">
        <ele>33.3</ele>
        <time>2024-05-17T13:48:57Z</time>
      </trkpt>
      <trkpt lat="49.86876" lon="2.23784">
        <ele>33.3</ele>
        <time>2024-05-17T13:48:58Z</time>
      </trkpt>
      <trkpt lat="49.86876" lon="2.23783">
        <ele>33.3</ele>
        <time>2024-05-17T13:48:59Z</time>
      </trkpt>
      <trkpt lat="49.86876" lon="2.23782">
        <ele>33.4</ele>
        <time>2024-05-17T13:49:00Z</time>
      </trkpt>
      <trkpt lat="49.86875" lon="2.2378">
        <ele>33.4</ele>
        <time>2024-05-17T13:49:01Z</time>
      </trkpt>
      <trkpt lat="49.86875" lon="2.23778">
        <ele>33.4</ele>
        <time>2024-05-17T13:49:02Z</time>
      </trkpt>
      <trkpt lat="49.86874" lon="2.23777">
        <ele>33.4</ele>
        <time>2024-05-17T13:49:03Z</time>
      </trkpt>
      <trkpt lat="49.86874" lon="2.23776">
        <ele>33.4</ele>
        <time>2024-05-17T13:49:04Z</time>
      </trkpt>
      <trkpt lat="49.86873" lon="2.23774">
        <ele>33.4</ele>
        <time>2024-05-17T13:49:05Z</time>
      </trkpt>
      <trkpt lat="49.86872" lon="2.23771">
        <ele>33.5</ele>
        <time>2024-05-17T13:49:06Z</time>
      </trkpt>
      <trkpt lat="49.86872" lon="2.23768">
        <ele>33.5</ele>
        <time>2024-05-17T13:49:07Z</time>
      </trkpt>
      <trkpt lat="49.86871" lon="2.23766">
        <ele>33.5</ele>
        <time>2024-05-17T13:49:08Z</time>
      </trkpt>
      <trkpt lat="49.8687" lon="2.23762">
        <ele>33.6</ele>
        <time>2024-05-17T13:49:09Z</time>
      </trkpt>
      <trkpt lat="49.86869" lon="2.23761">
        <ele>33.6</ele>
        <time>2024-05-17T13:49:10Z</time>
      </trkpt>
      <trkpt lat="49.86869" lon="2.23758">
        <ele>33.6</ele>
        <time>2024-05-17T13:49:11Z</time>
      </trkpt>
      <trkpt lat="49.86868" lon="2.23755">
        <ele>33.7</ele>
        <time>2024-05-17T13:49:12Z</time>
      </trkpt>
      <trkpt lat="49.86868" lon="2.23753">
        <ele>33.7</ele>
        <time>2024-05-17T13:49:13Z</time>
      </trkpt>
      <trkpt lat="49.86868" lon="2.2375">
        <ele>33.7</ele>
        <time>2024-05-17T13:49:14Z</time>
      </trkpt>
      <trkpt lat="49.86868" lon="2.23748">
        <ele>33.7</ele>
        <time>2024-05-17T13:49:15Z</time>
      </trkpt>
      <trkpt lat="49.86867" lon="2.23746">
        <ele>33.8</ele>
        <time>2024-05-17T13:49:16Z</time>
      </trkpt>
      <trkpt lat="49.86867" lon="2.23743">
        <ele>33.8</ele>
        <time>2024-05-17T13:49:17Z</time>
      </trkpt>
      <trkpt lat="49.86866" lon="2.23742">
        <ele>33.8</ele>
        <time>2024-05-17T13:49:18Z</time>
      </trkpt>
      <trkpt lat="49.86866" lon="2.23741">
        <ele>33.9</ele>
        <time>2024-05-17T13:49:19Z</time>
      </trkpt>
      <trkpt lat="49.86865" lon="2.23738">
        <ele>33.9</ele>
        <time>2024-05-17T13:49:20Z</time>
      </trkpt>
      <trkpt lat="49.86865" lon="2.23737">
        <ele>33.9</ele>
        <time>2024-05-17T13:49:21Z</time>
      </trkpt>
      <trkpt lat="49.86865" lon="2.23735">
        <ele>33.9</ele>
        <time>2024-05-17T13:49:22Z</time>
      </trkpt>
      <trkpt lat="49.86865" lon="2.23733">
        <ele>34</ele>
        <time>2024-05-17T13:49:23Z</time>
      </trkpt>
      <trkpt lat="49.86865" lon="2.23732">
        <ele>34</ele>
        <time>2024-05-17T13:49:24Z</time>
      </trkpt>
      <trkpt lat="49.86865" lon="2.2373">
        <ele>34</ele>
        <time>2024-05-17T13:49:25Z</time>
      </trkpt>
      <trkpt lat="49.86865" lon="2.2373">
        <ele>34</ele>
        <time>2024-05-17T13:49:26Z</time>
      </trkpt>
      <trkpt lat="49.86865" lon="2.23728">
        <ele>34</ele>
        <time>2024-05-17T13:49:27Z</time>
      </trkpt>
      <trkpt lat="49.86864" lon="2.23727">
        <ele>34.1</ele>
        <time>2024-05-17T13:49:28Z</time>
      </trkpt>
      <trkpt lat="49.86864" lon="2.23726">
        <ele>34.1</ele>
        <time>2024-05-17T13:49:29Z</time>
      </trkpt>
      <trkpt lat="49.86863" lon="2.23725">
        <ele>34.1</ele>
        <time>2024-05-17T13:49:30Z</time>
      </trkpt>
      <trkpt lat="49.86863" lon="2.23724">
        <ele>34.1</ele>
        <time>2024-05-17T13:49:31Z</time>
      </trkpt>
      <trkpt lat="49.86863" lon="2.23723">
        <ele>34.1</ele>
        <time>2024-05-17T13:49:32Z</time>
      </trkpt>
      <trkpt lat="49.86863" lon="2.23722">
        <ele>34.2</ele>
        <time>2024-05-17T13:49:33Z</time>
      </trkpt>
      <trkpt lat="49.86863" lon="2.23721">
        <ele>34.2</ele>
        <time>2024-05-17T13:49:34Z</time>
      </trkpt>
      <trkpt lat="49.86862" lon="2.2372">
        <ele>34.2</ele>
        <time>2024-05-17T13:49:35Z</time>
      </trkpt>
      <trkpt lat="49.86862" lon="2.23719">
        <ele>34.2</ele>
        <time>2024-05-17T13:49:36Z</time>
      </trkpt>
      <trkpt lat="49.86862" lon="2.23718">
        <ele>34.2</ele>
        <time>2024-05-17T13:49:37Z</time>
      </trkpt>
      <trkpt lat="49.86861" lon="2.23717">
        <ele>34.2</ele>
        <time>2024-05-17T13:49:38Z</time>
      </trkpt>
      <trkpt lat="49.86861" lon="2.23716">
        <ele>34.3</ele>
        <time>2024-05-17T13:49:39Z</time>
      </trkpt>
      <trkpt lat="49.8686" lon="2.23715">
        <ele>34.3</ele>
        <time>2024-05-17T13:49:40Z</time>
      </trkpt>
      <trkpt lat="49.8686" lon="2.23714">
        <ele>34.3</ele>
        <time>2024-05-17T13:49:41Z</time>
      </trkpt>
      <trkpt lat="49.8686" lon="2.23713">
        <ele>34.3</ele>
        <time>2024-05-17T13:49:42Z</time>
      </trkpt>
      <trkpt lat="49.86859" lon="2.23712">
        <ele>34.3</ele>
        <time>2024-05-17T13:49:43Z</time>
      </trkpt>
      <trkpt lat="49.86859" lon="2.2371">
        <ele>34.4</ele>
        <time>2024-05-17T13:49:44Z</time>
      </trkpt>
      <trkpt lat="49.86859" lon="2.23709">
        <ele>34.4</ele>
        <time>2024-05-17T13:49:45Z</time>
      </trkpt>
      <trkpt lat="49.86858" lon="2.23707">
        <ele>34.4</ele>
        <time>2024-05-17T13:49:46Z</time>
      </trkpt>
      <trkpt lat="49.86858" lon="2.23706">
        <ele>34.5</ele>
        <time>2024-05-17T13:49:47Z</time>
      </trkpt>
      <trkpt lat="49.86857" lon="2.23704">
        <ele>34.5</ele>
        <time>2024-05-17T13:49:48Z</time>
      </trkpt>
      <trkpt lat="49.86856" lon="2.23701">
        <ele>34.5</ele>
        <time>2024-05-17T13:49:49Z</time>
      </trkpt>
      <trkpt lat="49.86856" lon="2.237">
        <ele>34.6</ele>
        <time>2024-05-17T13:49:50Z</time>
      </trkpt>
      <trkpt lat="49.86855" lon="2.23699">
        <ele>34.6</ele>
        <time>2024-05-17T13:49:51Z</time>
      </trkpt>
      <trkpt lat="49.86853" lon="2.23695">
        <ele>34.7</ele>
        <time>2024-05-17T13:49:52Z</time>
      </trkpt>
      <trkpt lat="49.86852" lon="2.23694">
        <ele>34.7</ele>
        <time>2024-05-17T13:49:53Z</time>
      </trkpt>
      <trkpt lat="49.86851" lon="2.23691">
        <ele>34.7</ele>
        <time>2024-05-17T13:49:54Z</time>
      </trkpt>
      <trkpt lat="49.86851" lon="2.23689">
        <ele>34.8</ele>
        <time>2024-05-17T13:49:55Z</time>
      </trkpt>
      <trkpt lat="49.86851" lon="2.23688">
        <ele>34.8</ele>
        <time>2024-05-17T13:49:56Z</time>
      </trkpt>
      <trkpt lat="49.86851" lon="2.23688">
        <ele>34.8</ele>
        <time>2024-05-17T13:49:57Z</time>
      </trkpt>
      <trkpt lat="49.8685" lon="2.23687">
        <ele>34.8</ele>
        <time>2024-05-17T13:49:58Z</time>
      </trkpt>
      <trkpt lat="49.8685" lon="2.23686">
        <ele>34.8</ele>
        <time>2024-05-17T13:49:59Z</time>
      </trkpt>
      <trkpt lat="49.86848" lon="2.23683">
        <ele>34.9</ele>
        <time>2024-05-17T13:50:00Z</time>
      </trkpt>
      <trkpt lat="49.86848" lon="2.23682">
        <ele>34.9</ele>
        <time>2024-05-17T13:50:01Z</time>
      </trkpt>
      <trkpt lat="49.86847" lon="2.23681">
        <ele>35</ele>
        <time>2024-05-17T13:50:02Z</time>
      </trkpt>
      <trkpt lat="49.86846" lon="2.2368">
        <ele>35</ele>
        <time>2024-05-17T13:50:03Z</time>
      </trkpt>
      <trkpt lat="49.86845" lon="2.23678">
        <ele>35</ele>
        <time>2024-05-17T13:50:04Z</time>
      </trkpt>
      <trkpt lat="49.86844" lon="2.23677">
        <ele>35.1</ele>
        <time>2024-05-17T13:50:06Z</time>
      </trkpt>
      <trkpt lat="49.86843" lon="2.23674">
        <ele>35.1</ele>
        <time>2024-05-17T13:50:07Z</time>
      </trkpt>
      <trkpt lat="49.86843" lon="2.23672">
        <ele>35.2</ele>
        <time>2024-05-17T13:50:08Z</time>
      </trkpt>
      <trkpt lat="49.86843" lon="2.23671">
        <ele>35.2</ele>
        <time>2024-05-17T13:50:09Z</time>
      </trkpt>
      <trkpt lat="49.86842" lon="2.23669">
        <ele>35.2</ele>
        <time>2024-05-17T13:50:10Z</time>
      </trkpt>
      <trkpt lat="49.86255" lon="2.22704">
        <ele>44.6</ele>
        <time>2024-05-17T14:21:59Z</time>
      </trkpt>
      <trkpt lat="49.86261" lon="2.22696">
        <ele>44.7</ele>
        <time>2024-05-17T14:22:00Z</time>
      </trkpt>
      <trkpt lat="49.86261" lon="2.22699">
        <ele>44.7</ele>
        <time>2024-05-17T14:22:01Z</time>
      </trkpt>
      <trkpt lat="49.86261" lon="2.227">
        <ele>44.7</ele>
        <time>2024-05-17T14:22:02Z</time>
      </trkpt>
    </trkseg>
  </trk>
</gpx>